<?xml version='1.0' encoding='UTF-8'?>
<gpx version="1.1" creator="https://www.komoot.de" xmlns="http://www.topografix.com/GPX/1/1" xmlns:xsi="http://www.w3.org/2001/XMLSchema-instance" xsi:schemaLocation="http://www.topografix.com/GPX/1/1 http://www.topografix.com/GPX/1/1/gpx.xsd">
  <metadata>
    <name>47_900WehrRuettehof</name>
    <author>
      <link href="https://www.komoot.de">
        <text>komoot</text>
        <type>text/html</type>
      </link>
    </author>
  </metadata>
  <trk>
    <name>47_900WehrRuettehof</name>
    <trkseg>
      <trkpt lat="47.541371" lon="7.870823">
        <ele>339.187872</ele>
        <time>2021-11-08T20:26:21.868Z</time>
      </trkpt>
      <trkpt lat="47.541410" lon="7.870791">
        <ele>339.187872</ele>
        <time>2021-11-08T20:26:22.525Z</time>
      </trkpt>
      <trkpt lat="47.541576" lon="7.870664">
        <ele>339.187872</ele>
        <time>2021-11-08T20:26:24.969Z</time>
      </trkpt>
      <trkpt lat="47.541550" lon="7.870601">
        <ele>339.187872</ele>
        <time>2021-11-08T20:26:25.780Z</time>
      </trkpt>
      <trkpt lat="47.541521" lon="7.870517">
        <ele>339.187872</ele>
        <time>2021-11-08T20:26:26.837Z</time>
      </trkpt>
      <trkpt lat="47.541598" lon="7.870433">
        <ele>339.187872</ele>
        <time>2021-11-08T20:26:28.288Z</time>
      </trkpt>
      <trkpt lat="47.541606" lon="7.870424">
        <ele>339.187872</ele>
        <time>2021-11-08T20:26:28.464Z</time>
      </trkpt>
      <trkpt lat="47.541910" lon="7.870106">
        <ele>339.187872</ele>
        <time>2021-11-08T20:26:34.127Z</time>
      </trkpt>
      <trkpt lat="47.542014" lon="7.870126">
        <ele>339.159887</ele>
        <time>2021-11-08T20:26:35.598Z</time>
      </trkpt>
      <trkpt lat="47.542118" lon="7.870135">
        <ele>339.056968</ele>
        <time>2021-11-08T20:26:37.340Z</time>
      </trkpt>
      <trkpt lat="47.542181" lon="7.870131">
        <ele>338.994672</ele>
        <time>2021-11-08T20:26:38.211Z</time>
      </trkpt>
      <trkpt lat="47.542317" lon="7.870012">
        <ele>338.838627</ele>
        <time>2021-11-08T20:26:40.318Z</time>
      </trkpt>
      <trkpt lat="47.542348" lon="7.869983">
        <ele>338.802406</ele>
        <time>2021-11-08T20:26:40.757Z</time>
      </trkpt>
      <trkpt lat="47.542329" lon="7.869820">
        <ele>338.692094</ele>
        <time>2021-11-08T20:26:42.542Z</time>
      </trkpt>
      <trkpt lat="47.542372" lon="7.869746">
        <ele>338.626979</ele>
        <time>2021-11-08T20:26:43.349Z</time>
      </trkpt>
      <trkpt lat="47.542657" lon="7.869354">
        <ele>338.242772</ele>
        <time>2021-11-08T20:26:48.142Z</time>
      </trkpt>
      <trkpt lat="47.542696" lon="7.869257">
        <ele>338.167479</ele>
        <time>2021-11-08T20:26:49.082Z</time>
      </trkpt>
      <trkpt lat="47.542722" lon="7.869201">
        <ele>338.122153</ele>
        <time>2021-11-08T20:26:49.673Z</time>
      </trkpt>
      <trkpt lat="47.543049" lon="7.868759">
        <ele>337.684835</ele>
        <time>2021-11-08T20:26:54.586Z</time>
      </trkpt>
      <trkpt lat="47.543105" lon="7.868711">
        <ele>337.620918</ele>
        <time>2021-11-08T20:26:55.324Z</time>
      </trkpt>
      <trkpt lat="47.543201" lon="7.868657">
        <ele>337.519471</ele>
        <time>2021-11-08T20:26:56.403Z</time>
      </trkpt>
      <trkpt lat="47.543657" lon="7.868359">
        <ele>336.908200</ele>
        <time>2021-11-08T20:27:02.198Z</time>
      </trkpt>
      <trkpt lat="47.543801" lon="7.868269">
        <ele>336.705974</ele>
        <time>2021-11-08T20:27:04.678Z</time>
      </trkpt>
      <trkpt lat="47.544214" lon="7.867988">
        <ele>336.117925</ele>
        <time>2021-11-08T20:27:12.294Z</time>
      </trkpt>
      <trkpt lat="47.544246" lon="7.867967">
        <ele>336.072640</ele>
        <time>2021-11-08T20:27:12.891Z</time>
      </trkpt>
      <trkpt lat="47.544410" lon="7.867825">
        <ele>335.826853</ele>
        <time>2021-11-08T20:27:16.144Z</time>
      </trkpt>
      <trkpt lat="47.544469" lon="7.867776">
        <ele>335.739334</ele>
        <time>2021-11-08T20:27:17.166Z</time>
      </trkpt>
      <trkpt lat="47.544568" lon="7.867693">
        <ele>335.592147</ele>
        <time>2021-11-08T20:27:19.093Z</time>
      </trkpt>
      <trkpt lat="47.545003" lon="7.867278">
        <ele>335.161874</ele>
        <time>2021-11-08T20:27:27.941Z</time>
      </trkpt>
      <trkpt lat="47.545160" lon="7.866985">
        <ele>335.320573</ele>
        <time>2021-11-08T20:27:32.592Z</time>
      </trkpt>
      <trkpt lat="47.545240" lon="7.866887">
        <ele>335.385813</ele>
        <time>2021-11-08T20:27:34.866Z</time>
      </trkpt>
      <trkpt lat="47.546096" lon="7.866147">
        <ele>336.008675</ele>
        <time>2021-11-08T20:27:59.936Z</time>
      </trkpt>
      <trkpt lat="47.546327" lon="7.865959">
        <ele>336.174315</ele>
        <time>2021-11-08T20:28:06.356Z</time>
      </trkpt>
      <trkpt lat="47.546510" lon="7.865766">
        <ele>336.232841</ele>
        <time>2021-11-08T20:28:12.742Z</time>
      </trkpt>
      <trkpt lat="47.546819" lon="7.865489">
        <ele>336.274854</ele>
        <time>2021-11-08T20:28:20.895Z</time>
      </trkpt>
      <trkpt lat="47.546889" lon="7.865225">
        <ele>336.297125</ele>
        <time>2021-11-08T20:28:24.682Z</time>
      </trkpt>
      <trkpt lat="47.546894" lon="7.864837">
        <ele>336.327596</ele>
        <time>2021-11-08T20:28:29.859Z</time>
      </trkpt>
      <trkpt lat="47.546885" lon="7.864500">
        <ele>336.354077</ele>
        <time>2021-11-08T20:28:35.498Z</time>
      </trkpt>
      <trkpt lat="47.546974" lon="7.864423">
        <ele>336.366066</ele>
        <time>2021-11-08T20:28:37.086Z</time>
      </trkpt>
      <trkpt lat="47.547320" lon="7.863864">
        <ele>336.391808</ele>
        <time>2021-11-08T20:28:47.011Z</time>
      </trkpt>
      <trkpt lat="47.547568" lon="7.863151">
        <ele>335.537150</ele>
        <time>2021-11-08T20:28:56.024Z</time>
      </trkpt>
      <trkpt lat="47.547930" lon="7.861711">
        <ele>333.899842</ele>
        <time>2021-11-08T20:29:12.398Z</time>
      </trkpt>
      <trkpt lat="47.548049" lon="7.860929">
        <ele>333.167611</ele>
        <time>2021-11-08T20:29:21.098Z</time>
      </trkpt>
      <trkpt lat="47.548334" lon="7.859801">
        <ele>332.174943</ele>
        <time>2021-11-08T20:29:34.579Z</time>
      </trkpt>
      <trkpt lat="47.548611" lon="7.858381">
        <ele>331.324585</ele>
        <time>2021-11-08T20:29:52.536Z</time>
      </trkpt>
      <trkpt lat="47.548686" lon="7.857973">
        <ele>331.273537</ele>
        <time>2021-11-08T20:29:57.924Z</time>
      </trkpt>
      <trkpt lat="47.548701" lon="7.857893">
        <ele>331.263514</ele>
        <time>2021-11-08T20:29:59.045Z</time>
      </trkpt>
      <trkpt lat="47.548743" lon="7.857692">
        <ele>331.238113</ele>
        <time>2021-11-08T20:30:01.819Z</time>
      </trkpt>
      <trkpt lat="47.548887" lon="7.857308">
        <ele>331.185083</ele>
        <time>2021-11-08T20:30:07.853Z</time>
      </trkpt>
      <trkpt lat="47.549362" lon="7.855774">
        <ele>330.867737</ele>
        <time>2021-11-08T20:30:31.897Z</time>
      </trkpt>
      <trkpt lat="47.549566" lon="7.855225">
        <ele>330.690583</ele>
        <time>2021-11-08T20:30:40.515Z</time>
      </trkpt>
      <trkpt lat="47.549883" lon="7.854434">
        <ele>330.430541</ele>
        <time>2021-11-08T20:30:51.969Z</time>
      </trkpt>
      <trkpt lat="47.550221" lon="7.853833">
        <ele>329.696372</ele>
        <time>2021-11-08T20:30:58.362Z</time>
      </trkpt>
      <trkpt lat="47.551516" lon="7.851950">
        <ele>324.966466</ele>
        <time>2021-11-08T20:31:17.159Z</time>
      </trkpt>
      <trkpt lat="47.551660" lon="7.851725">
        <ele>324.286768</ele>
        <time>2021-11-08T20:31:19.191Z</time>
      </trkpt>
      <trkpt lat="47.551830" lon="7.851603">
        <ele>323.673278</ele>
        <time>2021-11-08T20:31:21.111Z</time>
      </trkpt>
      <trkpt lat="47.551925" lon="7.851845">
        <ele>323.059599</ele>
        <time>2021-11-08T20:31:22.955Z</time>
      </trkpt>
      <trkpt lat="47.552042" lon="7.852007">
        <ele>322.539503</ele>
        <time>2021-11-08T20:31:24.601Z</time>
      </trkpt>
      <trkpt lat="47.552097" lon="7.852063">
        <ele>322.322760</ele>
        <time>2021-11-08T20:31:25.232Z</time>
      </trkpt>
      <trkpt lat="47.552272" lon="7.852167">
        <ele>321.710373</ele>
        <time>2021-11-08T20:31:27.138Z</time>
      </trkpt>
      <trkpt lat="47.552449" lon="7.852231">
        <ele>321.118635</ele>
        <time>2021-11-08T20:31:28.938Z</time>
      </trkpt>
      <trkpt lat="47.552678" lon="7.851709">
        <ele>319.833789</ele>
        <time>2021-11-08T20:31:33.241Z</time>
      </trkpt>
      <trkpt lat="47.552876" lon="7.851300">
        <ele>319.124863</ele>
        <time>2021-11-08T20:31:36.785Z</time>
      </trkpt>
      <trkpt lat="47.553283" lon="7.850634">
        <ele>317.859440</ele>
        <time>2021-11-08T20:31:43.450Z</time>
      </trkpt>
      <trkpt lat="47.553344" lon="7.850525">
        <ele>317.660007</ele>
        <time>2021-11-08T20:31:44.531Z</time>
      </trkpt>
      <trkpt lat="47.553380" lon="7.850453">
        <ele>317.533803</ele>
        <time>2021-11-08T20:31:45.230Z</time>
      </trkpt>
      <trkpt lat="47.553537" lon="7.849904">
        <ele>316.694022</ele>
        <time>2021-11-08T20:31:49.728Z</time>
      </trkpt>
      <trkpt lat="47.553605" lon="7.849629">
        <ele>316.281526</ele>
        <time>2021-11-08T20:31:51.981Z</time>
      </trkpt>
      <trkpt lat="47.553725" lon="7.849291">
        <ele>315.895583</ele>
        <time>2021-11-08T20:31:54.922Z</time>
      </trkpt>
      <trkpt lat="47.554055" lon="7.848586">
        <ele>315.069600</ele>
        <time>2021-11-08T20:32:01.822Z</time>
      </trkpt>
      <trkpt lat="47.554209" lon="7.848300">
        <ele>314.717367</ele>
        <time>2021-11-08T20:32:04.759Z</time>
      </trkpt>
      <trkpt lat="47.554269" lon="7.848188">
        <ele>314.579703</ele>
        <time>2021-11-08T20:32:05.854Z</time>
      </trkpt>
      <trkpt lat="47.554351" lon="7.848049">
        <ele>314.401970</ele>
        <time>2021-11-08T20:32:07.300Z</time>
      </trkpt>
      <trkpt lat="47.554465" lon="7.847858">
        <ele>314.156501</ele>
        <time>2021-11-08T20:32:09.320Z</time>
      </trkpt>
      <trkpt lat="47.554618" lon="7.847626">
        <ele>313.844223</ele>
        <time>2021-11-08T20:32:11.819Z</time>
      </trkpt>
      <trkpt lat="47.554759" lon="7.847388">
        <ele>313.552643</ele>
        <time>2021-11-08T20:32:14.236Z</time>
      </trkpt>
      <trkpt lat="47.554892" lon="7.847148">
        <ele>313.287166</ele>
        <time>2021-11-08T20:32:16.668Z</time>
      </trkpt>
      <trkpt lat="47.554995" lon="7.846915">
        <ele>313.049053</ele>
        <time>2021-11-08T20:32:18.824Z</time>
      </trkpt>
      <trkpt lat="47.555068" lon="7.846672">
        <ele>312.821666</ele>
        <time>2021-11-08T20:32:20.885Z</time>
      </trkpt>
      <trkpt lat="47.555199" lon="7.846687">
        <ele>312.655233</ele>
        <time>2021-11-08T20:32:22.366Z</time>
      </trkpt>
      <trkpt lat="47.555727" lon="7.846715">
        <ele>311.985983</ele>
        <time>2021-11-08T20:32:28.824Z</time>
      </trkpt>
      <trkpt lat="47.555855" lon="7.846815">
        <ele>311.802689</ele>
        <time>2021-11-08T20:32:30.486Z</time>
      </trkpt>
      <trkpt lat="47.555892" lon="7.846856">
        <ele>311.744165</ele>
        <time>2021-11-08T20:32:31.044Z</time>
      </trkpt>
      <trkpt lat="47.555966" lon="7.846932">
        <ele>311.630114</ele>
        <time>2021-11-08T20:32:32.193Z</time>
      </trkpt>
      <trkpt lat="47.555990" lon="7.846965">
        <ele>311.588640</ele>
        <time>2021-11-08T20:32:32.625Z</time>
      </trkpt>
      <trkpt lat="47.556060" lon="7.846859">
        <ele>311.461859</ele>
        <time>2021-11-08T20:32:33.819Z</time>
      </trkpt>
      <trkpt lat="47.556636" lon="7.845928">
        <ele>310.791792</ele>
        <time>2021-11-08T20:32:44.205Z</time>
      </trkpt>
      <trkpt lat="47.557134" lon="7.845095">
        <ele>310.231112</ele>
        <time>2021-11-08T20:32:54.058Z</time>
      </trkpt>
      <trkpt lat="47.557282" lon="7.844832">
        <ele>310.058584</ele>
        <time>2021-11-08T20:32:57.161Z</time>
      </trkpt>
      <trkpt lat="47.557560" lon="7.844433">
        <ele>309.997285</ele>
        <time>2021-11-08T20:33:02.344Z</time>
      </trkpt>
      <trkpt lat="47.557715" lon="7.843940">
        <ele>309.956629</ele>
        <time>2021-11-08T20:33:07.351Z</time>
      </trkpt>
      <trkpt lat="47.557759" lon="7.843839">
        <ele>309.947643</ele>
        <time>2021-11-08T20:33:08.564Z</time>
      </trkpt>
      <trkpt lat="47.557846" lon="7.843756">
        <ele>309.936182</ele>
        <time>2021-11-08T20:33:09.883Z</time>
      </trkpt>
      <trkpt lat="47.557967" lon="7.843683">
        <ele>309.921711</ele>
        <time>2021-11-08T20:33:11.917Z</time>
      </trkpt>
      <trkpt lat="47.558131" lon="7.843585">
        <ele>309.902123</ele>
        <time>2021-11-08T20:33:14.616Z</time>
      </trkpt>
      <trkpt lat="47.558136" lon="7.843582">
        <ele>309.901526</ele>
        <time>2021-11-08T20:33:14.666Z</time>
      </trkpt>
      <trkpt lat="47.558405" lon="7.843371">
        <ele>309.867812</ele>
        <time>2021-11-08T20:33:19.584Z</time>
      </trkpt>
      <trkpt lat="47.558471" lon="7.843365">
        <ele>309.860488</ele>
        <time>2021-11-08T20:33:20.409Z</time>
      </trkpt>
      <trkpt lat="47.558555" lon="7.843392">
        <ele>309.850967</ele>
        <time>2021-11-08T20:33:21.691Z</time>
      </trkpt>
      <trkpt lat="47.558884" lon="7.843836">
        <ele>309.866008</ele>
        <time>2021-11-08T20:33:28.972Z</time>
      </trkpt>
      <trkpt lat="47.559060" lon="7.844197">
        <ele>309.892148</ele>
        <time>2021-11-08T20:33:33.796Z</time>
      </trkpt>
      <trkpt lat="47.559109" lon="7.844229">
        <ele>309.896805</ele>
        <time>2021-11-08T20:33:34.843Z</time>
      </trkpt>
      <trkpt lat="47.559158" lon="7.844233">
        <ele>309.901073</ele>
        <time>2021-11-08T20:33:35.811Z</time>
      </trkpt>
      <trkpt lat="47.559583" lon="7.843813">
        <ele>309.945503</ele>
        <time>2021-11-08T20:33:43.771Z</time>
      </trkpt>
      <trkpt lat="47.559847" lon="7.843604">
        <ele>309.971535</ele>
        <time>2021-11-08T20:33:48.169Z</time>
      </trkpt>
      <trkpt lat="47.560139" lon="7.843433">
        <ele>309.941576</ele>
        <time>2021-11-08T20:33:52.400Z</time>
      </trkpt>
      <trkpt lat="47.560209" lon="7.843393">
        <ele>309.868496</ele>
        <time>2021-11-08T20:33:53.351Z</time>
      </trkpt>
      <trkpt lat="47.560338" lon="7.843341">
        <ele>309.738273</ele>
        <time>2021-11-08T20:33:55.017Z</time>
      </trkpt>
      <trkpt lat="47.560430" lon="7.843341">
        <ele>309.648657</ele>
        <time>2021-11-08T20:33:56.560Z</time>
      </trkpt>
      <trkpt lat="47.560515" lon="7.843379">
        <ele>309.562174</ele>
        <time>2021-11-08T20:33:57.594Z</time>
      </trkpt>
      <trkpt lat="47.560812" lon="7.843560">
        <ele>309.249363</ele>
        <time>2021-11-08T20:34:01.653Z</time>
      </trkpt>
      <trkpt lat="47.560934" lon="7.843550">
        <ele>309.130343</ele>
        <time>2021-11-08T20:34:03.175Z</time>
      </trkpt>
      <trkpt lat="47.561038" lon="7.843502">
        <ele>309.024238</ele>
        <time>2021-11-08T20:34:04.464Z</time>
      </trkpt>
      <trkpt lat="47.561434" lon="7.843181">
        <ele>308.584564</ele>
        <time>2021-11-08T20:34:09.905Z</time>
      </trkpt>
      <trkpt lat="47.561498" lon="7.843130">
        <ele>308.513781</ele>
        <time>2021-11-08T20:34:10.668Z</time>
      </trkpt>
      <trkpt lat="47.562179" lon="7.842500">
        <ele>307.595523</ele>
        <time>2021-11-08T20:34:19.926Z</time>
      </trkpt>
      <trkpt lat="47.562300" lon="7.842326">
        <ele>307.387438</ele>
        <time>2021-11-08T20:34:21.875Z</time>
      </trkpt>
      <trkpt lat="47.562385" lon="7.842183">
        <ele>307.228731</ele>
        <time>2021-11-08T20:34:23.289Z</time>
      </trkpt>
      <trkpt lat="47.562440" lon="7.842083">
        <ele>307.121292</ele>
        <time>2021-11-08T20:34:24.403Z</time>
      </trkpt>
      <trkpt lat="47.562574" lon="7.841873">
        <ele>306.880592</ele>
        <time>2021-11-08T20:34:26.797Z</time>
      </trkpt>
      <trkpt lat="47.562904" lon="7.841632">
        <ele>306.426547</ele>
        <time>2021-11-08T20:34:31.286Z</time>
      </trkpt>
      <trkpt lat="47.562965" lon="7.841597">
        <ele>306.345817</ele>
        <time>2021-11-08T20:34:32.079Z</time>
      </trkpt>
      <trkpt lat="47.563016" lon="7.841568">
        <ele>306.278400</ele>
        <time>2021-11-08T20:34:32.779Z</time>
      </trkpt>
      <trkpt lat="47.563300" lon="7.841391">
        <ele>305.915826</ele>
        <time>2021-11-08T20:34:36.517Z</time>
      </trkpt>
      <trkpt lat="47.563483" lon="7.841269">
        <ele>305.703421</ele>
        <time>2021-11-08T20:34:39.071Z</time>
      </trkpt>
      <trkpt lat="47.563659" lon="7.841150">
        <ele>305.498649</ele>
        <time>2021-11-08T20:34:41.401Z</time>
      </trkpt>
      <trkpt lat="47.563805" lon="7.841046">
        <ele>305.327180</ele>
        <time>2021-11-08T20:34:43.460Z</time>
      </trkpt>
      <trkpt lat="47.563941" lon="7.840948">
        <ele>305.167107</ele>
        <time>2021-11-08T20:34:45.315Z</time>
      </trkpt>
      <trkpt lat="47.563986" lon="7.840916">
        <ele>305.114274</ele>
        <time>2021-11-08T20:34:45.935Z</time>
      </trkpt>
      <trkpt lat="47.564094" lon="7.840838">
        <ele>304.987102</ele>
        <time>2021-11-08T20:34:47.403Z</time>
      </trkpt>
      <trkpt lat="47.564463" lon="7.840580">
        <ele>304.555224</ele>
        <time>2021-11-08T20:34:52.393Z</time>
      </trkpt>
      <trkpt lat="47.564534" lon="7.840532">
        <ele>304.472619</ele>
        <time>2021-11-08T20:34:53.300Z</time>
      </trkpt>
      <trkpt lat="47.564558" lon="7.840516">
        <ele>304.444762</ele>
        <time>2021-11-08T20:34:53.624Z</time>
      </trkpt>
      <trkpt lat="47.564936" lon="7.840261">
        <ele>303.995590</ele>
        <time>2021-11-08T20:34:58.526Z</time>
      </trkpt>
      <trkpt lat="47.565057" lon="7.840213">
        <ele>303.851818</ele>
        <time>2021-11-08T20:34:59.939Z</time>
      </trkpt>
      <trkpt lat="47.565168" lon="7.840179">
        <ele>303.721720</ele>
        <time>2021-11-08T20:35:01.280Z</time>
      </trkpt>
      <trkpt lat="47.565233" lon="7.840176">
        <ele>303.647078</ele>
        <time>2021-11-08T20:35:02.016Z</time>
      </trkpt>
      <trkpt lat="47.565343" lon="7.840185">
        <ele>303.520628</ele>
        <time>2021-11-08T20:35:03.276Z</time>
      </trkpt>
      <trkpt lat="47.565906" lon="7.840272">
        <ele>302.870919</ele>
        <time>2021-11-08T20:35:09.943Z</time>
      </trkpt>
      <trkpt lat="47.566081" lon="7.840309">
        <ele>302.668022</ele>
        <time>2021-11-08T20:35:12.058Z</time>
      </trkpt>
      <trkpt lat="47.566142" lon="7.840322">
        <ele>302.597286</ele>
        <time>2021-11-08T20:35:12.793Z</time>
      </trkpt>
      <trkpt lat="47.566221" lon="7.840340">
        <ele>302.505546</ele>
        <time>2021-11-08T20:35:13.933Z</time>
      </trkpt>
      <trkpt lat="47.566350" lon="7.840350">
        <ele>302.357278</ele>
        <time>2021-11-08T20:35:15.547Z</time>
      </trkpt>
      <trkpt lat="47.566450" lon="7.840326">
        <ele>302.241004</ele>
        <time>2021-11-08T20:35:16.797Z</time>
      </trkpt>
      <trkpt lat="47.566515" lon="7.840312">
        <ele>302.165614</ele>
        <time>2021-11-08T20:35:17.593Z</time>
      </trkpt>
      <trkpt lat="47.566592" lon="7.840279">
        <ele>302.073613</ele>
        <time>2021-11-08T20:35:18.708Z</time>
      </trkpt>
      <trkpt lat="47.566826" lon="7.840179">
        <ele>301.884290</ele>
        <time>2021-11-08T20:35:21.657Z</time>
      </trkpt>
      <trkpt lat="47.567111" lon="7.839998">
        <ele>301.651949</ele>
        <time>2021-11-08T20:35:25.589Z</time>
      </trkpt>
      <trkpt lat="47.567406" lon="7.839778">
        <ele>301.404488</ele>
        <time>2021-11-08T20:35:29.747Z</time>
      </trkpt>
      <trkpt lat="47.567481" lon="7.839664">
        <ele>301.323986</ele>
        <time>2021-11-08T20:35:31.043Z</time>
      </trkpt>
      <trkpt lat="47.567510" lon="7.839548">
        <ele>301.261441</ele>
        <time>2021-11-08T20:35:32.196Z</time>
      </trkpt>
      <trkpt lat="47.567530" lon="7.839459">
        <ele>301.214014</ele>
        <time>2021-11-08T20:35:33.000Z</time>
      </trkpt>
      <trkpt lat="47.567564" lon="7.839283">
        <ele>301.121454</ele>
        <time>2021-11-08T20:35:34.559Z</time>
      </trkpt>
      <trkpt lat="47.567626" lon="7.839064">
        <ele>301.001378</ele>
        <time>2021-11-08T20:35:36.675Z</time>
      </trkpt>
      <trkpt lat="47.567634" lon="7.839037">
        <ele>300.986469</ele>
        <time>2021-11-08T20:35:36.903Z</time>
      </trkpt>
      <trkpt lat="47.567823" lon="7.838648">
        <ele>300.744109</ele>
        <time>2021-11-08T20:35:41.211Z</time>
      </trkpt>
      <trkpt lat="47.567846" lon="7.838609">
        <ele>300.717921</ele>
        <time>2021-11-08T20:35:41.634Z</time>
      </trkpt>
      <trkpt lat="47.567936" lon="7.838380">
        <ele>300.516964</ele>
        <time>2021-11-08T20:35:43.988Z</time>
      </trkpt>
      <trkpt lat="47.568042" lon="7.838436">
        <ele>300.386432</ele>
        <time>2021-11-08T20:35:46.079Z</time>
      </trkpt>
      <trkpt lat="47.568160" lon="7.838415">
        <ele>300.248574</ele>
        <time>2021-11-08T20:35:48.224Z</time>
      </trkpt>
      <trkpt lat="47.568420" lon="7.838300">
        <ele>299.933843</ele>
        <time>2021-11-08T20:35:53.014Z</time>
      </trkpt>
      <trkpt lat="47.568659" lon="7.838197">
        <ele>299.645133</ele>
        <time>2021-11-08T20:35:57.204Z</time>
      </trkpt>
      <trkpt lat="47.568988" lon="7.838054">
        <ele>299.247437</ele>
        <time>2021-11-08T20:36:02.838Z</time>
      </trkpt>
      <trkpt lat="47.569310" lon="7.837922">
        <ele>298.859910</ele>
        <time>2021-11-08T20:36:08.346Z</time>
      </trkpt>
      <trkpt lat="47.569522" lon="7.837844">
        <ele>298.604574</ele>
        <time>2021-11-08T20:36:11.939Z</time>
      </trkpt>
      <trkpt lat="47.569665" lon="7.837789">
        <ele>298.407860</ele>
        <time>2021-11-08T20:36:14.375Z</time>
      </trkpt>
      <trkpt lat="47.569814" lon="7.837733">
        <ele>298.203184</ele>
        <time>2021-11-08T20:36:16.914Z</time>
      </trkpt>
      <trkpt lat="47.569907" lon="7.837696">
        <ele>298.074969</ele>
        <time>2021-11-08T20:36:18.488Z</time>
      </trkpt>
      <trkpt lat="47.570038" lon="7.837643">
        <ele>297.894158</ele>
        <time>2021-11-08T20:36:20.739Z</time>
      </trkpt>
      <trkpt lat="47.570298" lon="7.837528">
        <ele>297.532876</ele>
        <time>2021-11-08T20:36:25.197Z</time>
      </trkpt>
      <trkpt lat="47.570872" lon="7.837307">
        <ele>296.743217</ele>
        <time>2021-11-08T20:36:35.061Z</time>
      </trkpt>
      <trkpt lat="47.570985" lon="7.837265">
        <ele>296.588097</ele>
        <time>2021-11-08T20:36:36.988Z</time>
      </trkpt>
      <trkpt lat="47.571254" lon="7.837161">
        <ele>296.221690</ele>
        <time>2021-11-08T20:36:41.701Z</time>
      </trkpt>
      <trkpt lat="47.571771" lon="7.836971">
        <ele>295.896609</ele>
        <time>2021-11-08T20:36:51.207Z</time>
      </trkpt>
      <trkpt lat="47.571871" lon="7.836932">
        <ele>295.833501</ele>
        <time>2021-11-08T20:36:53.143Z</time>
      </trkpt>
      <trkpt lat="47.572139" lon="7.836834">
        <ele>295.665036</ele>
        <time>2021-11-08T20:36:58.339Z</time>
      </trkpt>
      <trkpt lat="47.572296" lon="7.836777">
        <ele>295.566386</ele>
        <time>2021-11-08T20:37:01.417Z</time>
      </trkpt>
      <trkpt lat="47.572760" lon="7.836606">
        <ele>295.274583</ele>
        <time>2021-11-08T20:37:10.435Z</time>
      </trkpt>
      <trkpt lat="47.573348" lon="7.836386">
        <ele>294.997322</ele>
        <time>2021-11-08T20:37:21.589Z</time>
      </trkpt>
      <trkpt lat="47.573815" lon="7.836215">
        <ele>294.826159</ele>
        <time>2021-11-08T20:37:30.401Z</time>
      </trkpt>
      <trkpt lat="47.574158" lon="7.836106">
        <ele>294.701339</ele>
        <time>2021-11-08T20:37:36.973Z</time>
      </trkpt>
      <trkpt lat="47.574568" lon="7.836025">
        <ele>294.554163</ele>
        <time>2021-11-08T20:37:42.664Z</time>
      </trkpt>
      <trkpt lat="47.575033" lon="7.835907">
        <ele>294.659635</ele>
        <time>2021-11-08T20:37:49.668Z</time>
      </trkpt>
      <trkpt lat="47.575959" lon="7.835718">
        <ele>295.228417</ele>
        <time>2021-11-08T20:38:05.285Z</time>
      </trkpt>
      <trkpt lat="47.576219" lon="7.835650">
        <ele>295.389069</ele>
        <time>2021-11-08T20:38:10.442Z</time>
      </trkpt>
      <trkpt lat="47.579073" lon="7.834987">
        <ele>298.480837</ele>
        <time>2021-11-08T20:39:09.279Z</time>
      </trkpt>
      <trkpt lat="47.580667" lon="7.834627">
        <ele>298.513719</ele>
        <time>2021-11-08T20:39:33.128Z</time>
      </trkpt>
      <trkpt lat="47.580816" lon="7.834599">
        <ele>298.366938</ele>
        <time>2021-11-08T20:39:35.225Z</time>
      </trkpt>
      <trkpt lat="47.582828" lon="7.834117">
        <ele>295.045839</ele>
        <time>2021-11-08T20:39:58.273Z</time>
      </trkpt>
      <trkpt lat="47.583163" lon="7.833942">
        <ele>294.215527</ele>
        <time>2021-11-08T20:40:02.102Z</time>
      </trkpt>
      <trkpt lat="47.583327" lon="7.833750">
        <ele>293.727026</ele>
        <time>2021-11-08T20:40:04.260Z</time>
      </trkpt>
      <trkpt lat="47.583401" lon="7.833658">
        <ele>293.501264</ele>
        <time>2021-11-08T20:40:05.191Z</time>
      </trkpt>
      <trkpt lat="47.583523" lon="7.833509">
        <ele>293.131758</ele>
        <time>2021-11-08T20:40:06.867Z</time>
      </trkpt>
      <trkpt lat="47.583696" lon="7.833171">
        <ele>291.916460</ele>
        <time>2021-11-08T20:40:09.704Z</time>
      </trkpt>
      <trkpt lat="47.583849" lon="7.832883">
        <ele>290.861928</ele>
        <time>2021-11-08T20:40:12.025Z</time>
      </trkpt>
      <trkpt lat="47.584029" lon="7.832543">
        <ele>289.618645</ele>
        <time>2021-11-08T20:40:14.759Z</time>
      </trkpt>
      <trkpt lat="47.584156" lon="7.832334">
        <ele>288.809473</ele>
        <time>2021-11-08T20:40:16.539Z</time>
      </trkpt>
      <trkpt lat="47.584367" lon="7.832247">
        <ele>287.875494</ele>
        <time>2021-11-08T20:40:18.599Z</time>
      </trkpt>
      <trkpt lat="47.584717" lon="7.832264">
        <ele>286.382089</ele>
        <time>2021-11-08T20:40:21.988Z</time>
      </trkpt>
      <trkpt lat="47.585027" lon="7.832425">
        <ele>285.147394</ele>
        <time>2021-11-08T20:40:25.251Z</time>
      </trkpt>
      <trkpt lat="47.585195" lon="7.832588">
        <ele>284.591394</ele>
        <time>2021-11-08T20:40:27.307Z</time>
      </trkpt>
      <trkpt lat="47.585247" lon="7.832651">
        <ele>284.405428</ele>
        <time>2021-11-08T20:40:27.954Z</time>
      </trkpt>
      <trkpt lat="47.585278" lon="7.832688">
        <ele>284.295220</ele>
        <time>2021-11-08T20:40:28.337Z</time>
      </trkpt>
      <trkpt lat="47.586276" lon="7.833601">
        <ele>281.047731</ele>
        <time>2021-11-08T20:40:40.353Z</time>
      </trkpt>
      <trkpt lat="47.586496" lon="7.833050">
        <ele>280.484809</ele>
        <time>2021-11-08T20:40:45.590Z</time>
      </trkpt>
      <trkpt lat="47.587848" lon="7.834235">
        <ele>280.559627</ele>
        <time>2021-11-08T20:41:09.930Z</time>
      </trkpt>
      <trkpt lat="47.587628" lon="7.835942">
        <ele>283.406465</ele>
        <time>2021-11-08T20:41:37.726Z</time>
      </trkpt>
      <trkpt lat="47.587903" lon="7.836007">
        <ele>284.084704</ele>
        <time>2021-11-08T20:41:45.472Z</time>
      </trkpt>
      <trkpt lat="47.588104" lon="7.836052">
        <ele>284.579803</ele>
        <time>2021-11-08T20:41:51.477Z</time>
      </trkpt>
      <trkpt lat="47.588272" lon="7.836090">
        <ele>285.031404</ele>
        <time>2021-11-08T20:41:56.462Z</time>
      </trkpt>
      <trkpt lat="47.589181" lon="7.835983">
        <ele>288.825543</ele>
        <time>2021-11-08T20:42:23.968Z</time>
      </trkpt>
      <trkpt lat="47.590263" lon="7.835856">
        <ele>294.278496</ele>
        <time>2021-11-08T20:42:59.295Z</time>
      </trkpt>
      <trkpt lat="47.590166" lon="7.836338">
        <ele>297.131625</ele>
        <time>2021-11-08T20:43:10.470Z</time>
      </trkpt>
      <trkpt lat="47.591704" lon="7.836354">
        <ele>311.755714</ele>
        <time>2021-11-08T20:44:41.765Z</time>
      </trkpt>
      <trkpt lat="47.591953" lon="7.836379">
        <ele>315.263740</ele>
        <time>2021-11-08T20:45:04.798Z</time>
      </trkpt>
      <trkpt lat="47.592110" lon="7.836372">
        <ele>317.471571</ele>
        <time>2021-11-08T20:45:14.438Z</time>
      </trkpt>
      <trkpt lat="47.592182" lon="7.836371">
        <ele>318.483667</ele>
        <time>2021-11-08T20:45:20.773Z</time>
      </trkpt>
      <trkpt lat="47.592250" lon="7.836371">
        <ele>319.439494</ele>
        <time>2021-11-08T20:45:28.540Z</time>
      </trkpt>
      <trkpt lat="47.592897" lon="7.836379">
        <ele>328.534217</ele>
        <time>2021-11-08T20:46:17.999Z</time>
      </trkpt>
      <trkpt lat="47.593173" lon="7.836468">
        <ele>332.504423</ele>
        <time>2021-11-08T20:46:41.110Z</time>
      </trkpt>
      <trkpt lat="47.593342" lon="7.836538">
        <ele>334.315277</ele>
        <time>2021-11-08T20:46:58.907Z</time>
      </trkpt>
      <trkpt lat="47.593826" lon="7.836849">
        <ele>339.455048</ele>
        <time>2021-11-08T20:47:34.270Z</time>
      </trkpt>
      <trkpt lat="47.594385" lon="7.837297">
        <ele>345.646486</ele>
        <time>2021-11-08T20:48:09.445Z</time>
      </trkpt>
      <trkpt lat="47.594458" lon="7.837340">
        <ele>346.411852</ele>
        <time>2021-11-08T20:48:13.190Z</time>
      </trkpt>
      <trkpt lat="47.594953" lon="7.837637">
        <ele>350.818315</ele>
        <time>2021-11-08T20:48:37.343Z</time>
      </trkpt>
      <trkpt lat="47.594966" lon="7.837645">
        <ele>350.868423</ele>
        <time>2021-11-08T20:48:38.471Z</time>
      </trkpt>
      <trkpt lat="47.595487" lon="7.838131">
        <ele>353.059714</ele>
        <time>2021-11-08T20:48:59.361Z</time>
      </trkpt>
      <trkpt lat="47.595964" lon="7.838747">
        <ele>355.311578</ele>
        <time>2021-11-08T20:49:18.815Z</time>
      </trkpt>
      <trkpt lat="47.596578" lon="7.839929">
        <ele>358.646416</ele>
        <time>2021-11-08T20:49:49.723Z</time>
      </trkpt>
      <trkpt lat="47.596993" lon="7.840544">
        <ele>360.492824</ele>
        <time>2021-11-08T20:50:09.170Z</time>
      </trkpt>
      <trkpt lat="47.597263" lon="7.840840">
        <ele>361.549528</ele>
        <time>2021-11-08T20:50:20.500Z</time>
      </trkpt>
      <trkpt lat="47.597727" lon="7.841333">
        <ele>363.596211</ele>
        <time>2021-11-08T20:50:40.141Z</time>
      </trkpt>
      <trkpt lat="47.597842" lon="7.841614">
        <ele>364.483085</ele>
        <time>2021-11-08T20:50:48.160Z</time>
      </trkpt>
      <trkpt lat="47.598058" lon="7.842175">
        <ele>366.226079</ele>
        <time>2021-11-08T20:51:04.026Z</time>
      </trkpt>
      <trkpt lat="47.598238" lon="7.842763">
        <ele>367.968381</ele>
        <time>2021-11-08T20:51:19.851Z</time>
      </trkpt>
      <trkpt lat="47.598536" lon="7.843376">
        <ele>370.145222</ele>
        <time>2021-11-08T20:51:38.668Z</time>
      </trkpt>
      <trkpt lat="47.598696" lon="7.843499">
        <ele>371.123280</ele>
        <time>2021-11-08T20:51:45.450Z</time>
      </trkpt>
      <trkpt lat="47.598937" lon="7.843561">
        <ele>372.450727</ele>
        <time>2021-11-08T20:51:55.049Z</time>
      </trkpt>
      <trkpt lat="47.599568" lon="7.843496">
        <ele>375.883430</ele>
        <time>2021-11-08T20:52:21.239Z</time>
      </trkpt>
      <trkpt lat="47.599763" lon="7.843535">
        <ele>376.951279</ele>
        <time>2021-11-08T20:52:29.773Z</time>
      </trkpt>
      <trkpt lat="47.600072" lon="7.843673">
        <ele>378.702619</ele>
        <time>2021-11-08T20:52:44.429Z</time>
      </trkpt>
      <trkpt lat="47.600807" lon="7.843916">
        <ele>383.927208</ele>
        <time>2021-11-08T20:53:20.204Z</time>
      </trkpt>
      <trkpt lat="47.602198" lon="7.844937">
        <ele>395.969631</ele>
        <time>2021-11-08T20:54:38.812Z</time>
      </trkpt>
      <trkpt lat="47.602253" lon="7.845252">
        <ele>398.022303</ele>
        <time>2021-11-08T20:54:49.947Z</time>
      </trkpt>
      <trkpt lat="47.602229" lon="7.845655">
        <ele>400.574463</ele>
        <time>2021-11-08T20:55:03.667Z</time>
      </trkpt>
      <trkpt lat="47.602235" lon="7.846129">
        <ele>403.565146</ele>
        <time>2021-11-08T20:55:23.972Z</time>
      </trkpt>
      <trkpt lat="47.602243" lon="7.846717">
        <ele>407.275208</ele>
        <time>2021-11-08T20:55:49.246Z</time>
      </trkpt>
      <trkpt lat="47.602236" lon="7.847007">
        <ele>409.105800</ele>
        <time>2021-11-08T20:56:03.283Z</time>
      </trkpt>
      <trkpt lat="47.602282" lon="7.847374">
        <ele>411.820274</ele>
        <time>2021-11-08T20:56:19.058Z</time>
      </trkpt>
      <trkpt lat="47.602400" lon="7.847680">
        <ele>414.402482</ele>
        <time>2021-11-08T20:56:33.059Z</time>
      </trkpt>
      <trkpt lat="47.602486" lon="7.847821">
        <ele>415.795214</ele>
        <time>2021-11-08T20:56:42.241Z</time>
      </trkpt>
      <trkpt lat="47.602606" lon="7.848016">
        <ele>417.729103</ele>
        <time>2021-11-08T20:56:53.876Z</time>
      </trkpt>
      <trkpt lat="47.603736" lon="7.848907">
        <ele>430.748786</ele>
        <time>2021-11-08T20:58:16.769Z</time>
      </trkpt>
      <trkpt lat="47.604551" lon="7.849629">
        <ele>437.878437</ele>
        <time>2021-11-08T20:59:04.245Z</time>
      </trkpt>
      <trkpt lat="47.604823" lon="7.849877">
        <ele>440.276368</ele>
        <time>2021-11-08T20:59:18.406Z</time>
      </trkpt>
      <trkpt lat="47.605011" lon="7.850048">
        <ele>441.932668</ele>
        <time>2021-11-08T20:59:27.642Z</time>
      </trkpt>
      <trkpt lat="47.605181" lon="7.850167">
        <ele>442.773247</ele>
        <time>2021-11-08T20:59:35.311Z</time>
      </trkpt>
      <trkpt lat="47.605584" lon="7.850507">
        <ele>444.389954</ele>
        <time>2021-11-08T20:59:53.216Z</time>
      </trkpt>
      <trkpt lat="47.605922" lon="7.850724">
        <ele>445.674242</ele>
        <time>2021-11-08T21:00:06.249Z</time>
      </trkpt>
      <trkpt lat="47.606259" lon="7.850845">
        <ele>446.883306</ele>
        <time>2021-11-08T21:00:17.358Z</time>
      </trkpt>
      <trkpt lat="47.606432" lon="7.850826">
        <ele>447.488210</ele>
        <time>2021-11-08T21:00:22.340Z</time>
      </trkpt>
      <trkpt lat="47.606642" lon="7.850761">
        <ele>448.236257</ele>
        <time>2021-11-08T21:00:28.511Z</time>
      </trkpt>
      <trkpt lat="47.606841" lon="7.850541">
        <ele>448.492571</ele>
        <time>2021-11-08T21:00:35.506Z</time>
      </trkpt>
      <trkpt lat="47.607206" lon="7.849906">
        <ele>448.288199</ele>
        <time>2021-11-08T21:00:48.873Z</time>
      </trkpt>
      <trkpt lat="47.607512" lon="7.849734">
        <ele>448.169325</ele>
        <time>2021-11-08T21:00:54.873Z</time>
      </trkpt>
      <trkpt lat="47.607779" lon="7.849458">
        <ele>448.051102</ele>
        <time>2021-11-08T21:01:00.315Z</time>
      </trkpt>
      <trkpt lat="47.608193" lon="7.849027">
        <ele>447.604820</ele>
        <time>2021-11-08T21:01:08.299Z</time>
      </trkpt>
      <trkpt lat="47.608499" lon="7.848767">
        <ele>446.328648</ele>
        <time>2021-11-08T21:01:13.551Z</time>
      </trkpt>
      <trkpt lat="47.608647" lon="7.848750">
        <ele>445.791462</ele>
        <time>2021-11-08T21:01:15.667Z</time>
      </trkpt>
      <trkpt lat="47.608958" lon="7.849213">
        <ele>444.196898</ele>
        <time>2021-11-08T21:01:21.843Z</time>
      </trkpt>
      <trkpt lat="47.609180" lon="7.849407">
        <ele>443.264467</ele>
        <time>2021-11-08T21:01:25.411Z</time>
      </trkpt>
      <trkpt lat="47.609671" lon="7.849581">
        <ele>441.437631</ele>
        <time>2021-11-08T21:01:32.308Z</time>
      </trkpt>
      <trkpt lat="47.609900" lon="7.849721">
        <ele>440.806421</ele>
        <time>2021-11-08T21:01:35.768Z</time>
      </trkpt>
      <trkpt lat="47.610164" lon="7.850132">
        <ele>439.855251</ele>
        <time>2021-11-08T21:01:41.324Z</time>
      </trkpt>
      <trkpt lat="47.610866" lon="7.850970">
        <ele>437.615747</ele>
        <time>2021-11-08T21:01:55.331Z</time>
      </trkpt>
      <trkpt lat="47.611197" lon="7.851511">
        <ele>436.253380</ele>
        <time>2021-11-08T21:02:04.331Z</time>
      </trkpt>
      <trkpt lat="47.611373" lon="7.852022">
        <ele>435.039120</ele>
        <time>2021-11-08T21:02:11.015Z</time>
      </trkpt>
      <trkpt lat="47.611487" lon="7.852197">
        <ele>434.524171</ele>
        <time>2021-11-08T21:02:13.802Z</time>
      </trkpt>
      <trkpt lat="47.611909" lon="7.852604">
        <ele>432.944211</ele>
        <time>2021-11-08T21:02:21.148Z</time>
      </trkpt>
      <trkpt lat="47.612224" lon="7.852925">
        <ele>431.744636</ele>
        <time>2021-11-08T21:02:26.288Z</time>
      </trkpt>
      <trkpt lat="47.612366" lon="7.853056">
        <ele>431.137736</ele>
        <time>2021-11-08T21:02:28.509Z</time>
      </trkpt>
      <trkpt lat="47.612473" lon="7.853153">
        <ele>430.124912</ele>
        <time>2021-11-08T21:02:30.162Z</time>
      </trkpt>
      <trkpt lat="47.612894" lon="7.853499">
        <ele>426.237584</ele>
        <time>2021-11-08T21:02:36.341Z</time>
      </trkpt>
      <trkpt lat="47.613147" lon="7.853586">
        <ele>424.139975</ele>
        <time>2021-11-08T21:02:39.554Z</time>
      </trkpt>
      <trkpt lat="47.613350" lon="7.853629">
        <ele>422.483761</ele>
        <time>2021-11-08T21:02:42.097Z</time>
      </trkpt>
      <trkpt lat="47.613558" lon="7.853788">
        <ele>420.593851</ele>
        <time>2021-11-08T21:02:44.976Z</time>
      </trkpt>
      <trkpt lat="47.613564" lon="7.854464">
        <ele>416.912868</ele>
        <time>2021-11-08T21:02:50.547Z</time>
      </trkpt>
      <trkpt lat="47.613607" lon="7.854572">
        <ele>416.246088</ele>
        <time>2021-11-08T21:02:51.557Z</time>
      </trkpt>
      <trkpt lat="47.613659" lon="7.854700">
        <ele>415.457931</ele>
        <time>2021-11-08T21:02:52.849Z</time>
      </trkpt>
      <trkpt lat="47.613792" lon="7.854776">
        <ele>414.342910</ele>
        <time>2021-11-08T21:02:54.649Z</time>
      </trkpt>
      <trkpt lat="47.613988" lon="7.854392">
        <ele>411.802749</ele>
        <time>2021-11-08T21:02:58.695Z</time>
      </trkpt>
      <trkpt lat="47.614100" lon="7.854196">
        <ele>410.447684</ele>
        <time>2021-11-08T21:03:00.829Z</time>
      </trkpt>
      <trkpt lat="47.614301" lon="7.854162">
        <ele>408.865022</ele>
        <time>2021-11-08T21:03:03.652Z</time>
      </trkpt>
      <trkpt lat="47.614629" lon="7.854431">
        <ele>405.932952</ele>
        <time>2021-11-08T21:03:08.425Z</time>
      </trkpt>
      <trkpt lat="47.614801" lon="7.854465">
        <ele>404.575460</ele>
        <time>2021-11-08T21:03:10.556Z</time>
      </trkpt>
      <trkpt lat="47.615213" lon="7.854374">
        <ele>401.479720</ele>
        <time>2021-11-08T21:03:15.958Z</time>
      </trkpt>
      <trkpt lat="47.615794" lon="7.854262">
        <ele>397.446780</ele>
        <time>2021-11-08T21:03:23.360Z</time>
      </trkpt>
      <trkpt lat="47.615857" lon="7.854262">
        <ele>397.013120</ele>
        <time>2021-11-08T21:03:24.167Z</time>
      </trkpt>
      <trkpt lat="47.615860" lon="7.854339">
        <ele>396.655231</ele>
        <time>2021-11-08T21:03:24.842Z</time>
      </trkpt>
      <trkpt lat="47.615853" lon="7.854674">
        <ele>395.100033</ele>
        <time>2021-11-08T21:03:27.675Z</time>
      </trkpt>
      <trkpt lat="47.615875" lon="7.854806">
        <ele>394.469089</ele>
        <time>2021-11-08T21:03:28.855Z</time>
      </trkpt>
      <trkpt lat="47.615940" lon="7.855213">
        <ele>392.528270</ele>
        <time>2021-11-08T21:03:32.413Z</time>
      </trkpt>
      <trkpt lat="47.615886" lon="7.855415">
        <ele>391.519946</ele>
        <time>2021-11-08T21:03:34.368Z</time>
      </trkpt>
      <trkpt lat="47.615482" lon="7.855744">
        <ele>389.875510</ele>
        <time>2021-11-08T21:03:40.577Z</time>
      </trkpt>
      <trkpt lat="47.615230" lon="7.856082">
        <ele>389.374152</ele>
        <time>2021-11-08T21:03:45.353Z</time>
      </trkpt>
      <trkpt lat="47.615591" lon="7.856559">
        <ele>388.660720</ele>
        <time>2021-11-08T21:03:52.958Z</time>
      </trkpt>
      <trkpt lat="47.615844" lon="7.856900">
        <ele>388.156266</ele>
        <time>2021-11-08T21:03:59.398Z</time>
      </trkpt>
      <trkpt lat="47.616000" lon="7.856839">
        <ele>387.918188</ele>
        <time>2021-11-08T21:04:03.981Z</time>
      </trkpt>
      <trkpt lat="47.616206" lon="7.856813">
        <ele>387.744178</ele>
        <time>2021-11-08T21:04:08.316Z</time>
      </trkpt>
      <trkpt lat="47.616185" lon="7.856991">
        <ele>388.504637</ele>
        <time>2021-11-08T21:04:12.918Z</time>
      </trkpt>
      <trkpt lat="47.616062" lon="7.857266">
        <ele>389.893493</ele>
        <time>2021-11-08T21:04:19.166Z</time>
      </trkpt>
      <trkpt lat="47.615675" lon="7.857668">
        <ele>392.842897</ele>
        <time>2021-11-08T21:04:37.932Z</time>
      </trkpt>
      <trkpt lat="47.615620" lon="7.857851">
        <ele>393.686095</ele>
        <time>2021-11-08T21:04:43.330Z</time>
      </trkpt>
      <trkpt lat="47.615612" lon="7.857977">
        <ele>394.218691</ele>
        <time>2021-11-08T21:04:46.483Z</time>
      </trkpt>
      <trkpt lat="47.615609" lon="7.858249">
        <ele>395.363508</ele>
        <time>2021-11-08T21:04:55.729Z</time>
      </trkpt>
      <trkpt lat="47.615543" lon="7.858897">
        <ele>398.121456</ele>
        <time>2021-11-08T21:05:14.885Z</time>
      </trkpt>
      <trkpt lat="47.615334" lon="7.860080">
        <ele>406.408613</ele>
        <time>2021-11-08T21:05:58.747Z</time>
      </trkpt>
      <trkpt lat="47.615241" lon="7.860672">
        <ele>410.792084</ele>
        <time>2021-11-08T21:06:25.838Z</time>
      </trkpt>
      <trkpt lat="47.615178" lon="7.861074">
        <ele>413.768333</ele>
        <time>2021-11-08T21:06:41.567Z</time>
      </trkpt>
      <trkpt lat="47.615092" lon="7.861630">
        <ele>417.882013</ele>
        <time>2021-11-08T21:07:06.226Z</time>
      </trkpt>
      <trkpt lat="47.615092" lon="7.861630">
        <ele>417.882013</ele>
        <time>2021-11-08T21:07:06.257Z</time>
      </trkpt>
      <trkpt lat="47.615092" lon="7.861630">
        <ele>417.882013</ele>
        <time>2021-11-08T21:07:06.366Z</time>
      </trkpt>
      <trkpt lat="47.615080" lon="7.861804">
        <ele>418.886599</ele>
        <time>2021-11-08T21:07:15.376Z</time>
      </trkpt>
      <trkpt lat="47.615143" lon="7.862040">
        <ele>420.263180</ele>
        <time>2021-11-08T21:07:24.044Z</time>
      </trkpt>
      <trkpt lat="47.615533" lon="7.862749">
        <ele>425.225907</ele>
        <time>2021-11-08T21:07:57.809Z</time>
      </trkpt>
      <trkpt lat="47.615733" lon="7.863226">
        <ele>428.272330</ele>
        <time>2021-11-08T21:08:14.758Z</time>
      </trkpt>
      <trkpt lat="47.615791" lon="7.863469">
        <ele>429.670325</ele>
        <time>2021-11-08T21:08:22.249Z</time>
      </trkpt>
      <trkpt lat="47.615826" lon="7.863677">
        <ele>430.832952</ele>
        <time>2021-11-08T21:08:28.359Z</time>
      </trkpt>
      <trkpt lat="47.615975" lon="7.864921">
        <ele>433.876773</ele>
        <time>2021-11-08T21:08:50.037Z</time>
      </trkpt>
      <trkpt lat="47.616072" lon="7.865259">
        <ele>434.383393</ele>
        <time>2021-11-08T21:08:54.332Z</time>
      </trkpt>
      <trkpt lat="47.616709" lon="7.866450">
        <ele>436.678033</ele>
        <time>2021-11-08T21:09:13.914Z</time>
      </trkpt>
      <trkpt lat="47.616988" lon="7.867193">
        <ele>438.895569</ele>
        <time>2021-11-08T21:09:28.345Z</time>
      </trkpt>
      <trkpt lat="47.617092" lon="7.867491">
        <ele>439.770504</ele>
        <time>2021-11-08T21:09:34.568Z</time>
      </trkpt>
      <trkpt lat="47.617186" lon="7.867759">
        <ele>440.558195</ele>
        <time>2021-11-08T21:09:41.307Z</time>
      </trkpt>
      <trkpt lat="47.617859" lon="7.869709">
        <ele>447.267224</ele>
        <time>2021-11-08T21:10:37.022Z</time>
      </trkpt>
      <trkpt lat="47.617864" lon="7.870723">
        <ele>450.773975</ele>
        <time>2021-11-08T21:11:01.227Z</time>
      </trkpt>
      <trkpt lat="47.617973" lon="7.871350">
        <ele>452.846297</ele>
        <time>2021-11-08T21:11:15.334Z</time>
      </trkpt>
      <trkpt lat="47.618120" lon="7.871681">
        <ele>453.816061</ele>
        <time>2021-11-08T21:11:23.505Z</time>
      </trkpt>
      <trkpt lat="47.619528" lon="7.873535">
        <ele>460.654715</ele>
        <time>2021-11-08T21:12:16.124Z</time>
      </trkpt>
      <trkpt lat="47.619829" lon="7.874041">
        <ele>462.311376</ele>
        <time>2021-11-08T21:12:32.064Z</time>
      </trkpt>
      <trkpt lat="47.619939" lon="7.874280">
        <ele>463.021793</ele>
        <time>2021-11-08T21:12:37.882Z</time>
      </trkpt>
      <trkpt lat="47.620060" lon="7.874687">
        <ele>464.113752</ele>
        <time>2021-11-08T21:12:46.615Z</time>
      </trkpt>
      <trkpt lat="47.620229" lon="7.875324">
        <ele>465.583851</ele>
        <time>2021-11-08T21:12:59.531Z</time>
      </trkpt>
      <trkpt lat="47.620262" lon="7.875455">
        <ele>465.662666</ele>
        <time>2021-11-08T21:13:02.009Z</time>
      </trkpt>
      <trkpt lat="47.620355" lon="7.875825">
        <ele>465.885212</ele>
        <time>2021-11-08T21:13:08.448Z</time>
      </trkpt>
      <trkpt lat="47.620438" lon="7.876135">
        <ele>466.073197</ele>
        <time>2021-11-08T21:13:13.283Z</time>
      </trkpt>
      <trkpt lat="47.620646" lon="7.876653">
        <ele>466.412999</ele>
        <time>2021-11-08T21:13:22.246Z</time>
      </trkpt>
      <trkpt lat="47.621473" lon="7.877633">
        <ele>466.857509</ele>
        <time>2021-11-08T21:13:34.661Z</time>
      </trkpt>
      <trkpt lat="47.621851" lon="7.878198">
        <ele>466.582165</ele>
        <time>2021-11-08T21:13:41.128Z</time>
      </trkpt>
      <trkpt lat="47.622140" lon="7.878531">
        <ele>466.394391</ele>
        <time>2021-11-08T21:13:46.073Z</time>
      </trkpt>
      <trkpt lat="47.622668" lon="7.879223">
        <ele>466.089574</ele>
        <time>2021-11-08T21:13:57.634Z</time>
      </trkpt>
      <trkpt lat="47.623257" lon="7.880066">
        <ele>466.013897</ele>
        <time>2021-11-08T21:14:11.601Z</time>
      </trkpt>
      <trkpt lat="47.623689" lon="7.880796">
        <ele>465.953350</ele>
        <time>2021-11-08T21:14:21.057Z</time>
      </trkpt>
      <trkpt lat="47.623726" lon="7.880866">
        <ele>465.947806</ele>
        <time>2021-11-08T21:14:21.801Z</time>
      </trkpt>
      <trkpt lat="47.623737" lon="7.880886">
        <ele>465.946197</ele>
        <time>2021-11-08T21:14:21.992Z</time>
      </trkpt>
      <trkpt lat="47.623987" lon="7.881363">
        <ele>465.221831</ele>
        <time>2021-11-08T21:14:26.605Z</time>
      </trkpt>
      <trkpt lat="47.624168" lon="7.882017">
        <ele>464.064417</ele>
        <time>2021-11-08T21:14:31.805Z</time>
      </trkpt>
      <trkpt lat="47.624202" lon="7.882235">
        <ele>463.698099</ele>
        <time>2021-11-08T21:14:33.400Z</time>
      </trkpt>
      <trkpt lat="47.624255" lon="7.882581">
        <ele>463.117219</ele>
        <time>2021-11-08T21:14:35.878Z</time>
      </trkpt>
      <trkpt lat="47.624310" lon="7.883001">
        <ele>462.416781</ele>
        <time>2021-11-08T21:14:38.799Z</time>
      </trkpt>
      <trkpt lat="47.624331" lon="7.883160">
        <ele>462.151532</ele>
        <time>2021-11-08T21:14:39.895Z</time>
      </trkpt>
      <trkpt lat="47.624490" lon="7.883959">
        <ele>460.296991</ele>
        <time>2021-11-08T21:14:45.593Z</time>
      </trkpt>
      <trkpt lat="47.625152" lon="7.885204">
        <ele>456.066087</ele>
        <time>2021-11-08T21:14:56.059Z</time>
      </trkpt>
      <trkpt lat="47.625398" lon="7.886057">
        <ele>453.343056</ele>
        <time>2021-11-08T21:15:02.084Z</time>
      </trkpt>
      <trkpt lat="47.625424" lon="7.886225">
        <ele>452.750140</ele>
        <time>2021-11-08T21:15:03.134Z</time>
      </trkpt>
      <trkpt lat="47.625441" lon="7.886331">
        <ele>452.375347</ele>
        <time>2021-11-08T21:15:03.829Z</time>
      </trkpt>
      <trkpt lat="47.625481" lon="7.886856">
        <ele>450.557984</ele>
        <time>2021-11-08T21:15:07.177Z</time>
      </trkpt>
      <trkpt lat="47.625484" lon="7.887146">
        <ele>449.560343</ele>
        <time>2021-11-08T21:15:09.051Z</time>
      </trkpt>
      <trkpt lat="47.625499" lon="7.888101">
        <ele>446.274505</ele>
        <time>2021-11-08T21:15:15.048Z</time>
      </trkpt>
      <trkpt lat="47.625564" lon="7.889453">
        <ele>440.768907</ele>
        <time>2021-11-08T21:15:23.530Z</time>
      </trkpt>
      <trkpt lat="47.625716" lon="7.890252">
        <ele>437.254332</ele>
        <time>2021-11-08T21:15:28.593Z</time>
      </trkpt>
      <trkpt lat="47.625853" lon="7.890611">
        <ele>435.507867</ele>
        <time>2021-11-08T21:15:31.166Z</time>
      </trkpt>
      <trkpt lat="47.626106" lon="7.891132">
        <ele>432.239628</ele>
        <time>2021-11-08T21:15:35.069Z</time>
      </trkpt>
      <trkpt lat="47.626263" lon="7.891476">
        <ele>429.661573</ele>
        <time>2021-11-08T21:15:37.535Z</time>
      </trkpt>
      <trkpt lat="47.626348" lon="7.891663">
        <ele>428.261917</ele>
        <time>2021-11-08T21:15:38.840Z</time>
      </trkpt>
      <trkpt lat="47.626714" lon="7.892752">
        <ele>420.710648</ele>
        <time>2021-11-08T21:15:45.936Z</time>
      </trkpt>
      <trkpt lat="47.626818" lon="7.893202">
        <ele>417.758630</ele>
        <time>2021-11-08T21:15:48.683Z</time>
      </trkpt>
      <trkpt lat="47.626855" lon="7.893551">
        <ele>415.079552</ele>
        <time>2021-11-08T21:15:50.700Z</time>
      </trkpt>
      <trkpt lat="47.626865" lon="7.894506">
        <ele>407.587065</ele>
        <time>2021-11-08T21:15:56.216Z</time>
      </trkpt>
      <trkpt lat="47.626674" lon="7.895101">
        <ele>402.417114</ele>
        <time>2021-11-08T21:15:59.995Z</time>
      </trkpt>
      <trkpt lat="47.626363" lon="7.895584">
        <ele>397.176881</ele>
        <time>2021-11-08T21:16:03.762Z</time>
      </trkpt>
      <trkpt lat="47.625546" lon="7.896308">
        <ele>385.108578</ele>
        <time>2021-11-08T21:16:11.749Z</time>
      </trkpt>
      <trkpt lat="47.625340" lon="7.896501">
        <ele>382.001681</ele>
        <time>2021-11-08T21:16:13.822Z</time>
      </trkpt>
      <trkpt lat="47.625217" lon="7.896657">
        <ele>379.938164</ele>
        <time>2021-11-08T21:16:15.154Z</time>
      </trkpt>
      <trkpt lat="47.625137" lon="7.896861">
        <ele>377.909602</ele>
        <time>2021-11-08T21:16:16.549Z</time>
      </trkpt>
      <trkpt lat="47.625133" lon="7.897004">
        <ele>376.679475</ele>
        <time>2021-11-08T21:16:17.358Z</time>
      </trkpt>
      <trkpt lat="47.625188" lon="7.897128">
        <ele>375.403623</ele>
        <time>2021-11-08T21:16:18.186Z</time>
      </trkpt>
      <trkpt lat="47.625408" lon="7.897172">
        <ele>372.900215</ele>
        <time>2021-11-08T21:16:20.121Z</time>
      </trkpt>
      <trkpt lat="47.625555" lon="7.897164">
        <ele>371.661861</ele>
        <time>2021-11-08T21:16:21.329Z</time>
      </trkpt>
      <trkpt lat="47.625709" lon="7.897156">
        <ele>370.364616</ele>
        <time>2021-11-08T21:16:22.684Z</time>
      </trkpt>
      <trkpt lat="47.625946" lon="7.897132">
        <ele>368.364787</ele>
        <time>2021-11-08T21:16:24.675Z</time>
      </trkpt>
      <trkpt lat="47.626062" lon="7.897113">
        <ele>367.382308</ele>
        <time>2021-11-08T21:16:25.722Z</time>
      </trkpt>
      <trkpt lat="47.626245" lon="7.897103">
        <ele>365.840676</ele>
        <time>2021-11-08T21:16:27.258Z</time>
      </trkpt>
      <trkpt lat="47.626428" lon="7.897120">
        <ele>364.297071</ele>
        <time>2021-11-08T21:16:28.954Z</time>
      </trkpt>
      <trkpt lat="47.626521" lon="7.897153">
        <ele>363.492073</ele>
        <time>2021-11-08T21:16:29.818Z</time>
      </trkpt>
      <trkpt lat="47.626680" lon="7.897256">
        <ele>362.031520</ele>
        <time>2021-11-08T21:16:31.370Z</time>
      </trkpt>
      <trkpt lat="47.626939" lon="7.897544">
        <ele>359.306786</ele>
        <time>2021-11-08T21:16:34.392Z</time>
      </trkpt>
      <trkpt lat="47.626947" lon="7.897563">
        <ele>359.179677</ele>
        <time>2021-11-08T21:16:34.522Z</time>
      </trkpt>
      <trkpt lat="47.627045" lon="7.897791">
        <ele>358.339933</ele>
        <time>2021-11-08T21:16:36.547Z</time>
      </trkpt>
      <trkpt lat="47.627064" lon="7.897836">
        <ele>358.317992</ele>
        <time>2021-11-08T21:16:36.881Z</time>
      </trkpt>
      <trkpt lat="47.627129" lon="7.898072">
        <ele>358.212652</ele>
        <time>2021-11-08T21:16:38.737Z</time>
      </trkpt>
      <trkpt lat="47.627440" lon="7.900175">
        <ele>357.323056</ele>
        <time>2021-11-08T21:16:59.765Z</time>
      </trkpt>
      <trkpt lat="47.627514" lon="7.900453">
        <ele>357.437748</ele>
        <time>2021-11-08T21:17:04.755Z</time>
      </trkpt>
      <trkpt lat="47.628120" lon="7.901056">
        <ele>358.145746</ele>
        <time>2021-11-08T21:17:22.063Z</time>
      </trkpt>
      <trkpt lat="47.628239" lon="7.901249">
        <ele>358.316808</ele>
        <time>2021-11-08T21:17:25.731Z</time>
      </trkpt>
      <trkpt lat="47.628617" lon="7.902195">
        <ele>359.035994</ele>
        <time>2021-11-08T21:17:38.092Z</time>
      </trkpt>
      <trkpt lat="47.628663" lon="7.902374">
        <ele>358.794833</ele>
        <time>2021-11-08T21:17:39.763Z</time>
      </trkpt>
      <trkpt lat="47.628980" lon="7.902307">
        <ele>358.188964</ele>
        <time>2021-11-08T21:17:45.369Z</time>
      </trkpt>
      <trkpt lat="47.628958" lon="7.902505">
        <ele>357.933070</ele>
        <time>2021-11-08T21:17:47.451Z</time>
      </trkpt>
      <trkpt lat="47.628725" lon="7.903052">
        <ele>357.107898</ele>
        <time>2021-11-08T21:17:54.396Z</time>
      </trkpt>
      <trkpt lat="47.628646" lon="7.903407">
        <ele>356.631165</ele>
        <time>2021-11-08T21:17:58.168Z</time>
      </trkpt>
      <trkpt lat="47.628608" lon="7.903754">
        <ele>356.182871</ele>
        <time>2021-11-08T21:18:01.788Z</time>
      </trkpt>
      <trkpt lat="47.628610" lon="7.904064">
        <ele>355.787545</ele>
        <time>2021-11-08T21:18:04.846Z</time>
      </trkpt>
      <trkpt lat="47.628650" lon="7.904559">
        <ele>354.892208</ele>
        <time>2021-11-08T21:18:09.696Z</time>
      </trkpt>
      <trkpt lat="47.627955" lon="7.904708">
        <ele>352.847785</ele>
        <time>2021-11-08T21:18:16.932Z</time>
      </trkpt>
      <trkpt lat="47.627467" lon="7.904744">
        <ele>351.425276</ele>
        <time>2021-11-08T21:18:21.887Z</time>
      </trkpt>
      <trkpt lat="47.627287" lon="7.904761">
        <ele>350.900166</ele>
        <time>2021-11-08T21:18:23.699Z</time>
      </trkpt>
      <trkpt lat="47.627067" lon="7.904813">
        <ele>350.407849</ele>
        <time>2021-11-08T21:18:25.981Z</time>
      </trkpt>
      <trkpt lat="47.626505" lon="7.904968">
        <ele>350.529576</ele>
        <time>2021-11-08T21:18:32.331Z</time>
      </trkpt>
      <trkpt lat="47.626440" lon="7.905007">
        <ele>350.544507</ele>
        <time>2021-11-08T21:18:33.195Z</time>
      </trkpt>
      <trkpt lat="47.626460" lon="7.905124">
        <ele>350.561830</ele>
        <time>2021-11-08T21:18:34.095Z</time>
      </trkpt>
      <trkpt lat="47.626443" lon="7.905945">
        <ele>350.679714</ele>
        <time>2021-11-08T21:18:43.388Z</time>
      </trkpt>
      <trkpt lat="47.626439" lon="7.906299">
        <ele>350.730527</ele>
        <time>2021-11-08T21:18:48.841Z</time>
      </trkpt>
      <trkpt lat="47.626436" lon="7.906623">
        <ele>350.777032</ele>
        <time>2021-11-08T21:18:54.979Z</time>
      </trkpt>
      <trkpt lat="47.626436" lon="7.907061">
        <ele>352.933173</ele>
        <time>2021-11-08T21:19:04.071Z</time>
      </trkpt>
      <trkpt lat="47.626436" lon="7.907187">
        <ele>353.585568</ele>
        <time>2021-11-08T21:19:06.627Z</time>
      </trkpt>
      <trkpt lat="47.626442" lon="7.907543">
        <ele>355.429418</ele>
        <time>2021-11-08T21:19:15.397Z</time>
      </trkpt>
      <trkpt lat="47.626446" lon="7.907798">
        <ele>356.750098</ele>
        <time>2021-11-08T21:19:24.612Z</time>
      </trkpt>
      <trkpt lat="47.626436" lon="7.907974">
        <ele>357.664612</ele>
        <time>2021-11-08T21:19:29.379Z</time>
      </trkpt>
      <trkpt lat="47.626373" lon="7.908242">
        <ele>359.134232</ele>
        <time>2021-11-08T21:19:41.059Z</time>
      </trkpt>
      <trkpt lat="47.626074" lon="7.908682">
        <ele>362.369480</ele>
        <time>2021-11-08T21:20:03.752Z</time>
      </trkpt>
      <trkpt lat="47.625875" lon="7.909372">
        <ele>366.431282</ele>
        <time>2021-11-08T21:20:30.948Z</time>
      </trkpt>
      <trkpt lat="47.625820" lon="7.909530">
        <ele>367.449711</ele>
        <time>2021-11-08T21:20:39.344Z</time>
      </trkpt>
      <trkpt lat="47.625738" lon="7.909657">
        <ele>368.456942</ele>
        <time>2021-11-08T21:20:45.398Z</time>
      </trkpt>
      <trkpt lat="47.625660" lon="7.909693">
        <ele>369.151064</ele>
        <time>2021-11-08T21:20:48.534Z</time>
      </trkpt>
      <trkpt lat="47.625630" lon="7.909700">
        <ele>369.409119</ele>
        <time>2021-11-08T21:20:50.439Z</time>
      </trkpt>
      <trkpt lat="47.625586" lon="7.909712">
        <ele>369.789267</ele>
        <time>2021-11-08T21:20:53.626Z</time>
      </trkpt>
      <trkpt lat="47.625366" lon="7.909623">
        <ele>371.726933</ele>
        <time>2021-11-08T21:21:05.349Z</time>
      </trkpt>
      <trkpt lat="47.624962" lon="7.909272">
        <ele>375.705123</ele>
        <time>2021-11-08T21:21:27.561Z</time>
      </trkpt>
      <trkpt lat="47.624823" lon="7.909229">
        <ele>376.911660</ele>
        <time>2021-11-08T21:21:35.124Z</time>
      </trkpt>
      <trkpt lat="47.624367" lon="7.909092">
        <ele>380.487360</ele>
        <time>2021-11-08T21:21:54.386Z</time>
      </trkpt>
      <trkpt lat="47.623851" lon="7.909030">
        <ele>383.195870</ele>
        <time>2021-11-08T21:22:11.974Z</time>
      </trkpt>
      <trkpt lat="47.623414" lon="7.909173">
        <ele>385.537168</ele>
        <time>2021-11-08T21:22:28.193Z</time>
      </trkpt>
      <trkpt lat="47.622850" lon="7.910055">
        <ele>389.786690</ele>
        <time>2021-11-08T21:22:55.169Z</time>
      </trkpt>
      <trkpt lat="47.622755" lon="7.910176">
        <ele>390.395254</ele>
        <time>2021-11-08T21:22:59.142Z</time>
      </trkpt>
      <trkpt lat="47.622666" lon="7.910254">
        <ele>390.897679</ele>
        <time>2021-11-08T21:23:03.275Z</time>
      </trkpt>
      <trkpt lat="47.622368" lon="7.910396">
        <ele>392.418997</ele>
        <time>2021-11-08T21:23:13.393Z</time>
      </trkpt>
      <trkpt lat="47.621461" lon="7.910146">
        <ele>396.902956</ele>
        <time>2021-11-08T21:23:45.444Z</time>
      </trkpt>
      <trkpt lat="47.621308" lon="7.910162">
        <ele>397.648466</ele>
        <time>2021-11-08T21:23:51.310Z</time>
      </trkpt>
      <trkpt lat="47.620712" lon="7.910483">
        <ele>401.362089</ele>
        <time>2021-11-08T21:24:12.484Z</time>
      </trkpt>
      <trkpt lat="47.620245" lon="7.910440">
        <ele>404.169367</ele>
        <time>2021-11-08T21:24:28.101Z</time>
      </trkpt>
      <trkpt lat="47.620162" lon="7.910587">
        <ele>404.944861</ele>
        <time>2021-11-08T21:24:33.302Z</time>
      </trkpt>
      <trkpt lat="47.620181" lon="7.910694">
        <ele>405.392343</ele>
        <time>2021-11-08T21:24:36.554Z</time>
      </trkpt>
      <trkpt lat="47.620625" lon="7.910808">
        <ele>408.095834</ele>
        <time>2021-11-08T21:24:57.000Z</time>
      </trkpt>
      <trkpt lat="47.620846" lon="7.911023">
        <ele>410.140241</ele>
        <time>2021-11-08T21:25:09.412Z</time>
      </trkpt>
      <trkpt lat="47.620946" lon="7.911321">
        <ele>412.208771</ele>
        <time>2021-11-08T21:25:20.468Z</time>
      </trkpt>
      <trkpt lat="47.620953" lon="7.911653">
        <ele>414.272786</ele>
        <time>2021-11-08T21:25:31.144Z</time>
      </trkpt>
      <trkpt lat="47.620910" lon="7.911951">
        <ele>416.166477</ele>
        <time>2021-11-08T21:25:41.612Z</time>
      </trkpt>
      <trkpt lat="47.620858" lon="7.912289">
        <ele>418.320782</ele>
        <time>2021-11-08T21:25:54.063Z</time>
      </trkpt>
      <trkpt lat="47.620822" lon="7.912670">
        <ele>420.711422</ele>
        <time>2021-11-08T21:26:07.300Z</time>
      </trkpt>
      <trkpt lat="47.620841" lon="7.913331">
        <ele>424.822533</ele>
        <time>2021-11-08T21:26:32.403Z</time>
      </trkpt>
      <trkpt lat="47.620869" lon="7.913635">
        <ele>426.836661</ele>
        <time>2021-11-08T21:26:43.929Z</time>
      </trkpt>
      <trkpt lat="47.621037" lon="7.914355">
        <ele>431.956557</ele>
        <time>2021-11-08T21:27:14.813Z</time>
      </trkpt>
      <trkpt lat="47.621530" lon="7.915222">
        <ele>439.578784</ele>
        <time>2021-11-08T21:27:54.903Z</time>
      </trkpt>
      <trkpt lat="47.621809" lon="7.915582">
        <ele>443.265038</ele>
        <time>2021-11-08T21:28:14.400Z</time>
      </trkpt>
      <trkpt lat="47.622393" lon="7.916077">
        <ele>450.026699</ele>
        <time>2021-11-08T21:28:50.392Z</time>
      </trkpt>
      <trkpt lat="47.622576" lon="7.916379">
        <ele>452.778723</ele>
        <time>2021-11-08T21:29:06.396Z</time>
      </trkpt>
      <trkpt lat="47.622647" lon="7.916647">
        <ele>454.730115</ele>
        <time>2021-11-08T21:29:17.956Z</time>
      </trkpt>
      <trkpt lat="47.622677" lon="7.917170">
        <ele>458.287099</ele>
        <time>2021-11-08T21:29:37.680Z</time>
      </trkpt>
      <trkpt lat="47.622656" lon="7.917625">
        <ele>461.377682</ele>
        <time>2021-11-08T21:29:54.229Z</time>
      </trkpt>
      <trkpt lat="47.622587" lon="7.917873">
        <ele>463.131592</ele>
        <time>2021-11-08T21:30:03.760Z</time>
      </trkpt>
      <trkpt lat="47.622424" lon="7.918069">
        <ele>465.164620</ele>
        <time>2021-11-08T21:30:15.316Z</time>
      </trkpt>
      <trkpt lat="47.622381" lon="7.918164">
        <ele>465.911989</ele>
        <time>2021-11-08T21:30:19.880Z</time>
      </trkpt>
      <trkpt lat="47.622366" lon="7.918470">
        <ele>467.915762</ele>
        <time>2021-11-08T21:30:30.213Z</time>
      </trkpt>
      <trkpt lat="47.622446" lon="7.918652">
        <ele>469.334842</ele>
        <time>2021-11-08T21:30:38.419Z</time>
      </trkpt>
      <trkpt lat="47.623010" lon="7.918947">
        <ele>475.129530</ele>
        <time>2021-11-08T21:31:08.434Z</time>
      </trkpt>
      <trkpt lat="47.623255" lon="7.919315">
        <ele>478.507708</ele>
        <time>2021-11-08T21:31:28.605Z</time>
      </trkpt>
      <trkpt lat="47.623430" lon="7.919875">
        <ele>482.981422</ele>
        <time>2021-11-08T21:31:51.768Z</time>
      </trkpt>
      <trkpt lat="47.623561" lon="7.920975">
        <ele>491.151995</ele>
        <time>2021-11-08T21:32:33.838Z</time>
      </trkpt>
      <trkpt lat="47.623588" lon="7.921368">
        <ele>494.041480</ele>
        <time>2021-11-08T21:32:50.285Z</time>
      </trkpt>
      <trkpt lat="47.623611" lon="7.921528">
        <ele>495.238118</ele>
        <time>2021-11-08T21:32:57.448Z</time>
      </trkpt>
      <trkpt lat="47.623626" lon="7.921633">
        <ele>496.023200</ele>
        <time>2021-11-08T21:33:02.364Z</time>
      </trkpt>
      <trkpt lat="47.623564" lon="7.921962">
        <ele>498.527934</ele>
        <time>2021-11-08T21:33:16.230Z</time>
      </trkpt>
      <trkpt lat="47.623298" lon="7.922501">
        <ele>503.608046</ele>
        <time>2021-11-08T21:33:44.602Z</time>
      </trkpt>
      <trkpt lat="47.623251" lon="7.922713">
        <ele>505.305181</ele>
        <time>2021-11-08T21:33:53.454Z</time>
      </trkpt>
      <trkpt lat="47.623227" lon="7.922954">
        <ele>507.157771</ele>
        <time>2021-11-08T21:34:04.692Z</time>
      </trkpt>
      <trkpt lat="47.623246" lon="7.923768">
        <ele>513.351578</ele>
        <time>2021-11-08T21:34:37.892Z</time>
      </trkpt>
      <trkpt lat="47.623206" lon="7.923969">
        <ele>514.945325</ele>
        <time>2021-11-08T21:34:46.553Z</time>
      </trkpt>
      <trkpt lat="47.623053" lon="7.924259">
        <ele>517.745926</ele>
        <time>2021-11-08T21:34:59.155Z</time>
      </trkpt>
      <trkpt lat="47.621723" lon="7.924936">
        <ele>533.151849</ele>
        <time>2021-11-08T21:36:16.553Z</time>
      </trkpt>
      <trkpt lat="47.621339" lon="7.925596">
        <ele>539.750554</ele>
        <time>2021-11-08T21:36:55.572Z</time>
      </trkpt>
      <trkpt lat="47.621290" lon="7.925709">
        <ele>540.877802</ele>
        <time>2021-11-08T21:37:02.398Z</time>
      </trkpt>
      <trkpt lat="47.621092" lon="7.926230">
        <ele>545.895615</ele>
        <time>2021-11-08T21:37:29.709Z</time>
      </trkpt>
      <trkpt lat="47.621008" lon="7.926716">
        <ele>550.104827</ele>
        <time>2021-11-08T21:37:52.148Z</time>
      </trkpt>
      <trkpt lat="47.621010" lon="7.926916">
        <ele>551.782912</ele>
        <time>2021-11-08T21:38:00.634Z</time>
      </trkpt>
      <trkpt lat="47.620993" lon="7.927078">
        <ele>553.158384</ele>
        <time>2021-11-08T21:38:07.946Z</time>
      </trkpt>
      <trkpt lat="47.620930" lon="7.927423">
        <ele>556.157105</ele>
        <time>2021-11-08T21:38:23.523Z</time>
      </trkpt>
      <trkpt lat="47.620873" lon="7.927631">
        <ele>558.040834</ele>
        <time>2021-11-08T21:38:34.015Z</time>
      </trkpt>
      <trkpt lat="47.620796" lon="7.927816">
        <ele>559.864959</ele>
        <time>2021-11-08T21:38:43.269Z</time>
      </trkpt>
      <trkpt lat="47.620384" lon="7.928242">
        <ele>564.454236</ele>
        <time>2021-11-08T21:39:13.442Z</time>
      </trkpt>
      <trkpt lat="47.619053" lon="7.929381">
        <ele>577.475461</ele>
        <time>2021-11-08T21:40:22.538Z</time>
      </trkpt>
      <trkpt lat="47.618861" lon="7.929607">
        <ele>579.282573</ele>
        <time>2021-11-08T21:40:32.533Z</time>
      </trkpt>
      <trkpt lat="47.618734" lon="7.929873">
        <ele>580.902616</ele>
        <time>2021-11-08T21:40:40.135Z</time>
      </trkpt>
      <trkpt lat="47.618733" lon="7.929945">
        <ele>581.260530</ele>
        <time>2021-11-08T21:40:43.135Z</time>
      </trkpt>
      <trkpt lat="47.618761" lon="7.930033">
        <ele>581.744164</ele>
        <time>2021-11-08T21:40:45.946Z</time>
      </trkpt>
      <trkpt lat="47.618921" lon="7.930073">
        <ele>582.940504</ele>
        <time>2021-11-08T21:40:51.957Z</time>
      </trkpt>
      <trkpt lat="47.619329" lon="7.929527">
        <ele>586.991814</ele>
        <time>2021-11-08T21:41:16.696Z</time>
      </trkpt>
      <trkpt lat="47.619604" lon="7.929315">
        <ele>589.276843</ele>
        <time>2021-11-08T21:41:31.332Z</time>
      </trkpt>
      <trkpt lat="47.619928" lon="7.929124">
        <ele>592.770400</ele>
        <time>2021-11-08T21:41:49.172Z</time>
      </trkpt>
      <trkpt lat="47.620569" lon="7.928919">
        <ele>599.486075</ele>
        <time>2021-11-08T21:42:24.122Z</time>
      </trkpt>
      <trkpt lat="47.621861" lon="7.928723">
        <ele>613.275957</ele>
        <time>2021-11-08T21:43:43.318Z</time>
      </trkpt>
      <trkpt lat="47.622913" lon="7.928884">
        <ele>625.189552</ele>
        <time>2021-11-08T21:44:48.756Z</time>
      </trkpt>
      <trkpt lat="47.622990" lon="7.929067">
        <ele>626.827528</ele>
        <time>2021-11-08T21:44:56.674Z</time>
      </trkpt>
      <trkpt lat="47.622989" lon="7.929175">
        <ele>627.647610</ele>
        <time>2021-11-08T21:45:02.303Z</time>
      </trkpt>
      <trkpt lat="47.623083" lon="7.929217">
        <ele>628.665818</ele>
        <time>2021-11-08T21:45:06.624Z</time>
      </trkpt>
      <trkpt lat="47.623184" lon="7.929263">
        <ele>629.680866</ele>
        <time>2021-11-08T21:45:11.276Z</time>
      </trkpt>
      <trkpt lat="47.623243" lon="7.929290">
        <ele>630.274061</ele>
        <time>2021-11-08T21:45:15.283Z</time>
      </trkpt>
      <trkpt lat="47.623515" lon="7.929516">
        <ele>633.269180</ele>
        <time>2021-11-08T21:45:31.262Z</time>
      </trkpt>
      <trkpt lat="47.623661" lon="7.929775">
        <ele>635.455583</ele>
        <time>2021-11-08T21:45:43.985Z</time>
      </trkpt>
      <trkpt lat="47.623898" lon="7.929981">
        <ele>638.094526</ele>
        <time>2021-11-08T21:45:58.757Z</time>
      </trkpt>
      <trkpt lat="47.624148" lon="7.929878">
        <ele>640.587287</ele>
        <time>2021-11-08T21:46:10.142Z</time>
      </trkpt>
      <trkpt lat="47.624516" lon="7.929342">
        <ele>645.546078</ele>
        <time>2021-11-08T21:46:37.550Z</time>
      </trkpt>
      <trkpt lat="47.624693" lon="7.929271">
        <ele>647.381432</ele>
        <time>2021-11-08T21:46:47.608Z</time>
      </trkpt>
      <trkpt lat="47.625522" lon="7.929345">
        <ele>655.694613</ele>
        <time>2021-11-08T21:47:35.683Z</time>
      </trkpt>
      <trkpt lat="47.626033" lon="7.929516">
        <ele>660.938131</ele>
        <time>2021-11-08T21:48:05.377Z</time>
      </trkpt>
      <trkpt lat="47.626414" lon="7.929713">
        <ele>664.871417</ele>
        <time>2021-11-08T21:48:25.906Z</time>
      </trkpt>
      <trkpt lat="47.626513" lon="7.929764">
        <ele>665.848367</ele>
        <time>2021-11-08T21:48:30.095Z</time>
      </trkpt>
      <trkpt lat="47.626886" lon="7.929825">
        <ele>669.346640</ele>
        <time>2021-11-08T21:48:48.529Z</time>
      </trkpt>
      <trkpt lat="47.626987" lon="7.929783">
        <ele>670.324470</ele>
        <time>2021-11-08T21:48:54.411Z</time>
      </trkpt>
      <trkpt lat="47.627834" lon="7.928864">
        <ele>680.106284</ele>
        <time>2021-11-08T21:49:50.252Z</time>
      </trkpt>
      <trkpt lat="47.628161" lon="7.928726">
        <ele>683.955607</ele>
        <time>2021-11-08T21:50:07.304Z</time>
      </trkpt>
      <trkpt lat="47.628543" lon="7.928608">
        <ele>688.399905</ele>
        <time>2021-11-08T21:50:29.453Z</time>
      </trkpt>
      <trkpt lat="47.629245" lon="7.928563">
        <ele>696.403207</ele>
        <time>2021-11-08T21:51:13.930Z</time>
      </trkpt>
      <trkpt lat="47.630399" lon="7.928619">
        <ele>710.044473</ele>
        <time>2021-11-08T21:52:31.357Z</time>
      </trkpt>
      <trkpt lat="47.632437" lon="7.928120">
        <ele>734.587380</ele>
        <time>2021-11-08T21:54:35.422Z</time>
      </trkpt>
      <trkpt lat="47.633595" lon="7.928236">
        <ele>748.576818</ele>
        <time>2021-11-08T21:55:50.063Z</time>
      </trkpt>
      <trkpt lat="47.634257" lon="7.928526">
        <ele>757.288726</ele>
        <time>2021-11-08T21:56:36.391Z</time>
      </trkpt>
      <trkpt lat="47.634762" lon="7.929013">
        <ele>764.890199</ele>
        <time>2021-11-08T21:57:16.154Z</time>
      </trkpt>
      <trkpt lat="47.635221" lon="7.929664">
        <ele>771.961827</ele>
        <time>2021-11-08T21:57:56.459Z</time>
      </trkpt>
      <trkpt lat="47.635488" lon="7.930306">
        <ele>777.483753</ele>
        <time>2021-11-08T21:58:26.446Z</time>
      </trkpt>
      <trkpt lat="47.635717" lon="7.930591">
        <ele>780.730070</ele>
        <time>2021-11-08T21:58:42.809Z</time>
      </trkpt>
      <trkpt lat="47.636022" lon="7.930655">
        <ele>784.075940</ele>
        <time>2021-11-08T21:58:59.016Z</time>
      </trkpt>
      <trkpt lat="47.636603" lon="7.930541">
        <ele>789.704296</ele>
        <time>2021-11-08T21:59:29.934Z</time>
      </trkpt>
      <trkpt lat="47.637092" lon="7.930719">
        <ele>794.325710</ele>
        <time>2021-11-08T21:59:56.459Z</time>
      </trkpt>
      <trkpt lat="47.637860" lon="7.930973">
        <ele>801.547852</ele>
        <time>2021-11-08T22:00:36.130Z</time>
      </trkpt>
      <trkpt lat="47.638146" lon="7.931131">
        <ele>804.469407</ele>
        <time>2021-11-08T22:00:51.414Z</time>
      </trkpt>
      <trkpt lat="47.638612" lon="7.931348">
        <ele>809.202749</ele>
        <time>2021-11-08T22:01:15.299Z</time>
      </trkpt>
      <trkpt lat="47.638875" lon="7.931601">
        <ele>812.240227</ele>
        <time>2021-11-08T22:01:32.630Z</time>
      </trkpt>
      <trkpt lat="47.639059" lon="7.932072">
        <ele>815.795484</ele>
        <time>2021-11-08T22:01:54.514Z</time>
      </trkpt>
      <trkpt lat="47.639161" lon="7.932537">
        <ele>818.988849</ele>
        <time>2021-11-08T22:02:13.584Z</time>
      </trkpt>
      <trkpt lat="47.639206" lon="7.933065">
        <ele>822.316928</ele>
        <time>2021-11-08T22:02:32.766Z</time>
      </trkpt>
      <trkpt lat="47.639165" lon="7.933477">
        <ele>824.895468</ele>
        <time>2021-11-08T22:02:46.461Z</time>
      </trkpt>
      <trkpt lat="47.639130" lon="7.933575">
        <ele>825.582193</ele>
        <time>2021-11-08T22:02:52.016Z</time>
      </trkpt>
      <trkpt lat="47.638943" lon="7.934020">
        <ele>828.829302</ele>
        <time>2021-11-08T22:03:10.355Z</time>
      </trkpt>
      <trkpt lat="47.638794" lon="7.934551">
        <ele>832.390666</ele>
        <time>2021-11-08T22:03:30.040Z</time>
      </trkpt>
      <trkpt lat="47.638822" lon="7.934800">
        <ele>833.953666</ele>
        <time>2021-11-08T22:03:37.675Z</time>
      </trkpt>
      <trkpt lat="47.638891" lon="7.934970">
        <ele>835.182428</ele>
        <time>2021-11-08T22:03:43.945Z</time>
      </trkpt>
      <trkpt lat="47.638983" lon="7.935124">
        <ele>836.394905</ele>
        <time>2021-11-08T22:03:51.619Z</time>
      </trkpt>
      <trkpt lat="47.639093" lon="7.935378">
        <ele>837.885478</ele>
        <time>2021-11-08T22:03:59.951Z</time>
      </trkpt>
      <trkpt lat="47.639308" lon="7.936143">
        <ele>841.977358</ele>
        <time>2021-11-08T22:04:26.459Z</time>
      </trkpt>
      <trkpt lat="47.639320" lon="7.936602">
        <ele>844.244975</ele>
        <time>2021-11-08T22:04:40.267Z</time>
      </trkpt>
      <trkpt lat="47.639124" lon="7.937579">
        <ele>849.277308</ele>
        <time>2021-11-08T22:05:08.647Z</time>
      </trkpt>
      <trkpt lat="47.638997" lon="7.937892">
        <ele>850.542432</ele>
        <time>2021-11-08T22:05:18.196Z</time>
      </trkpt>
      <trkpt lat="47.638865" lon="7.938060">
        <ele>851.424662</ele>
        <time>2021-11-08T22:05:25.239Z</time>
      </trkpt>
      <trkpt lat="47.638716" lon="7.938236">
        <ele>852.390814</ele>
        <time>2021-11-08T22:05:32.485Z</time>
      </trkpt>
      <trkpt lat="47.638539" lon="7.938594">
        <ele>853.908768</ele>
        <time>2021-11-08T22:05:44.033Z</time>
      </trkpt>
      <trkpt lat="47.638720" lon="7.939846">
        <ele>858.286172</ele>
        <time>2021-11-08T22:06:13.065Z</time>
      </trkpt>
      <trkpt lat="47.638649" lon="7.940702">
        <ele>858.998090</ele>
        <time>2021-11-08T22:06:26.613Z</time>
      </trkpt>
      <trkpt lat="47.638557" lon="7.941269">
        <ele>859.387608</ele>
        <time>2021-11-08T22:06:33.307Z</time>
      </trkpt>
      <trkpt lat="47.638425" lon="7.941930">
        <ele>859.848064</ele>
        <time>2021-11-08T22:06:40.969Z</time>
      </trkpt>
      <trkpt lat="47.638178" lon="7.942718">
        <ele>860.161663</ele>
        <time>2021-11-08T22:06:48.528Z</time>
      </trkpt>
      <trkpt lat="47.638082" lon="7.942969">
        <ele>860.084556</ele>
        <time>2021-11-08T22:06:50.865Z</time>
      </trkpt>
      <trkpt lat="47.637979" lon="7.943185">
        <ele>860.013861</ele>
        <time>2021-11-08T22:06:53.071Z</time>
      </trkpt>
      <trkpt lat="47.637910" lon="7.943332">
        <ele>859.965998</ele>
        <time>2021-11-08T22:06:54.676Z</time>
      </trkpt>
      <trkpt lat="47.637613" lon="7.943952">
        <ele>859.762764</ele>
        <time>2021-11-08T22:07:01.886Z</time>
      </trkpt>
      <trkpt lat="47.637571" lon="7.944037">
        <ele>859.734604</ele>
        <time>2021-11-08T22:07:02.818Z</time>
      </trkpt>
      <trkpt lat="47.637442" lon="7.944256">
        <ele>859.656891</ele>
        <time>2021-11-08T22:07:05.786Z</time>
      </trkpt>
      <trkpt lat="47.637316" lon="7.944402">
        <ele>859.593509</ele>
        <time>2021-11-08T22:07:08.219Z</time>
      </trkpt>
      <trkpt lat="47.637143" lon="7.944454">
        <ele>859.522857</ele>
        <time>2021-11-08T22:07:10.724Z</time>
      </trkpt>
      <trkpt lat="47.636926" lon="7.944520">
        <ele>859.387817</ele>
        <time>2021-11-08T22:07:13.829Z</time>
      </trkpt>
      <trkpt lat="47.636517" lon="7.944381">
        <ele>859.132022</ele>
        <time>2021-11-08T22:07:18.981Z</time>
      </trkpt>
      <trkpt lat="47.636440" lon="7.944352">
        <ele>859.083592</ele>
        <time>2021-11-08T22:07:19.956Z</time>
      </trkpt>
      <trkpt lat="47.636341" lon="7.944314">
        <ele>859.021252</ele>
        <time>2021-11-08T22:07:21.359Z</time>
      </trkpt>
      <trkpt lat="47.636224" lon="7.944307">
        <ele>858.949866</ele>
        <time>2021-11-08T22:07:22.676Z</time>
      </trkpt>
      <trkpt lat="47.636029" lon="7.944437">
        <ele>858.819544</ele>
        <time>2021-11-08T22:07:25.351Z</time>
      </trkpt>
      <trkpt lat="47.635520" lon="7.945990">
        <ele>858.628918</ele>
        <time>2021-11-08T22:07:40.960Z</time>
      </trkpt>
      <trkpt lat="47.635305" lon="7.946397">
        <ele>858.762925</ele>
        <time>2021-11-08T22:07:45.468Z</time>
      </trkpt>
      <trkpt lat="47.634967" lon="7.946762">
        <ele>858.923671</ele>
        <time>2021-11-08T22:07:51.126Z</time>
      </trkpt>
      <trkpt lat="47.634741" lon="7.946805">
        <ele>859.011290</ele>
        <time>2021-11-08T22:07:55.861Z</time>
      </trkpt>
      <trkpt lat="47.634598" lon="7.946753">
        <ele>859.067907</ele>
        <time>2021-11-08T22:07:59.054Z</time>
      </trkpt>
      <trkpt lat="47.634437" lon="7.946594">
        <ele>859.312406</ele>
        <time>2021-11-08T22:08:04.112Z</time>
      </trkpt>
      <trkpt lat="47.634304" lon="7.946352">
        <ele>860.008765</ele>
        <time>2021-11-08T22:08:09.346Z</time>
      </trkpt>
      <trkpt lat="47.633987" lon="7.945419">
        <ele>862.338782</ele>
        <time>2021-11-08T22:08:29.717Z</time>
      </trkpt>
      <trkpt lat="47.633902" lon="7.945296">
        <ele>862.731654</ele>
        <time>2021-11-08T22:08:32.795Z</time>
      </trkpt>
      <trkpt lat="47.633818" lon="7.945221">
        <ele>863.056059</ele>
        <time>2021-11-08T22:08:37.184Z</time>
      </trkpt>
      <trkpt lat="47.633720" lon="7.945173">
        <ele>863.397565</ele>
        <time>2021-11-08T22:08:39.568Z</time>
      </trkpt>
      <trkpt lat="47.633664" lon="7.945157">
        <ele>863.586282</ele>
        <time>2021-11-08T22:08:40.734Z</time>
      </trkpt>
      <trkpt lat="47.633591" lon="7.945179">
        <ele>863.832782</ele>
        <time>2021-11-08T22:08:42.686Z</time>
      </trkpt>
      <trkpt lat="47.633498" lon="7.945219">
        <ele>864.153201</ele>
        <time>2021-11-08T22:08:46.720Z</time>
      </trkpt>
      <trkpt lat="47.633168" lon="7.945537">
        <ele>865.294427</ele>
        <time>2021-11-08T22:08:58.765Z</time>
      </trkpt>
      <trkpt lat="47.632250" lon="7.946421">
        <ele>867.396377</ele>
        <time>2021-11-08T22:09:27.964Z</time>
      </trkpt>
      <trkpt lat="47.632015" lon="7.946574">
        <ele>867.889283</ele>
        <time>2021-11-08T22:09:31.735Z</time>
      </trkpt>
      <trkpt lat="47.631252" lon="7.946953">
        <ele>867.564488</ele>
        <time>2021-11-08T22:09:41.944Z</time>
      </trkpt>
      <trkpt lat="47.630971" lon="7.947084">
        <ele>866.965076</ele>
        <time>2021-11-08T22:09:45.358Z</time>
      </trkpt>
      <trkpt lat="47.630672" lon="7.947236">
        <ele>866.321872</ele>
        <time>2021-11-08T22:09:48.886Z</time>
      </trkpt>
      <trkpt lat="47.629991" lon="7.947744">
        <ele>864.645011</ele>
        <time>2021-11-08T22:09:56.579Z</time>
      </trkpt>
      <trkpt lat="47.629363" lon="7.948362">
        <ele>861.093829</ele>
        <time>2021-11-08T22:10:03.938Z</time>
      </trkpt>
      <trkpt lat="47.629285" lon="7.948439">
        <ele>860.652333</ele>
        <time>2021-11-08T22:10:04.812Z</time>
      </trkpt>
      <trkpt lat="47.629252" lon="7.948471">
        <ele>860.466554</ele>
        <time>2021-11-08T22:10:05.197Z</time>
      </trkpt>
      <trkpt lat="47.629112" lon="7.948574">
        <ele>859.730148</ele>
        <time>2021-11-08T22:10:06.695Z</time>
      </trkpt>
      <trkpt lat="47.629018" lon="7.948689">
        <ele>859.156015</ele>
        <time>2021-11-08T22:10:07.838Z</time>
      </trkpt>
      <trkpt lat="47.628909" lon="7.948921">
        <ele>858.257815</ele>
        <time>2021-11-08T22:10:09.624Z</time>
      </trkpt>
      <trkpt lat="47.628855" lon="7.948997">
        <ele>857.907072</ele>
        <time>2021-11-08T22:10:10.299Z</time>
      </trkpt>
      <trkpt lat="47.628255" lon="7.949609">
        <ele>854.091246</ele>
        <time>2021-11-08T22:10:17.001Z</time>
      </trkpt>
      <trkpt lat="47.628154" lon="7.949804">
        <ele>853.153192</ele>
        <time>2021-11-08T22:10:18.513Z</time>
      </trkpt>
      <trkpt lat="47.627878" lon="7.950521">
        <ele>850.003726</ele>
        <time>2021-11-08T22:10:23.629Z</time>
      </trkpt>
      <trkpt lat="47.627733" lon="7.950917">
        <ele>848.284748</ele>
        <time>2021-11-08T22:10:26.463Z</time>
      </trkpt>
      <trkpt lat="47.627648" lon="7.951422">
        <ele>846.299385</ele>
        <time>2021-11-08T22:10:29.740Z</time>
      </trkpt>
      <trkpt lat="47.627654" lon="7.951887">
        <ele>844.961108</ele>
        <time>2021-11-08T22:10:32.654Z</time>
      </trkpt>
      <trkpt lat="47.627721" lon="7.952139">
        <ele>844.194993</ele>
        <time>2021-11-08T22:10:34.385Z</time>
      </trkpt>
      <trkpt lat="47.627897" lon="7.952319">
        <ele>843.298019</ele>
        <time>2021-11-08T22:10:36.451Z</time>
      </trkpt>
      <trkpt lat="47.628434" lon="7.952311">
        <ele>841.044531</ele>
        <time>2021-11-08T22:10:41.707Z</time>
      </trkpt>
      <trkpt lat="47.628557" lon="7.952369">
        <ele>840.502959</ele>
        <time>2021-11-08T22:10:43.020Z</time>
      </trkpt>
      <trkpt lat="47.628765" lon="7.952634">
        <ele>839.352556</ele>
        <time>2021-11-08T22:10:45.774Z</time>
      </trkpt>
      <trkpt lat="47.628838" lon="7.952839">
        <ele>838.696868</ele>
        <time>2021-11-08T22:10:47.304Z</time>
      </trkpt>
      <trkpt lat="47.628874" lon="7.953156">
        <ele>837.847361</ele>
        <time>2021-11-08T22:10:49.481Z</time>
      </trkpt>
      <trkpt lat="47.628856" lon="7.953407">
        <ele>837.182146</ele>
        <time>2021-11-08T22:10:51.183Z</time>
      </trkpt>
      <trkpt lat="47.628776" lon="7.953602">
        <ele>836.580514</ele>
        <time>2021-11-08T22:10:52.690Z</time>
      </trkpt>
      <trkpt lat="47.628203" lon="7.954403">
        <ele>833.502063</ele>
        <time>2021-11-08T22:11:00.633Z</time>
      </trkpt>
      <trkpt lat="47.628164" lon="7.954451">
        <ele>833.303919</ele>
        <time>2021-11-08T22:11:01.109Z</time>
      </trkpt>
      <trkpt lat="47.627967" lon="7.954688">
        <ele>832.312164</ele>
        <time>2021-11-08T22:11:03.590Z</time>
      </trkpt>
      <trkpt lat="47.627717" lon="7.954938">
        <ele>830.886667</ele>
        <time>2021-11-08T22:11:06.375Z</time>
      </trkpt>
      <trkpt lat="47.627687" lon="7.954981">
        <ele>830.642486</ele>
        <time>2021-11-08T22:11:06.753Z</time>
      </trkpt>
      <trkpt lat="47.627130" lon="7.955548">
        <ele>826.688165</ele>
        <time>2021-11-08T22:11:12.998Z</time>
      </trkpt>
      <trkpt lat="47.626911" lon="7.955799">
        <ele>825.068187</ele>
        <time>2021-11-08T22:11:15.536Z</time>
      </trkpt>
      <trkpt lat="47.626847" lon="7.955877">
        <ele>824.583340</ele>
        <time>2021-11-08T22:11:16.285Z</time>
      </trkpt>
      <trkpt lat="47.626662" lon="7.956102">
        <ele>823.183000</ele>
        <time>2021-11-08T22:11:18.562Z</time>
      </trkpt>
      <trkpt lat="47.626624" lon="7.956149">
        <ele>822.893392</ele>
        <time>2021-11-08T22:11:18.973Z</time>
      </trkpt>
      <trkpt lat="47.626211" lon="7.956894">
        <ele>819.170201</ele>
        <time>2021-11-08T22:11:24.904Z</time>
      </trkpt>
      <trkpt lat="47.626080" lon="7.957322">
        <ele>817.391833</ele>
        <time>2021-11-08T22:11:27.805Z</time>
      </trkpt>
      <trkpt lat="47.626033" lon="7.957653">
        <ele>816.112099</ele>
        <time>2021-11-08T22:11:29.826Z</time>
      </trkpt>
      <trkpt lat="47.626050" lon="7.957936">
        <ele>815.037205</ele>
        <time>2021-11-08T22:11:31.613Z</time>
      </trkpt>
      <trkpt lat="47.626052" lon="7.957943">
        <ele>815.008441</ele>
        <time>2021-11-08T22:11:31.658Z</time>
      </trkpt>
      <trkpt lat="47.626106" lon="7.958128">
        <ele>814.245725</ele>
        <time>2021-11-08T22:11:32.890Z</time>
      </trkpt>
      <trkpt lat="47.626230" lon="7.958280">
        <ele>813.342855</ele>
        <time>2021-11-08T22:11:34.493Z</time>
      </trkpt>
      <trkpt lat="47.626247" lon="7.958296">
        <ele>813.229849</ele>
        <time>2021-11-08T22:11:34.659Z</time>
      </trkpt>
      <trkpt lat="47.627576" lon="7.959530">
        <ele>806.784785</ele>
        <time>2021-11-08T22:11:50.194Z</time>
      </trkpt>
      <trkpt lat="47.627805" lon="7.959728">
        <ele>805.830051</ele>
        <time>2021-11-08T22:11:52.848Z</time>
      </trkpt>
      <trkpt lat="47.627901" lon="7.959823">
        <ele>805.414389</ele>
        <time>2021-11-08T22:11:54.245Z</time>
      </trkpt>
      <trkpt lat="47.627921" lon="7.959843">
        <ele>805.327512</ele>
        <time>2021-11-08T22:11:54.450Z</time>
      </trkpt>
      <trkpt lat="47.628121" lon="7.960103">
        <ele>804.349107</ele>
        <time>2021-11-08T22:11:57.190Z</time>
      </trkpt>
      <trkpt lat="47.628141" lon="7.960219">
        <ele>804.019783</ele>
        <time>2021-11-08T22:11:58.049Z</time>
      </trkpt>
      <trkpt lat="47.628150" lon="7.960346">
        <ele>803.668555</ele>
        <time>2021-11-08T22:11:58.832Z</time>
      </trkpt>
      <trkpt lat="47.628133" lon="7.960453">
        <ele>803.366193</ele>
        <time>2021-11-08T22:11:59.616Z</time>
      </trkpt>
      <trkpt lat="47.628113" lon="7.960497">
        <ele>803.220222</ele>
        <time>2021-11-08T22:11:59.982Z</time>
      </trkpt>
      <trkpt lat="47.627992" lon="7.960773">
        <ele>802.314624</ele>
        <time>2021-11-08T22:12:02.218Z</time>
      </trkpt>
      <trkpt lat="47.627977" lon="7.960791">
        <ele>802.235894</ele>
        <time>2021-11-08T22:12:02.384Z</time>
      </trkpt>
      <trkpt lat="47.627638" lon="7.961196">
        <ele>800.459695</ele>
        <time>2021-11-08T22:12:06.680Z</time>
      </trkpt>
      <trkpt lat="47.627361" lon="7.961320">
        <ele>799.278903</ele>
        <time>2021-11-08T22:12:09.437Z</time>
      </trkpt>
      <trkpt lat="47.627091" lon="7.961323">
        <ele>798.176975</ele>
        <time>2021-11-08T22:12:12.088Z</time>
      </trkpt>
      <trkpt lat="47.626570" lon="7.961201">
        <ele>795.573220</ele>
        <time>2021-11-08T22:12:17.056Z</time>
      </trkpt>
      <trkpt lat="47.626072" lon="7.961282">
        <ele>792.733143</ele>
        <time>2021-11-08T22:12:21.748Z</time>
      </trkpt>
      <trkpt lat="47.625423" lon="7.961758">
        <ele>788.629002</ele>
        <time>2021-11-08T22:12:28.404Z</time>
      </trkpt>
      <trkpt lat="47.624699" lon="7.961960">
        <ele>784.048749</ele>
        <time>2021-11-08T22:12:35.077Z</time>
      </trkpt>
      <trkpt lat="47.624289" lon="7.962286">
        <ele>780.991488</ele>
        <time>2021-11-08T22:12:39.264Z</time>
      </trkpt>
      <trkpt lat="47.624100" lon="7.962560">
        <ele>779.254753</ele>
        <time>2021-11-08T22:12:41.642Z</time>
      </trkpt>
      <trkpt lat="47.623908" lon="7.962949">
        <ele>777.118919</ele>
        <time>2021-11-08T22:12:44.575Z</time>
      </trkpt>
      <trkpt lat="47.623702" lon="7.963582">
        <ele>774.231508</ele>
        <time>2021-11-08T22:12:48.880Z</time>
      </trkpt>
      <trkpt lat="47.623402" lon="7.965332">
        <ele>767.792545</ele>
        <time>2021-11-08T22:13:00.276Z</time>
      </trkpt>
      <trkpt lat="47.623373" lon="7.965858">
        <ele>765.910625</ele>
        <time>2021-11-08T22:13:03.679Z</time>
      </trkpt>
      <trkpt lat="47.623423" lon="7.967737">
        <ele>759.887233</ele>
        <time>2021-11-08T22:13:15.872Z</time>
      </trkpt>
      <trkpt lat="47.623388" lon="7.967900">
        <ele>759.341775</ele>
        <time>2021-11-08T22:13:17.012Z</time>
      </trkpt>
      <trkpt lat="47.623359" lon="7.967978">
        <ele>759.057744</ele>
        <time>2021-11-08T22:13:17.537Z</time>
      </trkpt>
      <trkpt lat="47.623092" lon="7.968301">
        <ele>757.428005</ele>
        <time>2021-11-08T22:13:20.794Z</time>
      </trkpt>
      <trkpt lat="47.622788" lon="7.968668">
        <ele>755.445509</ele>
        <time>2021-11-08T22:13:24.428Z</time>
      </trkpt>
      <trkpt lat="47.622095" lon="7.969959">
        <ele>749.751913</ele>
        <time>2021-11-08T22:13:34.768Z</time>
      </trkpt>
      <trkpt lat="47.621961" lon="7.970341">
        <ele>748.266275</ele>
        <time>2021-11-08T22:13:37.537Z</time>
      </trkpt>
      <trkpt lat="47.621825" lon="7.970874">
        <ele>746.766348</ele>
        <time>2021-11-08T22:13:41.258Z</time>
      </trkpt>
      <trkpt lat="47.621814" lon="7.971358">
        <ele>745.572024</ele>
        <time>2021-11-08T22:13:44.518Z</time>
      </trkpt>
      <trkpt lat="47.621859" lon="7.971562">
        <ele>745.042660</ele>
        <time>2021-11-08T22:13:46.001Z</time>
      </trkpt>
      <trkpt lat="47.622016" lon="7.971878">
        <ele>744.074498</ele>
        <time>2021-11-08T22:13:48.748Z</time>
      </trkpt>
      <trkpt lat="47.622042" lon="7.972290">
        <ele>743.053981</ele>
        <time>2021-11-08T22:13:51.488Z</time>
      </trkpt>
      <trkpt lat="47.621981" lon="7.972540">
        <ele>742.398275</ele>
        <time>2021-11-08T22:13:53.279Z</time>
      </trkpt>
      <trkpt lat="47.621864" lon="7.972727">
        <ele>741.769026</ele>
        <time>2021-11-08T22:13:54.990Z</time>
      </trkpt>
      <trkpt lat="47.621151" lon="7.973144">
        <ele>738.599830</ele>
        <time>2021-11-08T22:14:02.666Z</time>
      </trkpt>
      <trkpt lat="47.621098" lon="7.973175">
        <ele>738.359536</ele>
        <time>2021-11-08T22:14:03.250Z</time>
      </trkpt>
      <trkpt lat="47.620857" lon="7.973427">
        <ele>737.115924</ele>
        <time>2021-11-08T22:14:06.184Z</time>
      </trkpt>
      <trkpt lat="47.619443" lon="7.974909">
        <ele>729.733040</ele>
        <time>2021-11-08T22:14:22.416Z</time>
      </trkpt>
      <trkpt lat="47.619261" lon="7.975143">
        <ele>728.696505</ele>
        <time>2021-11-08T22:14:24.669Z</time>
      </trkpt>
      <trkpt lat="47.619086" lon="7.975421">
        <ele>727.593002</ele>
        <time>2021-11-08T22:14:27.255Z</time>
      </trkpt>
      <trkpt lat="47.618899" lon="7.975865">
        <ele>726.074158</ele>
        <time>2021-11-08T22:14:30.823Z</time>
      </trkpt>
      <trkpt lat="47.618853" lon="7.976012">
        <ele>726.081996</ele>
        <time>2021-11-08T22:14:31.877Z</time>
      </trkpt>
      <trkpt lat="47.618717" lon="7.976392">
        <ele>726.246278</ele>
        <time>2021-11-08T22:14:35.208Z</time>
      </trkpt>
      <trkpt lat="47.618694" lon="7.976794">
        <ele>726.400327</ele>
        <time>2021-11-08T22:14:39.631Z</time>
      </trkpt>
      <trkpt lat="47.618727" lon="7.976992">
        <ele>726.478208</ele>
        <time>2021-11-08T22:14:41.540Z</time>
      </trkpt>
      <trkpt lat="47.618801" lon="7.977273">
        <ele>726.593401</ele>
        <time>2021-11-08T22:14:46.236Z</time>
      </trkpt>
      <trkpt lat="47.618892" lon="7.977672">
        <ele>726.754237</ele>
        <time>2021-11-08T22:14:53.126Z</time>
      </trkpt>
      <trkpt lat="47.618915" lon="7.977858">
        <ele>726.826444</ele>
        <time>2021-11-08T22:14:56.973Z</time>
      </trkpt>
      <trkpt lat="47.618925" lon="7.977992">
        <ele>726.877922</ele>
        <time>2021-11-08T22:14:59.099Z</time>
      </trkpt>
      <trkpt lat="47.618907" lon="7.978127">
        <ele>726.930468</ele>
        <time>2021-11-08T22:15:01.296Z</time>
      </trkpt>
      <trkpt lat="47.618841" lon="7.978257">
        <ele>726.992612</ele>
        <time>2021-11-08T22:15:02.711Z</time>
      </trkpt>
      <trkpt lat="47.618834" lon="7.978265">
        <ele>726.997617</ele>
        <time>2021-11-08T22:15:03.141Z</time>
      </trkpt>
      <trkpt lat="47.618803" lon="7.978299">
        <ele>727.019455</ele>
        <time>2021-11-08T22:15:04.266Z</time>
      </trkpt>
      <trkpt lat="47.618752" lon="7.978355">
        <ele>727.050435</ele>
        <time>2021-11-08T22:15:06.062Z</time>
      </trkpt>
      <trkpt lat="47.618699" lon="7.978414">
        <ele>727.069566</ele>
        <time>2021-11-08T22:15:08.230Z</time>
      </trkpt>
      <trkpt lat="47.618449" lon="7.978730">
        <ele>727.164392</ele>
        <time>2021-11-08T22:15:15.769Z</time>
      </trkpt>
      <trkpt lat="47.618419" lon="7.978768">
        <ele>727.175782</ele>
        <time>2021-11-08T22:15:17.081Z</time>
      </trkpt>
      <trkpt lat="47.617897" lon="7.977926">
        <ele>727.398417</ele>
        <time>2021-11-08T22:15:31.320Z</time>
      </trkpt>
      <trkpt lat="47.617863" lon="7.977860">
        <ele>727.414584</ele>
        <time>2021-11-08T22:15:31.795Z</time>
      </trkpt>
      <trkpt lat="47.617827" lon="7.977800">
        <ele>727.430217</ele>
        <time>2021-11-08T22:15:32.361Z</time>
      </trkpt>
      <trkpt lat="47.617728" lon="7.977637">
        <ele>727.472917</ele>
        <time>2021-11-08T22:15:35.613Z</time>
      </trkpt>
      <trkpt lat="47.617183" lon="7.976739">
        <ele>727.237387</ele>
        <time>2021-11-08T22:15:44.543Z</time>
      </trkpt>
      <trkpt lat="47.617143" lon="7.976643">
        <ele>727.187307</ele>
        <time>2021-11-08T22:15:45.196Z</time>
      </trkpt>
      <trkpt lat="47.617122" lon="7.976576">
        <ele>727.154519</ele>
        <time>2021-11-08T22:15:45.733Z</time>
      </trkpt>
      <trkpt lat="47.617087" lon="7.976456">
        <ele>727.096499</ele>
        <time>2021-11-08T22:15:46.921Z</time>
      </trkpt>
      <trkpt lat="47.617050" lon="7.976280">
        <ele>727.014691</ele>
        <time>2021-11-08T22:15:49.860Z</time>
      </trkpt>
      <trkpt lat="47.617035" lon="7.976194">
        <ele>726.975272</ele>
        <time>2021-11-08T22:15:50.395Z</time>
      </trkpt>
      <trkpt lat="47.616932" lon="7.975644">
        <ele>726.721971</ele>
        <time>2021-11-08T22:15:55.407Z</time>
      </trkpt>
      <trkpt lat="47.616823" lon="7.975315">
        <ele>726.559299</ele>
        <time>2021-11-08T22:16:00.767Z</time>
      </trkpt>
      <trkpt lat="47.616605" lon="7.975163">
        <ele>726.400731</ele>
        <time>2021-11-08T22:16:04.334Z</time>
      </trkpt>
      <trkpt lat="47.616374" lon="7.975153">
        <ele>727.023382</ele>
        <time>2021-11-08T22:16:08.938Z</time>
      </trkpt>
      <trkpt lat="47.615835" lon="7.975151">
        <ele>728.751970</ele>
        <time>2021-11-08T22:16:23.925Z</time>
      </trkpt>
      <trkpt lat="47.615388" lon="7.975207">
        <ele>730.190610</ele>
        <time>2021-11-08T22:16:38.215Z</time>
      </trkpt>
      <trkpt lat="47.615223" lon="7.975285">
        <ele>730.745986</ele>
        <time>2021-11-08T22:16:43.597Z</time>
      </trkpt>
      <trkpt lat="47.614735" lon="7.975625">
        <ele>732.575199</ele>
        <time>2021-11-08T22:17:00.203Z</time>
      </trkpt>
      <trkpt lat="47.614050" lon="7.976273">
        <ele>735.980801</ele>
        <time>2021-11-08T22:17:23.122Z</time>
      </trkpt>
      <trkpt lat="47.613802" lon="7.976286">
        <ele>737.021033</ele>
        <time>2021-11-08T22:17:31.059Z</time>
      </trkpt>
      <trkpt lat="47.613439" lon="7.976020">
        <ele>738.718216</ele>
        <time>2021-11-08T22:17:45.192Z</time>
      </trkpt>
      <trkpt lat="47.613266" lon="7.975808">
        <ele>739.658858</ele>
        <time>2021-11-08T22:17:53.130Z</time>
      </trkpt>
      <trkpt lat="47.613184" lon="7.975689">
        <ele>740.150575</ele>
        <time>2021-11-08T22:17:57.254Z</time>
      </trkpt>
      <trkpt lat="47.612962" lon="7.975399">
        <ele>741.420382</ele>
        <time>2021-11-08T22:18:07.224Z</time>
      </trkpt>
      <trkpt lat="47.612866" lon="7.975328">
        <ele>741.880855</ele>
        <time>2021-11-08T22:18:11.016Z</time>
      </trkpt>
      <trkpt lat="47.612717" lon="7.975295">
        <ele>742.527549</ele>
        <time>2021-11-08T22:18:16.437Z</time>
      </trkpt>
      <trkpt lat="47.612677" lon="7.975302">
        <ele>742.700445</ele>
        <time>2021-11-08T22:18:17.462Z</time>
      </trkpt>
      <trkpt lat="47.612535" lon="7.975326">
        <ele>743.313944</ele>
        <time>2021-11-08T22:18:22.184Z</time>
      </trkpt>
      <trkpt lat="47.612357" lon="7.975517">
        <ele>744.256991</ele>
        <time>2021-11-08T22:18:29.456Z</time>
      </trkpt>
      <trkpt lat="47.612223" lon="7.975718">
        <ele>745.075041</ele>
        <time>2021-11-08T22:18:35.984Z</time>
      </trkpt>
      <trkpt lat="47.612133" lon="7.975906">
        <ele>745.742306</ele>
        <time>2021-11-08T22:18:40.945Z</time>
      </trkpt>
      <trkpt lat="47.611876" lon="7.976376">
        <ele>747.370471</ele>
        <time>2021-11-08T22:18:53.144Z</time>
      </trkpt>
      <trkpt lat="47.611711" lon="7.976600">
        <ele>746.925924</ele>
        <time>2021-11-08T22:18:59.707Z</time>
      </trkpt>
      <trkpt lat="47.611588" lon="7.976702">
        <ele>746.645852</ele>
        <time>2021-11-08T22:19:03.442Z</time>
      </trkpt>
      <trkpt lat="47.611343" lon="7.976840">
        <ele>746.124989</ele>
        <time>2021-11-08T22:19:07.963Z</time>
      </trkpt>
      <trkpt lat="47.610048" lon="7.976910">
        <ele>742.637016</ele>
        <time>2021-11-08T22:19:20.490Z</time>
      </trkpt>
      <trkpt lat="47.609956" lon="7.976908">
        <ele>741.869008</ele>
        <time>2021-11-08T22:19:21.322Z</time>
      </trkpt>
      <trkpt lat="47.609734" lon="7.976902">
        <ele>740.015662</ele>
        <time>2021-11-08T22:19:23.299Z</time>
      </trkpt>
      <trkpt lat="47.609554" lon="7.976848">
        <ele>738.482777</ele>
        <time>2021-11-08T22:19:24.902Z</time>
      </trkpt>
      <trkpt lat="47.609405" lon="7.976774">
        <ele>737.171207</ele>
        <time>2021-11-08T22:19:26.306Z</time>
      </trkpt>
      <trkpt lat="47.609225" lon="7.976647">
        <ele>735.507427</ele>
        <time>2021-11-08T22:19:28.024Z</time>
      </trkpt>
      <trkpt lat="47.609083" lon="7.976509">
        <ele>734.090400</ele>
        <time>2021-11-08T22:19:29.498Z</time>
      </trkpt>
      <trkpt lat="47.609057" lon="7.976492">
        <ele>733.853228</ele>
        <time>2021-11-08T22:19:29.733Z</time>
      </trkpt>
      <trkpt lat="47.608829" lon="7.976172">
        <ele>731.233172</ele>
        <time>2021-11-08T22:19:32.478Z</time>
      </trkpt>
      <trkpt lat="47.608764" lon="7.976082">
        <ele>730.490958</ele>
        <time>2021-11-08T22:19:33.216Z</time>
      </trkpt>
      <trkpt lat="47.608361" lon="7.975503">
        <ele>726.608240</ele>
        <time>2021-11-08T22:19:38.102Z</time>
      </trkpt>
      <trkpt lat="47.608085" lon="7.975248">
        <ele>724.615014</ele>
        <time>2021-11-08T22:19:40.938Z</time>
      </trkpt>
      <trkpt lat="47.607949" lon="7.975198">
        <ele>723.756123</ele>
        <time>2021-11-08T22:19:42.164Z</time>
      </trkpt>
      <trkpt lat="47.607811" lon="7.975152">
        <ele>722.889100</ele>
        <time>2021-11-08T22:19:43.446Z</time>
      </trkpt>
      <trkpt lat="47.607703" lon="7.975163">
        <ele>722.225513</ele>
        <time>2021-11-08T22:19:44.483Z</time>
      </trkpt>
      <trkpt lat="47.607293" lon="7.975219">
        <ele>719.701628</ele>
        <time>2021-11-08T22:19:48.503Z</time>
      </trkpt>
      <trkpt lat="47.607002" lon="7.975117">
        <ele>717.868698</ele>
        <time>2021-11-08T22:19:51.852Z</time>
      </trkpt>
      <trkpt lat="47.606836" lon="7.974966">
        <ele>717.441192</ele>
        <time>2021-11-08T22:19:53.971Z</time>
      </trkpt>
      <trkpt lat="47.606683" lon="7.974772">
        <ele>717.050768</ele>
        <time>2021-11-08T22:19:56.272Z</time>
      </trkpt>
      <trkpt lat="47.606512" lon="7.974504">
        <ele>716.568235</ele>
        <time>2021-11-08T22:19:59.160Z</time>
      </trkpt>
      <trkpt lat="47.606402" lon="7.974261">
        <ele>716.185474</ele>
        <time>2021-11-08T22:20:01.487Z</time>
      </trkpt>
      <trkpt lat="47.606300" lon="7.973918">
        <ele>715.695229</ele>
        <time>2021-11-08T22:20:04.333Z</time>
      </trkpt>
      <trkpt lat="47.606116" lon="7.973296">
        <ele>714.806965</ele>
        <time>2021-11-08T22:20:09.522Z</time>
      </trkpt>
      <trkpt lat="47.606058" lon="7.973155">
        <ele>714.590965</ele>
        <time>2021-11-08T22:20:10.566Z</time>
      </trkpt>
      <trkpt lat="47.605981" lon="7.973005">
        <ele>714.344419</ele>
        <time>2021-11-08T22:20:12.049Z</time>
      </trkpt>
      <trkpt lat="47.605871" lon="7.972904">
        <ele>714.067863</ele>
        <time>2021-11-08T22:20:13.517Z</time>
      </trkpt>
      <trkpt lat="47.605644" lon="7.972831">
        <ele>713.563314</ele>
        <time>2021-11-08T22:20:16.004Z</time>
      </trkpt>
      <trkpt lat="47.605516" lon="7.972819">
        <ele>713.284716</ele>
        <time>2021-11-08T22:20:17.473Z</time>
      </trkpt>
      <trkpt lat="47.605374" lon="7.972905">
        <ele>712.951538</ele>
        <time>2021-11-08T22:20:18.991Z</time>
      </trkpt>
      <trkpt lat="47.604923" lon="7.973403">
        <ele>711.730179</ele>
        <time>2021-11-08T22:20:25.299Z</time>
      </trkpt>
      <trkpt lat="47.604857" lon="7.973536">
        <ele>711.488317</ele>
        <time>2021-11-08T22:20:26.366Z</time>
      </trkpt>
      <trkpt lat="47.604839" lon="7.973573">
        <ele>711.421494</ele>
        <time>2021-11-08T22:20:26.700Z</time>
      </trkpt>
      <trkpt lat="47.604831" lon="7.973588">
        <ele>711.393483</ele>
        <time>2021-11-08T22:20:26.836Z</time>
      </trkpt>
      <trkpt lat="47.604760" lon="7.973795">
        <ele>711.053339</ele>
        <time>2021-11-08T22:20:28.667Z</time>
      </trkpt>
      <trkpt lat="47.604708" lon="7.974012">
        <ele>710.716046</ele>
        <time>2021-11-08T22:20:30.220Z</time>
      </trkpt>
      <trkpt lat="47.604645" lon="7.974490">
        <ele>710.349937</ele>
        <time>2021-11-08T22:20:33.819Z</time>
      </trkpt>
      <trkpt lat="47.604722" lon="7.975230">
        <ele>710.211446</ele>
        <time>2021-11-08T22:20:39.831Z</time>
      </trkpt>
      <trkpt lat="47.604837" lon="7.975632">
        <ele>710.130677</ele>
        <time>2021-11-08T22:20:43.674Z</time>
      </trkpt>
      <trkpt lat="47.604916" lon="7.975943">
        <ele>710.069208</ele>
        <time>2021-11-08T22:20:47.235Z</time>
      </trkpt>
      <trkpt lat="47.605029" lon="7.976646">
        <ele>709.935538</ele>
        <time>2021-11-08T22:20:55.866Z</time>
      </trkpt>
      <trkpt lat="47.605075" lon="7.977483">
        <ele>711.631631</ele>
        <time>2021-11-08T22:21:07.974Z</time>
      </trkpt>
      <trkpt lat="47.604988" lon="7.978584">
        <ele>714.427363</ele>
        <time>2021-11-08T22:21:30.812Z</time>
      </trkpt>
      <trkpt lat="47.604918" lon="7.978996">
        <ele>715.498913</ele>
        <time>2021-11-08T22:21:40.601Z</time>
      </trkpt>
      <trkpt lat="47.604776" lon="7.979454">
        <ele>716.845914</ele>
        <time>2021-11-08T22:21:53.134Z</time>
      </trkpt>
      <trkpt lat="47.604731" lon="7.979649">
        <ele>717.655536</ele>
        <time>2021-11-08T22:21:59.488Z</time>
      </trkpt>
      <trkpt lat="47.604684" lon="7.980290">
        <ele>720.188356</ele>
        <time>2021-11-08T22:22:15.711Z</time>
      </trkpt>
      <trkpt lat="47.604707" lon="7.980526">
        <ele>721.125045</ele>
        <time>2021-11-08T22:22:22.127Z</time>
      </trkpt>
      <trkpt lat="47.604737" lon="7.980685">
        <ele>721.773623</ele>
        <time>2021-11-08T22:22:27.568Z</time>
      </trkpt>
      <trkpt lat="47.604742" lon="7.981251">
        <ele>723.997172</ele>
        <time>2021-11-08T22:22:43.346Z</time>
      </trkpt>
      <trkpt lat="47.604541" lon="7.981767">
        <ele>726.338088</ele>
        <time>2021-11-08T22:22:58.971Z</time>
      </trkpt>
      <trkpt lat="47.603580" lon="7.982596">
        <ele>729.196857</ele>
        <time>2021-11-08T22:23:32.347Z</time>
      </trkpt>
      <trkpt lat="47.602904" lon="7.983364">
        <ele>730.784235</ele>
        <time>2021-11-08T22:23:47.764Z</time>
      </trkpt>
      <trkpt lat="47.602721" lon="7.983621">
        <ele>729.518670</ele>
        <time>2021-11-08T22:23:50.686Z</time>
      </trkpt>
      <trkpt lat="47.602644" lon="7.983742">
        <ele>728.955329</ele>
        <time>2021-11-08T22:23:51.690Z</time>
      </trkpt>
      <trkpt lat="47.602182" lon="7.984530">
        <ele>725.419667</ele>
        <time>2021-11-08T22:23:58.364Z</time>
      </trkpt>
      <trkpt lat="47.602072" lon="7.984743">
        <ele>724.511237</ele>
        <time>2021-11-08T22:24:00.043Z</time>
      </trkpt>
      <trkpt lat="47.601944" lon="7.984990">
        <ele>723.456450</ele>
        <time>2021-11-08T22:24:01.873Z</time>
      </trkpt>
      <trkpt lat="47.601786" lon="7.985227">
        <ele>722.327979</ele>
        <time>2021-11-08T22:24:03.932Z</time>
      </trkpt>
      <trkpt lat="47.601702" lon="7.985353">
        <ele>721.628101</ele>
        <time>2021-11-08T22:24:04.943Z</time>
      </trkpt>
      <trkpt lat="47.601244" lon="7.985812">
        <ele>717.331960</ele>
        <time>2021-11-08T22:24:09.833Z</time>
      </trkpt>
      <trkpt lat="47.600959" lon="7.986011">
        <ele>714.883698</ele>
        <time>2021-11-08T22:24:12.570Z</time>
      </trkpt>
      <trkpt lat="47.600869" lon="7.986065">
        <ele>714.129135</ele>
        <time>2021-11-08T22:24:13.437Z</time>
      </trkpt>
      <trkpt lat="47.600674" lon="7.986173">
        <ele>712.511346</ele>
        <time>2021-11-08T22:24:15.232Z</time>
      </trkpt>
      <trkpt lat="47.599584" lon="7.986808">
        <ele>704.370004</ele>
        <time>2021-11-08T22:24:25.872Z</time>
      </trkpt>
      <trkpt lat="47.598970" lon="7.987189">
        <ele>700.295775</ele>
        <time>2021-11-08T22:24:32.052Z</time>
      </trkpt>
      <trkpt lat="47.598718" lon="7.987384">
        <ele>698.555838</ele>
        <time>2021-11-08T22:24:34.654Z</time>
      </trkpt>
      <trkpt lat="47.598468" lon="7.987626">
        <ele>696.713621</ele>
        <time>2021-11-08T22:24:37.391Z</time>
      </trkpt>
      <trkpt lat="47.598432" lon="7.987661">
        <ele>696.430002</ele>
        <time>2021-11-08T22:24:37.789Z</time>
      </trkpt>
      <trkpt lat="47.598168" lon="7.987924">
        <ele>694.334564</ele>
        <time>2021-11-08T22:24:40.671Z</time>
      </trkpt>
      <trkpt lat="47.597809" lon="7.988272">
        <ele>691.508742</ele>
        <time>2021-11-08T22:24:44.533Z</time>
      </trkpt>
      <trkpt lat="47.597197" lon="7.988790">
        <ele>686.865931</ele>
        <time>2021-11-08T22:24:50.839Z</time>
      </trkpt>
      <trkpt lat="47.596445" lon="7.989273">
        <ele>682.745649</ele>
        <time>2021-11-08T22:24:58.371Z</time>
      </trkpt>
      <trkpt lat="47.595940" lon="7.989500">
        <ele>680.502815</ele>
        <time>2021-11-08T22:25:03.487Z</time>
      </trkpt>
      <trkpt lat="47.595627" lon="7.989468">
        <ele>679.169319</ele>
        <time>2021-11-08T22:25:06.620Z</time>
      </trkpt>
      <trkpt lat="47.595392" lon="7.989263">
        <ele>678.010493</ele>
        <time>2021-11-08T22:25:09.423Z</time>
      </trkpt>
      <trkpt lat="47.595288" lon="7.989057">
        <ele>677.352029</ele>
        <time>2021-11-08T22:25:11.285Z</time>
      </trkpt>
      <trkpt lat="47.595231" lon="7.988803">
        <ele>676.981445</ele>
        <time>2021-11-08T22:25:13.251Z</time>
      </trkpt>
      <trkpt lat="47.595279" lon="7.987696">
        <ele>675.445802</ele>
        <time>2021-11-08T22:25:21.810Z</time>
      </trkpt>
      <trkpt lat="47.595223" lon="7.987252">
        <ele>674.820492</ele>
        <time>2021-11-08T22:25:25.284Z</time>
      </trkpt>
      <trkpt lat="47.595069" lon="7.987007">
        <ele>674.356837</ele>
        <time>2021-11-08T22:25:27.821Z</time>
      </trkpt>
      <trkpt lat="47.594863" lon="7.986909">
        <ele>673.912725</ele>
        <time>2021-11-08T22:25:30.221Z</time>
      </trkpt>
      <trkpt lat="47.594655" lon="7.986957">
        <ele>673.222944</ele>
        <time>2021-11-08T22:25:32.458Z</time>
      </trkpt>
      <trkpt lat="47.594497" lon="7.987070">
        <ele>672.496160</ele>
        <time>2021-11-08T22:25:34.282Z</time>
      </trkpt>
      <trkpt lat="47.593485" lon="7.987901">
        <ele>667.703299</ele>
        <time>2021-11-08T22:25:45.452Z</time>
      </trkpt>
      <trkpt lat="47.592751" lon="7.988147">
        <ele>665.036163</ele>
        <time>2021-11-08T22:25:52.394Z</time>
      </trkpt>
      <trkpt lat="47.592324" lon="7.988430">
        <ele>663.613266</ele>
        <time>2021-11-08T22:25:56.960Z</time>
      </trkpt>
      <trkpt lat="47.592119" lon="7.988433">
        <ele>662.989575</ele>
        <time>2021-11-08T22:25:58.943Z</time>
      </trkpt>
      <trkpt lat="47.591971" lon="7.988287">
        <ele>662.448781</ele>
        <time>2021-11-08T22:26:01.162Z</time>
      </trkpt>
      <trkpt lat="47.591910" lon="7.988145">
        <ele>662.103354</ele>
        <time>2021-11-08T22:26:02.645Z</time>
      </trkpt>
      <trkpt lat="47.591874" lon="7.987958">
        <ele>661.704358</ele>
        <time>2021-11-08T22:26:03.930Z</time>
      </trkpt>
      <trkpt lat="47.591872" lon="7.987834">
        <ele>661.449873</ele>
        <time>2021-11-08T22:26:06.093Z</time>
      </trkpt>
      <trkpt lat="47.591989" lon="7.986949">
        <ele>660.539087</ele>
        <time>2021-11-08T22:26:14.569Z</time>
      </trkpt>
      <trkpt lat="47.591825" lon="7.986496">
        <ele>660.303266</ele>
        <time>2021-11-08T22:26:20.328Z</time>
      </trkpt>
      <trkpt lat="47.591744" lon="7.986404">
        <ele>660.233874</ele>
        <time>2021-11-08T22:26:23.275Z</time>
      </trkpt>
      <trkpt lat="47.591589" lon="7.986285">
        <ele>660.115165</ele>
        <time>2021-11-08T22:26:26.693Z</time>
      </trkpt>
      <trkpt lat="47.591392" lon="7.986243">
        <ele>659.979806</ele>
        <time>2021-11-08T22:26:29.989Z</time>
      </trkpt>
      <trkpt lat="47.591143" lon="7.986333">
        <ele>659.805502</ele>
        <time>2021-11-08T22:26:32.778Z</time>
      </trkpt>
      <trkpt lat="47.591034" lon="7.986459">
        <ele>659.711504</ele>
        <time>2021-11-08T22:26:35.814Z</time>
      </trkpt>
      <trkpt lat="47.590902" lon="7.986783">
        <ele>659.192154</ele>
        <time>2021-11-08T22:26:38.249Z</time>
      </trkpt>
      <trkpt lat="47.590598" lon="7.987915">
        <ele>654.645257</ele>
        <time>2021-11-08T22:26:46.179Z</time>
      </trkpt>
      <trkpt lat="47.590529" lon="7.988254">
        <ele>653.323841</ele>
        <time>2021-11-08T22:26:48.285Z</time>
      </trkpt>
      <trkpt lat="47.590456" lon="7.988863">
        <ele>651.015593</ele>
        <time>2021-11-08T22:26:51.972Z</time>
      </trkpt>
      <trkpt lat="47.590392" lon="7.989205">
        <ele>649.691116</ele>
        <time>2021-11-08T22:26:54.244Z</time>
      </trkpt>
      <trkpt lat="47.590332" lon="7.989372">
        <ele>649.087345</ele>
        <time>2021-11-08T22:26:55.323Z</time>
      </trkpt>
      <trkpt lat="47.590153" lon="7.989440">
        <ele>648.226135</ele>
        <time>2021-11-08T22:26:57.125Z</time>
      </trkpt>
      <trkpt lat="47.589888" lon="7.989555">
        <ele>646.939239</ele>
        <time>2021-11-08T22:26:59.587Z</time>
      </trkpt>
      <trkpt lat="47.589802" lon="7.989594">
        <ele>646.520091</ele>
        <time>2021-11-08T22:27:00.493Z</time>
      </trkpt>
      <trkpt lat="47.589745" lon="7.989634">
        <ele>646.226180</ele>
        <time>2021-11-08T22:27:01.073Z</time>
      </trkpt>
      <trkpt lat="47.589661" lon="7.989741">
        <ele>645.710047</ele>
        <time>2021-11-08T22:27:02.019Z</time>
      </trkpt>
      <trkpt lat="47.589516" lon="7.989967">
        <ele>644.729553</ele>
        <time>2021-11-08T22:27:04.442Z</time>
      </trkpt>
      <trkpt lat="47.589334" lon="7.990467">
        <ele>642.943584</ele>
        <time>2021-11-08T22:27:08.318Z</time>
      </trkpt>
      <trkpt lat="47.589254" lon="7.990683">
        <ele>642.168977</ele>
        <time>2021-11-08T22:27:09.828Z</time>
      </trkpt>
      <trkpt lat="47.589147" lon="7.990836">
        <ele>641.476161</ele>
        <time>2021-11-08T22:27:12.429Z</time>
      </trkpt>
      <trkpt lat="47.588977" lon="7.991069">
        <ele>640.844236</ele>
        <time>2021-11-08T22:27:14.868Z</time>
      </trkpt>
      <trkpt lat="47.588784" lon="7.991274">
        <ele>640.317007</ele>
        <time>2021-11-08T22:27:17.742Z</time>
      </trkpt>
      <trkpt lat="47.588182" lon="7.992002">
        <ele>638.591856</ele>
        <time>2021-11-08T22:27:26.221Z</time>
      </trkpt>
      <trkpt lat="47.587950" lon="7.992314">
        <ele>637.896289</ele>
        <time>2021-11-08T22:27:29.853Z</time>
      </trkpt>
      <trkpt lat="47.587918" lon="7.992378">
        <ele>637.776963</ele>
        <time>2021-11-08T22:27:30.415Z</time>
      </trkpt>
      <trkpt lat="47.587615" lon="7.992977">
        <ele>635.912931</ele>
        <time>2021-11-08T22:27:35.933Z</time>
      </trkpt>
      <trkpt lat="47.587069" lon="7.995057">
        <ele>628.441654</ele>
        <time>2021-11-08T22:27:50.027Z</time>
      </trkpt>
      <trkpt lat="47.586778" lon="7.995749">
        <ele>623.469458</ele>
        <time>2021-11-08T22:27:54.882Z</time>
      </trkpt>
      <trkpt lat="47.586622" lon="7.995984">
        <ele>621.420407</ele>
        <time>2021-11-08T22:27:56.773Z</time>
      </trkpt>
      <trkpt lat="47.586511" lon="7.996110">
        <ele>620.132364</ele>
        <time>2021-11-08T22:27:58.033Z</time>
      </trkpt>
      <trkpt lat="47.586511" lon="7.996110">
        <ele>620.132364</ele>
        <time>2021-11-08T22:27:58.070Z</time>
      </trkpt>
      <trkpt lat="47.586377" lon="7.996241">
        <ele>618.653498</ele>
        <time>2021-11-08T22:27:59.455Z</time>
      </trkpt>
      <trkpt lat="47.586010" lon="7.996485">
        <ele>614.947672</ele>
        <time>2021-11-08T22:28:02.918Z</time>
      </trkpt>
      <trkpt lat="47.585324" lon="7.996614">
        <ele>609.140360</ele>
        <time>2021-11-08T22:28:08.836Z</time>
      </trkpt>
      <trkpt lat="47.584188" lon="7.996318">
        <ele>600.396715</ele>
        <time>2021-11-08T22:28:19.126Z</time>
      </trkpt>
      <trkpt lat="47.584002" lon="7.996337">
        <ele>598.983365</ele>
        <time>2021-11-08T22:28:20.887Z</time>
      </trkpt>
      <trkpt lat="47.583554" lon="7.996491">
        <ele>595.928196</ele>
        <time>2021-11-08T22:28:25.225Z</time>
      </trkpt>
      <trkpt lat="47.583357" lon="7.996485">
        <ele>594.679685</ele>
        <time>2021-11-08T22:28:27.123Z</time>
      </trkpt>
      <trkpt lat="47.583085" lon="7.996290">
        <ele>592.765284</ele>
        <time>2021-11-08T22:28:30.017Z</time>
      </trkpt>
      <trkpt lat="47.582889" lon="7.995812">
        <ele>590.374468</ele>
        <time>2021-11-08T22:28:33.422Z</time>
      </trkpt>
      <trkpt lat="47.582884" lon="7.995369">
        <ele>588.480835</ele>
        <time>2021-11-08T22:28:36.086Z</time>
      </trkpt>
      <trkpt lat="47.582924" lon="7.995208">
        <ele>587.747534</ele>
        <time>2021-11-08T22:28:37.063Z</time>
      </trkpt>
      <trkpt lat="47.582956" lon="7.995058">
        <ele>587.075139</ele>
        <time>2021-11-08T22:28:38.054Z</time>
      </trkpt>
      <trkpt lat="47.583068" lon="7.994495">
        <ele>583.777772</ele>
        <time>2021-11-08T22:28:41.591Z</time>
      </trkpt>
      <trkpt lat="47.582994" lon="7.994245">
        <ele>582.184890</ele>
        <time>2021-11-08T22:28:43.267Z</time>
      </trkpt>
      <trkpt lat="47.582981" lon="7.994223">
        <ele>582.014243</ele>
        <time>2021-11-08T22:28:43.439Z</time>
      </trkpt>
      <trkpt lat="47.582850" lon="7.994143">
        <ele>580.788751</ele>
        <time>2021-11-08T22:28:44.737Z</time>
      </trkpt>
      <trkpt lat="47.582600" lon="7.994290">
        <ele>578.462426</ele>
        <time>2021-11-08T22:28:47.060Z</time>
      </trkpt>
      <trkpt lat="47.582354" lon="7.994436">
        <ele>576.170401</ele>
        <time>2021-11-08T22:28:49.435Z</time>
      </trkpt>
      <trkpt lat="47.582041" lon="7.994482">
        <ele>573.449745</ele>
        <time>2021-11-08T22:28:52.130Z</time>
      </trkpt>
      <trkpt lat="47.581631" lon="7.994181">
        <ele>569.994910</ele>
        <time>2021-11-08T22:28:56.036Z</time>
      </trkpt>
      <trkpt lat="47.581061" lon="7.993595">
        <ele>565.794032</ele>
        <time>2021-11-08T22:29:02.338Z</time>
      </trkpt>
      <trkpt lat="47.580922" lon="7.993422">
        <ele>564.694883</ele>
        <time>2021-11-08T22:29:04.005Z</time>
      </trkpt>
      <trkpt lat="47.580746" lon="7.993147">
        <ele>563.146261</ele>
        <time>2021-11-08T22:29:06.499Z</time>
      </trkpt>
      <trkpt lat="47.580618" lon="7.992910">
        <ele>561.905966</ele>
        <time>2021-11-08T22:29:08.516Z</time>
      </trkpt>
      <trkpt lat="47.580510" lon="7.992660">
        <ele>560.693168</ele>
        <time>2021-11-08T22:29:10.431Z</time>
      </trkpt>
      <trkpt lat="47.580342" lon="7.992263">
        <ele>559.512342</ele>
        <time>2021-11-08T22:29:13.600Z</time>
      </trkpt>
      <trkpt lat="47.580109" lon="7.991789">
        <ele>558.290728</ele>
        <time>2021-11-08T22:29:17.617Z</time>
      </trkpt>
      <trkpt lat="47.579903" lon="7.991422">
        <ele>557.296275</ele>
        <time>2021-11-08T22:29:21.094Z</time>
      </trkpt>
      <trkpt lat="47.579818" lon="7.991290">
        <ele>556.916171</ele>
        <time>2021-11-08T22:29:22.512Z</time>
      </trkpt>
      <trkpt lat="47.579721" lon="7.991137">
        <ele>556.478829</ele>
        <time>2021-11-08T22:29:24.171Z</time>
      </trkpt>
      <trkpt lat="47.579682" lon="7.991071">
        <ele>556.296072</ele>
        <time>2021-11-08T22:29:24.745Z</time>
      </trkpt>
      <trkpt lat="47.578053" lon="7.988644">
        <ele>548.277321</ele>
        <time>2021-11-08T22:29:47.705Z</time>
      </trkpt>
      <trkpt lat="47.577884" lon="7.988354">
        <ele>547.379884</ele>
        <time>2021-11-08T22:29:50.233Z</time>
      </trkpt>
      <trkpt lat="47.577758" lon="7.987971">
        <ele>546.382001</ele>
        <time>2021-11-08T22:29:53.093Z</time>
      </trkpt>
      <trkpt lat="47.577713" lon="7.987200">
        <ele>544.569722</ele>
        <time>2021-11-08T22:29:58.284Z</time>
      </trkpt>
      <trkpt lat="47.577714" lon="7.987021">
        <ele>544.150524</ele>
        <time>2021-11-08T22:29:59.445Z</time>
      </trkpt>
      <trkpt lat="47.577678" lon="7.986766">
        <ele>543.540426</ele>
        <time>2021-11-08T22:30:01.168Z</time>
      </trkpt>
      <trkpt lat="47.577559" lon="7.986405">
        <ele>542.599498</ele>
        <time>2021-11-08T22:30:03.862Z</time>
      </trkpt>
      <trkpt lat="47.577468" lon="7.986179">
        <ele>542.003473</ele>
        <time>2021-11-08T22:30:05.717Z</time>
      </trkpt>
      <trkpt lat="47.577428" lon="7.986064">
        <ele>541.814653</ele>
        <time>2021-11-08T22:30:06.618Z</time>
      </trkpt>
      <trkpt lat="47.577254" lon="7.985645">
        <ele>541.096612</ele>
        <time>2021-11-08T22:30:10.228Z</time>
      </trkpt>
      <trkpt lat="47.577191" lon="7.985496">
        <ele>540.839986</ele>
        <time>2021-11-08T22:30:11.519Z</time>
      </trkpt>
      <trkpt lat="47.577153" lon="7.985407">
        <ele>540.686275</ele>
        <time>2021-11-08T22:30:12.273Z</time>
      </trkpt>
      <trkpt lat="47.577089" lon="7.985258">
        <ele>540.428494</ele>
        <time>2021-11-08T22:30:13.633Z</time>
      </trkpt>
      <trkpt lat="47.577038" lon="7.985139">
        <ele>540.222747</ele>
        <time>2021-11-08T22:30:14.631Z</time>
      </trkpt>
      <trkpt lat="47.576862" lon="7.984726">
        <ele>539.509843</ele>
        <time>2021-11-08T22:30:18.284Z</time>
      </trkpt>
      <trkpt lat="47.576773" lon="7.984556">
        <ele>539.195806</ele>
        <time>2021-11-08T22:30:19.865Z</time>
      </trkpt>
      <trkpt lat="47.575900" lon="7.982922">
        <ele>535.693528</ele>
        <time>2021-11-08T22:30:35.573Z</time>
      </trkpt>
      <trkpt lat="47.575437" lon="7.982148">
        <ele>533.834958</ele>
        <time>2021-11-08T22:30:42.914Z</time>
      </trkpt>
      <trkpt lat="47.575361" lon="7.981969">
        <ele>533.454962</ele>
        <time>2021-11-08T22:30:44.287Z</time>
      </trkpt>
      <trkpt lat="47.575313" lon="7.981867">
        <ele>533.091454</ele>
        <time>2021-11-08T22:30:45.128Z</time>
      </trkpt>
      <trkpt lat="47.575256" lon="7.981747">
        <ele>532.530797</ele>
        <time>2021-11-08T22:30:46.114Z</time>
      </trkpt>
      <trkpt lat="47.575220" lon="7.981669">
        <ele>532.169760</ele>
        <time>2021-11-08T22:30:46.671Z</time>
      </trkpt>
      <trkpt lat="47.574964" lon="7.981092">
        <ele>529.531523</ele>
        <time>2021-11-08T22:30:50.933Z</time>
      </trkpt>
      <trkpt lat="47.574694" lon="7.980238">
        <ele>525.928548</ele>
        <time>2021-11-08T22:30:56.733Z</time>
      </trkpt>
      <trkpt lat="47.574304" lon="7.979181">
        <ele>521.836295</ele>
        <time>2021-11-08T22:31:04.199Z</time>
      </trkpt>
      <trkpt lat="47.574202" lon="7.978830">
        <ele>520.780129</ele>
        <time>2021-11-08T22:31:06.639Z</time>
      </trkpt>
      <trkpt lat="47.574194" lon="7.978801">
        <ele>520.693545</ele>
        <time>2021-11-08T22:31:06.838Z</time>
      </trkpt>
      <trkpt lat="47.574095" lon="7.978060">
        <ele>518.605987</ele>
        <time>2021-11-08T22:31:11.659Z</time>
      </trkpt>
      <trkpt lat="47.574121" lon="7.977062">
        <ele>515.845909</ele>
        <time>2021-11-08T22:31:18.536Z</time>
      </trkpt>
      <trkpt lat="47.574193" lon="7.976530">
        <ele>514.950330</ele>
        <time>2021-11-08T22:31:23.857Z</time>
      </trkpt>
      <trkpt lat="47.574262" lon="7.976183">
        <ele>514.365165</ele>
        <time>2021-11-08T22:31:27.127Z</time>
      </trkpt>
      <trkpt lat="47.574460" lon="7.975510">
        <ele>513.177541</ele>
        <time>2021-11-08T22:31:33.620Z</time>
      </trkpt>
      <trkpt lat="47.574555" lon="7.975246">
        <ele>512.693557</ele>
        <time>2021-11-08T22:31:35.546Z</time>
      </trkpt>
      <trkpt lat="47.574711" lon="7.974906">
        <ele>512.028452</ele>
        <time>2021-11-08T22:31:38.363Z</time>
      </trkpt>
      <trkpt lat="47.575001" lon="7.974432">
        <ele>510.189636</ele>
        <time>2021-11-08T22:31:42.339Z</time>
      </trkpt>
      <trkpt lat="47.575056" lon="7.974176">
        <ele>509.051944</ele>
        <time>2021-11-08T22:31:44.141Z</time>
      </trkpt>
      <trkpt lat="47.575036" lon="7.974091">
        <ele>508.670742</ele>
        <time>2021-11-08T22:31:45.473Z</time>
      </trkpt>
      <trkpt lat="47.574997" lon="7.974006">
        <ele>508.235447</ele>
        <time>2021-11-08T22:31:46.049Z</time>
      </trkpt>
      <trkpt lat="47.574853" lon="7.973940">
        <ele>507.289349</ele>
        <time>2021-11-08T22:31:47.482Z</time>
      </trkpt>
      <trkpt lat="47.574406" lon="7.974054">
        <ele>504.442341</ele>
        <time>2021-11-08T22:31:51.725Z</time>
      </trkpt>
      <trkpt lat="47.574133" lon="7.974088">
        <ele>502.722705</ele>
        <time>2021-11-08T22:31:54.168Z</time>
      </trkpt>
      <trkpt lat="47.573741" lon="7.973991">
        <ele>500.228104</ele>
        <time>2021-11-08T22:31:57.687Z</time>
      </trkpt>
      <trkpt lat="47.573101" lon="7.973614">
        <ele>495.207380</ele>
        <time>2021-11-08T22:32:03.659Z</time>
      </trkpt>
      <trkpt lat="47.572323" lon="7.973803">
        <ele>489.454685</ele>
        <time>2021-11-08T22:32:10.775Z</time>
      </trkpt>
      <trkpt lat="47.571917" lon="7.973943">
        <ele>486.516465</ele>
        <time>2021-11-08T22:32:14.668Z</time>
      </trkpt>
      <trkpt lat="47.571191" lon="7.974114">
        <ele>481.989445</ele>
        <time>2021-11-08T22:32:21.371Z</time>
      </trkpt>
      <trkpt lat="47.570873" lon="7.974116">
        <ele>480.031090</ele>
        <time>2021-11-08T22:32:24.236Z</time>
      </trkpt>
      <trkpt lat="47.570736" lon="7.974051">
        <ele>479.145233</ele>
        <time>2021-11-08T22:32:25.695Z</time>
      </trkpt>
      <trkpt lat="47.570601" lon="7.973936">
        <ele>478.186338</ele>
        <time>2021-11-08T22:32:27.043Z</time>
      </trkpt>
      <trkpt lat="47.570511" lon="7.973853">
        <ele>477.533564</ele>
        <time>2021-11-08T22:32:28.039Z</time>
      </trkpt>
      <trkpt lat="47.570441" lon="7.973750">
        <ele>476.926131</ele>
        <time>2021-11-08T22:32:29.100Z</time>
      </trkpt>
      <trkpt lat="47.570343" lon="7.973473">
        <ele>475.641145</ele>
        <time>2021-11-08T22:32:30.957Z</time>
      </trkpt>
      <trkpt lat="47.570047" lon="7.972099">
        <ele>469.882456</ele>
        <time>2021-11-08T22:32:40.013Z</time>
      </trkpt>
      <trkpt lat="47.569990" lon="7.971563">
        <ele>467.715999</ele>
        <time>2021-11-08T22:32:43.404Z</time>
      </trkpt>
      <trkpt lat="47.570085" lon="7.971101">
        <ele>465.787648</ele>
        <time>2021-11-08T22:32:46.297Z</time>
      </trkpt>
      <trkpt lat="47.570370" lon="7.970636">
        <ele>463.546752</ele>
        <time>2021-11-08T22:32:50.204Z</time>
      </trkpt>
      <trkpt lat="47.570627" lon="7.970391">
        <ele>461.971347</ele>
        <time>2021-11-08T22:32:53.014Z</time>
      </trkpt>
      <trkpt lat="47.570725" lon="7.969975">
        <ele>460.438653</ele>
        <time>2021-11-08T22:32:55.771Z</time>
      </trkpt>
      <trkpt lat="47.570731" lon="7.969690">
        <ele>459.446822</ele>
        <time>2021-11-08T22:32:57.683Z</time>
      </trkpt>
      <trkpt lat="47.570716" lon="7.969667">
        <ele>459.335551</ele>
        <time>2021-11-08T22:32:57.860Z</time>
      </trkpt>
      <trkpt lat="47.570480" lon="7.968735">
        <ele>455.929457</ele>
        <time>2021-11-08T22:33:04.486Z</time>
      </trkpt>
      <trkpt lat="47.570550" lon="7.966846">
        <ele>451.127793</ele>
        <time>2021-11-08T22:33:17.289Z</time>
      </trkpt>
      <trkpt lat="47.570481" lon="7.965950">
        <ele>448.409912</ele>
        <time>2021-11-08T22:33:23.352Z</time>
      </trkpt>
      <trkpt lat="47.570328" lon="7.965210">
        <ele>444.678924</ele>
        <time>2021-11-08T22:33:28.183Z</time>
      </trkpt>
      <trkpt lat="47.570254" lon="7.964874">
        <ele>442.975087</ele>
        <time>2021-11-08T22:33:30.357Z</time>
      </trkpt>
      <trkpt lat="47.570155" lon="7.964560">
        <ele>441.304292</ele>
        <time>2021-11-08T22:33:32.417Z</time>
      </trkpt>
      <trkpt lat="47.570105" lon="7.964426">
        <ele>440.566121</ele>
        <time>2021-11-08T22:33:33.372Z</time>
      </trkpt>
      <trkpt lat="47.570063" lon="7.964314">
        <ele>439.948419</ele>
        <time>2021-11-08T22:33:34.100Z</time>
      </trkpt>
      <trkpt lat="47.569716" lon="7.963517">
        <ele>435.129605</ele>
        <time>2021-11-08T22:33:39.685Z</time>
      </trkpt>
      <trkpt lat="47.569673" lon="7.963432">
        <ele>434.501632</ele>
        <time>2021-11-08T22:33:40.282Z</time>
      </trkpt>
      <trkpt lat="47.569518" lon="7.963128">
        <ele>432.249318</ele>
        <time>2021-11-08T22:33:42.508Z</time>
      </trkpt>
      <trkpt lat="47.569137" lon="7.962553">
        <ele>427.485559</ele>
        <time>2021-11-08T22:33:47.157Z</time>
      </trkpt>
      <trkpt lat="47.568755" lon="7.962005">
        <ele>422.828015</ele>
        <time>2021-11-08T22:33:51.870Z</time>
      </trkpt>
      <trkpt lat="47.568612" lon="7.961724">
        <ele>420.747524</ele>
        <time>2021-11-08T22:33:53.986Z</time>
      </trkpt>
      <trkpt lat="47.568453" lon="7.961186">
        <ele>418.693125</ele>
        <time>2021-11-08T22:33:57.707Z</time>
      </trkpt>
      <trkpt lat="47.568429" lon="7.960657">
        <ele>416.853762</ele>
        <time>2021-11-08T22:34:01.127Z</time>
      </trkpt>
      <trkpt lat="47.568473" lon="7.960157">
        <ele>415.104459</ele>
        <time>2021-11-08T22:34:04.357Z</time>
      </trkpt>
      <trkpt lat="47.568528" lon="7.959653">
        <ele>413.333251</ele>
        <time>2021-11-08T22:34:07.591Z</time>
      </trkpt>
      <trkpt lat="47.568564" lon="7.959390">
        <ele>412.402259</ele>
        <time>2021-11-08T22:34:09.371Z</time>
      </trkpt>
      <trkpt lat="47.568620" lon="7.958768">
        <ele>409.875953</ele>
        <time>2021-11-08T22:34:13.420Z</time>
      </trkpt>
      <trkpt lat="47.568617" lon="7.958466">
        <ele>408.531370</ele>
        <time>2021-11-08T22:34:15.337Z</time>
      </trkpt>
      <trkpt lat="47.568534" lon="7.958185">
        <ele>407.165797</ele>
        <time>2021-11-08T22:34:17.330Z</time>
      </trkpt>
      <trkpt lat="47.568454" lon="7.958052">
        <ele>406.372581</ele>
        <time>2021-11-08T22:34:18.430Z</time>
      </trkpt>
      <trkpt lat="47.568255" lon="7.957713">
        <ele>404.372184</ele>
        <time>2021-11-08T22:34:21.254Z</time>
      </trkpt>
      <trkpt lat="47.568026" lon="7.957127">
        <ele>401.357441</ele>
        <time>2021-11-08T22:34:25.280Z</time>
      </trkpt>
      <trkpt lat="47.568009" lon="7.957030">
        <ele>400.911284</ele>
        <time>2021-11-08T22:34:25.846Z</time>
      </trkpt>
      <trkpt lat="47.567876" lon="7.956292">
        <ele>396.850240</ele>
        <time>2021-11-08T22:34:30.367Z</time>
      </trkpt>
      <trkpt lat="47.567697" lon="7.955901">
        <ele>394.078960</ele>
        <time>2021-11-08T22:34:33.084Z</time>
      </trkpt>
      <trkpt lat="47.567635" lon="7.955827">
        <ele>393.386987</ele>
        <time>2021-11-08T22:34:33.785Z</time>
      </trkpt>
      <trkpt lat="47.567555" lon="7.955776">
        <ele>392.629976</ele>
        <time>2021-11-08T22:34:34.569Z</time>
      </trkpt>
      <trkpt lat="47.567555" lon="7.955776">
        <ele>392.629976</ele>
        <time>2021-11-08T22:34:34.572Z</time>
      </trkpt>
      <trkpt lat="47.567506" lon="7.955755">
        <ele>392.186588</ele>
        <time>2021-11-08T22:34:34.985Z</time>
      </trkpt>
      <trkpt lat="47.567397" lon="7.955717">
        <ele>391.213234</ele>
        <time>2021-11-08T22:34:36.005Z</time>
      </trkpt>
      <trkpt lat="47.566963" lon="7.955772">
        <ele>387.426877</ele>
        <time>2021-11-08T22:34:39.865Z</time>
      </trkpt>
      <trkpt lat="47.566562" lon="7.955847">
        <ele>383.930075</ele>
        <time>2021-11-08T22:34:43.441Z</time>
      </trkpt>
      <trkpt lat="47.566505" lon="7.955859">
        <ele>383.624079</ele>
        <time>2021-11-08T22:34:43.967Z</time>
      </trkpt>
      <trkpt lat="47.566355" lon="7.955842">
        <ele>382.824505</ele>
        <time>2021-11-08T22:34:45.257Z</time>
      </trkpt>
      <trkpt lat="47.566072" lon="7.955622">
        <ele>381.126004</ele>
        <time>2021-11-08T22:34:48.084Z</time>
      </trkpt>
      <trkpt lat="47.565971" lon="7.955460">
        <ele>380.334996</ele>
        <time>2021-11-08T22:34:49.493Z</time>
      </trkpt>
      <trkpt lat="47.565929" lon="7.955254">
        <ele>379.563242</ele>
        <time>2021-11-08T22:34:50.837Z</time>
      </trkpt>
      <trkpt lat="47.565870" lon="7.954749">
        <ele>377.725243</ele>
        <time>2021-11-08T22:34:54.099Z</time>
      </trkpt>
      <trkpt lat="47.565868" lon="7.952957">
        <ele>371.413102</ele>
        <time>2021-11-08T22:35:06.522Z</time>
      </trkpt>
      <trkpt lat="47.565742" lon="7.952404">
        <ele>369.397200</ele>
        <time>2021-11-08T22:35:10.385Z</time>
      </trkpt>
      <trkpt lat="47.565595" lon="7.952077">
        <ele>368.040107</ele>
        <time>2021-11-08T22:35:12.888Z</time>
      </trkpt>
      <trkpt lat="47.565562" lon="7.952029">
        <ele>367.803429</ele>
        <time>2021-11-08T22:35:13.312Z</time>
      </trkpt>
      <trkpt lat="47.565535" lon="7.951987">
        <ele>367.603072</ele>
        <time>2021-11-08T22:35:13.650Z</time>
      </trkpt>
      <trkpt lat="47.565408" lon="7.951808">
        <ele>366.705963</ele>
        <time>2021-11-08T22:35:15.245Z</time>
      </trkpt>
      <trkpt lat="47.565271" lon="7.951640">
        <ele>365.795774</ele>
        <time>2021-11-08T22:35:16.817Z</time>
      </trkpt>
      <trkpt lat="47.565233" lon="7.951606">
        <ele>365.568565</ele>
        <time>2021-11-08T22:35:17.200Z</time>
      </trkpt>
      <trkpt lat="47.565142" lon="7.951534">
        <ele>364.909474</ele>
        <time>2021-11-08T22:35:18.127Z</time>
      </trkpt>
      <trkpt lat="47.565101" lon="7.951517">
        <ele>364.500109</ele>
        <time>2021-11-08T22:35:18.496Z</time>
      </trkpt>
      <trkpt lat="47.564987" lon="7.951465">
        <ele>363.353220</ele>
        <time>2021-11-08T22:35:19.551Z</time>
      </trkpt>
      <trkpt lat="47.564916" lon="7.951435">
        <ele>362.643329</ele>
        <time>2021-11-08T22:35:20.178Z</time>
      </trkpt>
      <trkpt lat="47.564611" lon="7.951358">
        <ele>359.668415</ele>
        <time>2021-11-08T22:35:22.895Z</time>
      </trkpt>
      <trkpt lat="47.564462" lon="7.951378">
        <ele>358.229870</ele>
        <time>2021-11-08T22:35:24.150Z</time>
      </trkpt>
      <trkpt lat="47.564352" lon="7.951413">
        <ele>357.148084</ele>
        <time>2021-11-08T22:35:25.127Z</time>
      </trkpt>
      <trkpt lat="47.564041" lon="7.951533">
        <ele>354.058033</ele>
        <time>2021-11-08T22:35:27.873Z</time>
      </trkpt>
      <trkpt lat="47.563996" lon="7.951547">
        <ele>353.615913</ele>
        <time>2021-11-08T22:35:28.268Z</time>
      </trkpt>
      <trkpt lat="47.563940" lon="7.951569">
        <ele>353.058858</ele>
        <time>2021-11-08T22:35:28.796Z</time>
      </trkpt>
      <trkpt lat="47.563504" lon="7.951763">
        <ele>348.681706</ele>
        <time>2021-11-08T22:35:32.682Z</time>
      </trkpt>
      <trkpt lat="47.563195" lon="7.951799">
        <ele>345.925434</ele>
        <time>2021-11-08T22:35:35.398Z</time>
      </trkpt>
      <trkpt lat="47.563084" lon="7.951741">
        <ele>344.909300</ele>
        <time>2021-11-08T22:35:36.382Z</time>
      </trkpt>
      <trkpt lat="47.562980" lon="7.951601">
        <ele>343.696298</ele>
        <time>2021-11-08T22:35:37.593Z</time>
      </trkpt>
      <trkpt lat="47.562736" lon="7.951001">
        <ele>339.615189</ele>
        <time>2021-11-08T22:35:41.753Z</time>
      </trkpt>
      <trkpt lat="47.562663" lon="7.950848">
        <ele>338.523550</ele>
        <time>2021-11-08T22:35:42.846Z</time>
      </trkpt>
      <trkpt lat="47.562589" lon="7.950738">
        <ele>337.618664</ele>
        <time>2021-11-08T22:35:43.777Z</time>
      </trkpt>
      <trkpt lat="47.562411" lon="7.950637">
        <ele>335.973119</ele>
        <time>2021-11-08T22:35:45.437Z</time>
      </trkpt>
      <trkpt lat="47.562128" lon="7.950654">
        <ele>333.527851</ele>
        <time>2021-11-08T22:35:48.010Z</time>
      </trkpt>
      <trkpt lat="47.561985" lon="7.950699">
        <ele>332.288578</ele>
        <time>2021-11-08T22:35:49.272Z</time>
      </trkpt>
      <trkpt lat="47.561884" lon="7.950731">
        <ele>331.598446</ele>
        <time>2021-11-08T22:35:50.220Z</time>
      </trkpt>
      <trkpt lat="47.561545" lon="7.950855">
        <ele>329.265269</ele>
        <time>2021-11-08T22:35:53.403Z</time>
      </trkpt>
      <trkpt lat="47.561191" lon="7.950783">
        <ele>326.877669</ele>
        <time>2021-11-08T22:35:56.628Z</time>
      </trkpt>
      <trkpt lat="47.561103" lon="7.950738">
        <ele>326.255630</ele>
        <time>2021-11-08T22:35:57.464Z</time>
      </trkpt>
      <trkpt lat="47.561003" lon="7.950686">
        <ele>325.547487</ele>
        <time>2021-11-08T22:35:58.395Z</time>
      </trkpt>
      <trkpt lat="47.560901" lon="7.950634">
        <ele>324.826721</ele>
        <time>2021-11-08T22:35:59.404Z</time>
      </trkpt>
      <trkpt lat="47.560627" lon="7.950285">
        <ele>322.412496</ele>
        <time>2021-11-08T22:36:02.658Z</time>
      </trkpt>
      <trkpt lat="47.560390" lon="7.949772">
        <ele>319.734932</ele>
        <time>2021-11-08T22:36:06.505Z</time>
      </trkpt>
      <trkpt lat="47.559708" lon="7.947739">
        <ele>311.239526</ele>
        <time>2021-11-08T22:36:20.756Z</time>
      </trkpt>
      <trkpt lat="47.559497" lon="7.947113">
        <ele>308.983588</ele>
        <time>2021-11-08T22:36:25.168Z</time>
      </trkpt>
      <trkpt lat="47.559335" lon="7.946657">
        <ele>307.453829</ele>
        <time>2021-11-08T22:36:28.480Z</time>
      </trkpt>
      <trkpt lat="47.559262" lon="7.946497">
        <ele>306.880499</ele>
        <time>2021-11-08T22:36:29.730Z</time>
      </trkpt>
      <trkpt lat="47.559192" lon="7.946365">
        <ele>306.382143</ele>
        <time>2021-11-08T22:36:30.883Z</time>
      </trkpt>
      <trkpt lat="47.559181" lon="7.946345">
        <ele>306.305552</ele>
        <time>2021-11-08T22:36:31.024Z</time>
      </trkpt>
      <trkpt lat="47.559072" lon="7.946208">
        <ele>305.676825</ele>
        <time>2021-11-08T22:36:32.377Z</time>
      </trkpt>
      <trkpt lat="47.558869" lon="7.945954">
        <ele>304.508092</ele>
        <time>2021-11-08T22:36:35.002Z</time>
      </trkpt>
      <trkpt lat="47.558804" lon="7.945896">
        <ele>304.174326</ele>
        <time>2021-11-08T22:36:35.697Z</time>
      </trkpt>
      <trkpt lat="47.558745" lon="7.945856">
        <ele>303.888916</ele>
        <time>2021-11-08T22:36:36.347Z</time>
      </trkpt>
      <trkpt lat="47.558700" lon="7.945825">
        <ele>303.670620</ele>
        <time>2021-11-08T22:36:36.866Z</time>
      </trkpt>
      <trkpt lat="47.558608" lon="7.945765">
        <ele>303.228459</ele>
        <time>2021-11-08T22:36:37.919Z</time>
      </trkpt>
      <trkpt lat="47.558540" lon="7.945722">
        <ele>302.903235</ele>
        <time>2021-11-08T22:36:38.612Z</time>
      </trkpt>
      <trkpt lat="47.558415" lon="7.945666">
        <ele>302.404730</ele>
        <time>2021-11-08T22:36:39.866Z</time>
      </trkpt>
      <trkpt lat="47.558161" lon="7.945614">
        <ele>301.916857</ele>
        <time>2021-11-08T22:36:42.502Z</time>
      </trkpt>
      <trkpt lat="47.558102" lon="7.945615">
        <ele>301.804592</ele>
        <time>2021-11-08T22:36:43.064Z</time>
      </trkpt>
      <trkpt lat="47.558009" lon="7.945617">
        <ele>301.627623</ele>
        <time>2021-11-08T22:36:44.075Z</time>
      </trkpt>
      <trkpt lat="47.557910" lon="7.945625">
        <ele>301.438977</ele>
        <time>2021-11-08T22:36:45.210Z</time>
      </trkpt>
      <trkpt lat="47.557744" lon="7.945674">
        <ele>301.116925</ele>
        <time>2021-11-08T22:36:46.875Z</time>
      </trkpt>
      <trkpt lat="47.557613" lon="7.945697">
        <ele>300.865930</ele>
        <time>2021-11-08T22:36:48.474Z</time>
      </trkpt>
      <trkpt lat="47.557529" lon="7.945747">
        <ele>300.693691</ele>
        <time>2021-11-08T22:36:49.632Z</time>
      </trkpt>
      <trkpt lat="47.557394" lon="7.945716">
        <ele>300.433763</ele>
        <time>2021-11-08T22:36:51.080Z</time>
      </trkpt>
      <trkpt lat="47.557268" lon="7.945688">
        <ele>300.191343</ele>
        <time>2021-11-08T22:36:52.695Z</time>
      </trkpt>
      <trkpt lat="47.557196" lon="7.945663">
        <ele>300.050639</ele>
        <time>2021-11-08T22:36:53.701Z</time>
      </trkpt>
      <trkpt lat="47.557110" lon="7.945492">
        <ele>299.776803</ele>
        <time>2021-11-08T22:36:55.544Z</time>
      </trkpt>
      <trkpt lat="47.556999" lon="7.945268">
        <ele>299.419966</ele>
        <time>2021-11-08T22:36:57.962Z</time>
      </trkpt>
      <trkpt lat="47.556919" lon="7.945110">
        <ele>299.166334</ele>
        <time>2021-11-08T22:36:59.732Z</time>
      </trkpt>
      <trkpt lat="47.556830" lon="7.944931">
        <ele>299.017559</ele>
        <time>2021-11-08T22:37:01.559Z</time>
      </trkpt>
      <trkpt lat="47.556650" lon="7.944566">
        <ele>298.934592</ele>
        <time>2021-11-08T22:37:05.492Z</time>
      </trkpt>
      <trkpt lat="47.556439" lon="7.944137">
        <ele>298.837167</ele>
        <time>2021-11-08T22:37:10.301Z</time>
      </trkpt>
      <trkpt lat="47.556345" lon="7.943946">
        <ele>298.793782</ele>
        <time>2021-11-08T22:37:12.470Z</time>
      </trkpt>
      <trkpt lat="47.556302" lon="7.943858">
        <ele>298.773842</ele>
        <time>2021-11-08T22:37:13.517Z</time>
      </trkpt>
      <trkpt lat="47.556288" lon="7.943830">
        <ele>298.767447</ele>
        <time>2021-11-08T22:37:13.871Z</time>
      </trkpt>
      <trkpt lat="47.556069" lon="7.943386">
        <ele>298.666515</ele>
        <time>2021-11-08T22:37:19.432Z</time>
      </trkpt>
      <trkpt lat="47.555911" lon="7.943042">
        <ele>298.590146</ele>
        <time>2021-11-08T22:37:23.834Z</time>
      </trkpt>
      <trkpt lat="47.555828" lon="7.942869">
        <ele>298.551182</ele>
        <time>2021-11-08T22:37:26.159Z</time>
      </trkpt>
      <trkpt lat="47.555765" lon="7.942732">
        <ele>298.511881</ele>
        <time>2021-11-08T22:37:27.871Z</time>
      </trkpt>
      <trkpt lat="47.555711" lon="7.942617">
        <ele>298.478669</ele>
        <time>2021-11-08T22:37:29.261Z</time>
      </trkpt>
      <trkpt lat="47.555633" lon="7.942436">
        <ele>298.427758</ele>
        <time>2021-11-08T22:37:31.383Z</time>
      </trkpt>
      <trkpt lat="47.555530" lon="7.942195">
        <ele>298.360133</ele>
        <time>2021-11-08T22:37:33.946Z</time>
      </trkpt>
      <trkpt lat="47.555494" lon="7.942104">
        <ele>298.335127</ele>
        <time>2021-11-08T22:37:34.893Z</time>
      </trkpt>
      <trkpt lat="47.555456" lon="7.942017">
        <ele>298.310559</ele>
        <time>2021-11-08T22:37:35.823Z</time>
      </trkpt>
      <trkpt lat="47.555313" lon="7.941663">
        <ele>298.212754</ele>
        <time>2021-11-08T22:37:39.327Z</time>
      </trkpt>
      <trkpt lat="47.555223" lon="7.941452">
        <ele>298.153579</ele>
        <time>2021-11-08T22:37:41.570Z</time>
      </trkpt>
      <trkpt lat="47.554981" lon="7.940858">
        <ele>297.989093</ele>
        <time>2021-11-08T22:37:47.863Z</time>
      </trkpt>
      <trkpt lat="47.554831" lon="7.940510">
        <ele>297.868636</ele>
        <time>2021-11-08T22:37:51.738Z</time>
      </trkpt>
      <trkpt lat="47.554786" lon="7.940407">
        <ele>297.816273</ele>
        <time>2021-11-08T22:37:52.814Z</time>
      </trkpt>
      <trkpt lat="47.554653" lon="7.940102">
        <ele>297.661305</ele>
        <time>2021-11-08T22:37:56.098Z</time>
      </trkpt>
      <trkpt lat="47.554446" lon="7.939644">
        <ele>297.426066</ele>
        <time>2021-11-08T22:38:00.907Z</time>
      </trkpt>
      <trkpt lat="47.554246" lon="7.939196">
        <ele>297.196833</ele>
        <time>2021-11-08T22:38:05.462Z</time>
      </trkpt>
      <trkpt lat="47.554109" lon="7.938885">
        <ele>297.038338</ele>
        <time>2021-11-08T22:38:08.604Z</time>
      </trkpt>
      <trkpt lat="47.553978" lon="7.938519">
        <ele>296.861535</ele>
        <time>2021-11-08T22:38:12.113Z</time>
      </trkpt>
      <trkpt lat="47.553909" lon="7.938319">
        <ele>296.774623</ele>
        <time>2021-11-08T22:38:14.047Z</time>
      </trkpt>
      <trkpt lat="47.553848" lon="7.938105">
        <ele>296.729682</ele>
        <time>2021-11-08T22:38:16.160Z</time>
      </trkpt>
      <trkpt lat="47.553805" lon="7.937948">
        <ele>296.696904</ele>
        <time>2021-11-08T22:38:17.699Z</time>
      </trkpt>
      <trkpt lat="47.553775" lon="7.937797">
        <ele>296.666452</ele>
        <time>2021-11-08T22:38:19.087Z</time>
      </trkpt>
      <trkpt lat="47.553769" lon="7.937764">
        <ele>296.659841</ele>
        <time>2021-11-08T22:38:19.402Z</time>
      </trkpt>
      <trkpt lat="47.553744" lon="7.937573">
        <ele>296.622202</ele>
        <time>2021-11-08T22:38:21.256Z</time>
      </trkpt>
      <trkpt lat="47.553727" lon="7.937367">
        <ele>296.582053</ele>
        <time>2021-11-08T22:38:23.164Z</time>
      </trkpt>
      <trkpt lat="47.553724" lon="7.937134">
        <ele>296.536969</ele>
        <time>2021-11-08T22:38:25.333Z</time>
      </trkpt>
      <trkpt lat="47.553732" lon="7.936945">
        <ele>296.500333</ele>
        <time>2021-11-08T22:38:27.125Z</time>
      </trkpt>
      <trkpt lat="47.553754" lon="7.936703">
        <ele>296.453094</ele>
        <time>2021-11-08T22:38:29.363Z</time>
      </trkpt>
      <trkpt lat="47.553763" lon="7.936585">
        <ele>296.430120</ele>
        <time>2021-11-08T22:38:30.493Z</time>
      </trkpt>
      <trkpt lat="47.553712" lon="7.936520">
        <ele>296.410837</ele>
        <time>2021-11-08T22:38:31.450Z</time>
      </trkpt>
      <trkpt lat="47.553680" lon="7.936493">
        <ele>296.400282</ele>
        <time>2021-11-08T22:38:31.973Z</time>
      </trkpt>
      <trkpt lat="47.553579" lon="7.936483">
        <ele>296.371266</ele>
        <time>2021-11-08T22:38:33.374Z</time>
      </trkpt>
      <trkpt lat="47.553468" lon="7.936486">
        <ele>296.339443</ele>
        <time>2021-11-08T22:38:34.964Z</time>
      </trkpt>
      <trkpt lat="47.553364" lon="7.936511">
        <ele>296.309241</ele>
        <time>2021-11-08T22:38:36.520Z</time>
      </trkpt>
      <trkpt lat="47.553216" lon="7.936481">
        <ele>296.266392</ele>
        <time>2021-11-08T22:38:38.828Z</time>
      </trkpt>
      <trkpt lat="47.553130" lon="7.936464">
        <ele>296.224411</ele>
        <time>2021-11-08T22:38:40.205Z</time>
      </trkpt>
      <trkpt lat="47.553015" lon="7.936441">
        <ele>296.168261</ele>
        <time>2021-11-08T22:38:42.111Z</time>
      </trkpt>
      <trkpt lat="47.552921" lon="7.936425">
        <ele>296.122478</ele>
        <time>2021-11-08T22:38:43.740Z</time>
      </trkpt>
      <trkpt lat="47.552791" lon="7.936403">
        <ele>296.059166</ele>
        <time>2021-11-08T22:38:45.579Z</time>
      </trkpt>
      <trkpt lat="47.552493" lon="7.936374">
        <ele>295.914662</ele>
        <time>2021-11-08T22:38:50.086Z</time>
      </trkpt>
      <trkpt lat="47.552311" lon="7.936357">
        <ele>295.826423</ele>
        <time>2021-11-08T22:38:52.633Z</time>
      </trkpt>
      <trkpt lat="47.551926" lon="7.936360">
        <ele>295.640130</ele>
        <time>2021-11-08T22:38:57.986Z</time>
      </trkpt>
      <trkpt lat="47.551730" lon="7.936373">
        <ele>295.545197</ele>
        <time>2021-11-08T22:39:00.586Z</time>
      </trkpt>
      <trkpt lat="47.551599" lon="7.936386">
        <ele>295.481668</ele>
        <time>2021-11-08T22:39:02.275Z</time>
      </trkpt>
      <trkpt lat="47.551477" lon="7.936401">
        <ele>295.422433</ele>
        <time>2021-11-08T22:39:03.634Z</time>
      </trkpt>
      <trkpt lat="47.551303" lon="7.936435">
        <ele>295.075484</ele>
        <time>2021-11-08T22:39:05.562Z</time>
      </trkpt>
      <trkpt lat="47.550882" lon="7.936591">
        <ele>293.927309</ele>
        <time>2021-11-08T22:39:10.257Z</time>
      </trkpt>
      <trkpt lat="47.550607" lon="7.936694">
        <ele>293.176834</ele>
        <time>2021-11-08T22:39:13.203Z</time>
      </trkpt>
      <trkpt lat="47.550221" lon="7.936962">
        <ele>292.048994</ele>
        <time>2021-11-08T22:39:17.620Z</time>
      </trkpt>
      <trkpt lat="47.550098" lon="7.937070">
        <ele>291.670709</ele>
        <time>2021-11-08T22:39:19.008Z</time>
      </trkpt>
      <trkpt lat="47.549970" lon="7.937189">
        <ele>291.270900</ele>
        <time>2021-11-08T22:39:20.533Z</time>
      </trkpt>
      <trkpt lat="47.549714" lon="7.937478">
        <ele>290.427421</ele>
        <time>2021-11-08T22:39:23.769Z</time>
      </trkpt>
      <trkpt lat="47.549404" lon="7.937916">
        <ele>289.335920</ele>
        <time>2021-11-08T22:39:28.127Z</time>
      </trkpt>
      <trkpt lat="47.549168" lon="7.938309">
        <ele>288.431241</ele>
        <time>2021-11-08T22:39:31.725Z</time>
      </trkpt>
      <trkpt lat="47.549055" lon="7.938483">
        <ele>288.015963</ele>
        <time>2021-11-08T22:39:33.341Z</time>
      </trkpt>
      <trkpt lat="47.548679" lon="7.939412">
        <ele>286.152992</ele>
        <time>2021-11-08T22:39:41.437Z</time>
      </trkpt>
      <trkpt lat="47.548592" lon="7.939666">
        <ele>286.015937</ele>
        <time>2021-11-08T22:39:43.816Z</time>
      </trkpt>
      <trkpt lat="47.548585" lon="7.939688">
        <ele>286.011834</ele>
        <time>2021-11-08T22:39:44.021Z</time>
      </trkpt>
      <trkpt lat="47.548563" lon="7.939753">
        <ele>285.999568</ele>
        <time>2021-11-08T22:39:44.621Z</time>
      </trkpt>
      <trkpt lat="47.548509" lon="7.939765">
        <ele>285.985921</ele>
        <time>2021-11-08T22:39:45.249Z</time>
      </trkpt>
      <trkpt lat="47.548479" lon="7.939789">
        <ele>285.977400</ele>
        <time>2021-11-08T22:39:45.648Z</time>
      </trkpt>
      <trkpt lat="47.548455" lon="7.939823">
        <ele>285.969101</ele>
        <time>2021-11-08T22:39:46.059Z</time>
      </trkpt>
      <trkpt lat="47.548437" lon="7.939866">
        <ele>285.960566</ele>
        <time>2021-11-08T22:39:46.478Z</time>
      </trkpt>
      <trkpt lat="47.548426" lon="7.939924">
        <ele>285.950403</ele>
        <time>2021-11-08T22:39:46.994Z</time>
      </trkpt>
      <trkpt lat="47.548427" lon="7.939957">
        <ele>285.944831</ele>
        <time>2021-11-08T22:39:47.307Z</time>
      </trkpt>
      <trkpt lat="47.548446" lon="7.940038">
        <ele>285.930366</ele>
        <time>2021-11-08T22:39:48.053Z</time>
      </trkpt>
      <trkpt lat="47.548468" lon="7.940081">
        <ele>285.921264</ele>
        <time>2021-11-08T22:39:48.561Z</time>
      </trkpt>
      <trkpt lat="47.548420" lon="7.940256">
        <ele>285.889399</ele>
        <time>2021-11-08T22:39:50.212Z</time>
      </trkpt>
      <trkpt lat="47.548303" lon="7.940599">
        <ele>285.824570</ele>
        <time>2021-11-08T22:39:54.139Z</time>
      </trkpt>
      <trkpt lat="47.548195" lon="7.940950">
        <ele>285.759498</ele>
        <time>2021-11-08T22:39:58.126Z</time>
      </trkpt>
      <trkpt lat="47.547852" lon="7.942144">
        <ele>285.728124</ele>
        <time>2021-11-08T22:40:12.578Z</time>
      </trkpt>
      <trkpt lat="47.547772" lon="7.942416">
        <ele>285.824298</ele>
        <time>2021-11-08T22:40:16.195Z</time>
      </trkpt>
      <trkpt lat="47.547436" lon="7.943731">
        <ele>286.280068</ele>
        <time>2021-11-08T22:40:32.426Z</time>
      </trkpt>
      <trkpt lat="47.547297" lon="7.944159">
        <ele>286.434026</ele>
        <time>2021-11-08T22:40:37.739Z</time>
      </trkpt>
      <trkpt lat="47.547246" lon="7.944330">
        <ele>286.496609</ele>
        <time>2021-11-08T22:40:39.921Z</time>
      </trkpt>
      <trkpt lat="47.547178" lon="7.944456">
        <ele>286.552881</ele>
        <time>2021-11-08T22:40:41.704Z</time>
      </trkpt>
      <trkpt lat="47.547134" lon="7.944545">
        <ele>286.591362</ele>
        <time>2021-11-08T22:40:42.772Z</time>
      </trkpt>
      <trkpt lat="47.546764" lon="7.945239">
        <ele>286.899847</ele>
        <time>2021-11-08T22:40:51.633Z</time>
      </trkpt>
      <trkpt lat="47.546516" lon="7.946289">
        <ele>287.287884</ele>
        <time>2021-11-08T22:41:03.604Z</time>
      </trkpt>
      <trkpt lat="47.546519" lon="7.946567">
        <ele>287.384868</ele>
        <time>2021-11-08T22:41:07.135Z</time>
      </trkpt>
      <trkpt lat="47.546565" lon="7.946721">
        <ele>287.677809</ele>
        <time>2021-11-08T22:41:09.647Z</time>
      </trkpt>
      <trkpt lat="47.546592" lon="7.946809">
        <ele>287.884847</ele>
        <time>2021-11-08T22:41:11.024Z</time>
      </trkpt>
      <trkpt lat="47.546633" lon="7.946946">
        <ele>288.205823</ele>
        <time>2021-11-08T22:41:13.277Z</time>
      </trkpt>
      <trkpt lat="47.546648" lon="7.947009">
        <ele>288.348906</ele>
        <time>2021-11-08T22:41:14.243Z</time>
      </trkpt>
      <trkpt lat="47.546651" lon="7.947115">
        <ele>288.576139</ele>
        <time>2021-11-08T22:41:16.031Z</time>
      </trkpt>
      <trkpt lat="47.546572" lon="7.947545">
        <ele>289.530626</ele>
        <time>2021-11-08T22:41:23.446Z</time>
      </trkpt>
      <trkpt lat="47.546159" lon="7.949303">
        <ele>293.492726</ele>
        <time>2021-11-08T22:42:02.212Z</time>
      </trkpt>
      <trkpt lat="47.545949" lon="7.950185">
        <ele>295.375515</ele>
        <time>2021-11-08T22:42:22.484Z</time>
      </trkpt>
      <trkpt lat="47.545884" lon="7.950363">
        <ele>295.782927</ele>
        <time>2021-11-08T22:42:26.417Z</time>
      </trkpt>
      <trkpt lat="47.545822" lon="7.950627">
        <ele>296.345639</ele>
        <time>2021-11-08T22:42:31.719Z</time>
      </trkpt>
      <trkpt lat="47.545810" lon="7.950694">
        <ele>296.485186</ele>
        <time>2021-11-08T22:42:32.950Z</time>
      </trkpt>
      <trkpt lat="47.545763" lon="7.950733">
        <ele>296.645849</ele>
        <time>2021-11-08T22:42:34.458Z</time>
      </trkpt>
      <trkpt lat="47.545659" lon="7.950771">
        <ele>296.965313</ele>
        <time>2021-11-08T22:42:36.879Z</time>
      </trkpt>
      <trkpt lat="47.545625" lon="7.950771">
        <ele>297.066715</ele>
        <time>2021-11-08T22:42:37.777Z</time>
      </trkpt>
      <trkpt lat="47.545567" lon="7.950765">
        <ele>297.240115</ele>
        <time>2021-11-08T22:42:39.190Z</time>
      </trkpt>
      <trkpt lat="47.545494" lon="7.950684">
        <ele>297.512126</ele>
        <time>2021-11-08T22:42:41.327Z</time>
      </trkpt>
      <trkpt lat="47.545434" lon="7.950668">
        <ele>297.693946</ele>
        <time>2021-11-08T22:42:42.806Z</time>
      </trkpt>
      <trkpt lat="47.545166" lon="7.950366">
        <ele>298.493276</ele>
        <time>2021-11-08T22:42:49.578Z</time>
      </trkpt>
      <trkpt lat="47.544901" lon="7.950044">
        <ele>298.599062</ele>
        <time>2021-11-08T22:42:55.212Z</time>
      </trkpt>
      <trkpt lat="47.544521" lon="7.949558">
        <ele>298.754012</ele>
        <time>2021-11-08T22:43:01.909Z</time>
      </trkpt>
      <trkpt lat="47.544239" lon="7.949202">
        <ele>298.868369</ele>
        <time>2021-11-08T22:43:06.872Z</time>
      </trkpt>
      <trkpt lat="47.543864" lon="7.948694">
        <ele>299.027496</ele>
        <time>2021-11-08T22:43:14.836Z</time>
      </trkpt>
      <trkpt lat="47.543760" lon="7.948548">
        <ele>299.306849</ele>
        <time>2021-11-08T22:43:17.077Z</time>
      </trkpt>
      <trkpt lat="47.543579" lon="7.948287">
        <ele>299.799327</ele>
        <time>2021-11-08T22:43:22.796Z</time>
      </trkpt>
      <trkpt lat="47.543532" lon="7.948214">
        <ele>299.932097</ele>
        <time>2021-11-08T22:43:23.922Z</time>
      </trkpt>
      <trkpt lat="47.543435" lon="7.948000">
        <ele>300.271352</ele>
        <time>2021-11-08T22:43:26.984Z</time>
      </trkpt>
      <trkpt lat="47.543407" lon="7.947938">
        <ele>300.369530</ele>
        <time>2021-11-08T22:43:28.841Z</time>
      </trkpt>
      <trkpt lat="47.543280" lon="7.947656">
        <ele>300.815694</ele>
        <time>2021-11-08T22:43:33.327Z</time>
      </trkpt>
      <trkpt lat="47.543142" lon="7.947250">
        <ele>301.413959</ele>
        <time>2021-11-08T22:43:40.792Z</time>
      </trkpt>
      <trkpt lat="47.543086" lon="7.947052">
        <ele>301.696501</ele>
        <time>2021-11-08T22:43:44.220Z</time>
      </trkpt>
      <trkpt lat="47.543056" lon="7.946935">
        <ele>301.861223</ele>
        <time>2021-11-08T22:43:47.063Z</time>
      </trkpt>
      <trkpt lat="47.543045" lon="7.946881">
        <ele>301.935460</ele>
        <time>2021-11-08T22:43:48.219Z</time>
      </trkpt>
      <trkpt lat="47.542982" lon="7.946547">
        <ele>302.391886</ele>
        <time>2021-11-08T22:43:53.619Z</time>
      </trkpt>
      <trkpt lat="47.542974" lon="7.946495">
        <ele>302.462080</ele>
        <time>2021-11-08T22:43:55.260Z</time>
      </trkpt>
      <trkpt lat="47.542960" lon="7.946400">
        <ele>302.598652</ele>
        <time>2021-11-08T22:43:57.326Z</time>
      </trkpt>
      <trkpt lat="47.542916" lon="7.945730">
        <ele>303.614951</ele>
        <time>2021-11-08T22:44:09.991Z</time>
      </trkpt>
      <trkpt lat="47.542913" lon="7.945267">
        <ele>304.313992</ele>
        <time>2021-11-08T22:44:18.486Z</time>
      </trkpt>
      <trkpt lat="47.543007" lon="7.943867">
        <ele>306.438052</ele>
        <time>2021-11-08T22:44:39.653Z</time>
      </trkpt>
      <trkpt lat="47.543161" lon="7.942213">
        <ele>306.448741</ele>
        <time>2021-11-08T22:44:58.059Z</time>
      </trkpt>
      <trkpt lat="47.543435" lon="7.940670">
        <ele>305.810454</ele>
        <time>2021-11-08T22:45:11.007Z</time>
      </trkpt>
      <trkpt lat="47.543826" lon="7.939433">
        <ele>304.330809</ele>
        <time>2021-11-08T22:45:21.408Z</time>
      </trkpt>
      <trkpt lat="47.544472" lon="7.937932">
        <ele>302.284304</ele>
        <time>2021-11-08T22:45:34.733Z</time>
      </trkpt>
      <trkpt lat="47.544705" lon="7.937395">
        <ele>301.517743</ele>
        <time>2021-11-08T22:45:39.572Z</time>
      </trkpt>
      <trkpt lat="47.544903" lon="7.936917">
        <ele>300.844301</ele>
        <time>2021-11-08T22:45:43.833Z</time>
      </trkpt>
      <trkpt lat="47.545074" lon="7.936484">
        <ele>300.258340</ele>
        <time>2021-11-08T22:45:47.664Z</time>
      </trkpt>
      <trkpt lat="47.545457" lon="7.935110">
        <ele>299.063978</ele>
        <time>2021-11-08T22:45:59.032Z</time>
      </trkpt>
      <trkpt lat="47.545674" lon="7.933625">
        <ele>298.368822</ele>
        <time>2021-11-08T22:46:12.112Z</time>
      </trkpt>
      <trkpt lat="47.545702" lon="7.933290">
        <ele>298.561242</ele>
        <time>2021-11-08T22:46:15.692Z</time>
      </trkpt>
      <trkpt lat="47.545724" lon="7.932758">
        <ele>298.865069</ele>
        <time>2021-11-08T22:46:21.959Z</time>
      </trkpt>
      <trkpt lat="47.545721" lon="7.931992">
        <ele>299.301722</ele>
        <time>2021-11-08T22:46:31.999Z</time>
      </trkpt>
      <trkpt lat="47.545696" lon="7.931497">
        <ele>299.584678</ele>
        <time>2021-11-08T22:46:39.204Z</time>
      </trkpt>
      <trkpt lat="47.545661" lon="7.930955">
        <ele>300.137801</ele>
        <time>2021-11-08T22:46:47.899Z</time>
      </trkpt>
      <trkpt lat="47.545563" lon="7.929641">
        <ele>301.702913</ele>
        <time>2021-11-08T22:47:10.239Z</time>
      </trkpt>
      <trkpt lat="47.545475" lon="7.928419">
        <ele>302.515087</ele>
        <time>2021-11-08T22:47:26.541Z</time>
      </trkpt>
      <trkpt lat="47.545421" lon="7.927686">
        <ele>301.705838</ele>
        <time>2021-11-08T22:47:32.645Z</time>
      </trkpt>
      <trkpt lat="47.545406" lon="7.927306">
        <ele>301.288074</ele>
        <time>2021-11-08T22:47:35.549Z</time>
      </trkpt>
      <trkpt lat="47.545407" lon="7.927001">
        <ele>300.953330</ele>
        <time>2021-11-08T22:47:37.835Z</time>
      </trkpt>
      <trkpt lat="47.545409" lon="7.926773">
        <ele>300.703078</ele>
        <time>2021-11-08T22:47:39.465Z</time>
      </trkpt>
      <trkpt lat="47.545417" lon="7.925848">
        <ele>299.404935</ele>
        <time>2021-11-08T22:47:45.800Z</time>
      </trkpt>
      <trkpt lat="47.545446" lon="7.925350">
        <ele>298.124535</ele>
        <time>2021-11-08T22:47:49.091Z</time>
      </trkpt>
      <trkpt lat="47.545466" lon="7.924880">
        <ele>296.918207</ele>
        <time>2021-11-08T22:47:52.145Z</time>
      </trkpt>
      <trkpt lat="47.545481" lon="7.924396">
        <ele>295.677101</ele>
        <time>2021-11-08T22:47:55.228Z</time>
      </trkpt>
      <trkpt lat="47.545521" lon="7.923709">
        <ele>293.910770</ele>
        <time>2021-11-08T22:47:59.753Z</time>
      </trkpt>
      <trkpt lat="47.545536" lon="7.923407">
        <ele>293.135085</ele>
        <time>2021-11-08T22:48:01.901Z</time>
      </trkpt>
      <trkpt lat="47.545553" lon="7.923142">
        <ele>292.816255</ele>
        <time>2021-11-08T22:48:03.732Z</time>
      </trkpt>
      <trkpt lat="47.545587" lon="7.922895">
        <ele>292.548037</ele>
        <time>2021-11-08T22:48:05.666Z</time>
      </trkpt>
      <trkpt lat="47.545641" lon="7.922610">
        <ele>292.233076</ele>
        <time>2021-11-08T22:48:07.812Z</time>
      </trkpt>
      <trkpt lat="47.545690" lon="7.922369">
        <ele>291.965272</ele>
        <time>2021-11-08T22:48:09.818Z</time>
      </trkpt>
      <trkpt lat="47.545699" lon="7.922325">
        <ele>291.916354</ele>
        <time>2021-11-08T22:48:10.112Z</time>
      </trkpt>
      <trkpt lat="47.545714" lon="7.922249">
        <ele>291.832104</ele>
        <time>2021-11-08T22:48:10.702Z</time>
      </trkpt>
      <trkpt lat="47.545778" lon="7.921947">
        <ele>291.495312</ele>
        <time>2021-11-08T22:48:13.405Z</time>
      </trkpt>
      <trkpt lat="47.545810" lon="7.921755">
        <ele>291.284889</ele>
        <time>2021-11-08T22:48:14.886Z</time>
      </trkpt>
      <trkpt lat="47.545881" lon="7.921096">
        <ele>290.574839</ele>
        <time>2021-11-08T22:48:20.348Z</time>
      </trkpt>
      <trkpt lat="47.545913" lon="7.920765">
        <ele>290.235246</ele>
        <time>2021-11-08T22:48:23.240Z</time>
      </trkpt>
      <trkpt lat="47.545973" lon="7.920313">
        <ele>290.142842</ele>
        <time>2021-11-08T22:48:27.711Z</time>
      </trkpt>
      <trkpt lat="47.546128" lon="7.919617">
        <ele>289.995828</ele>
        <time>2021-11-08T22:48:34.951Z</time>
      </trkpt>
      <trkpt lat="47.546262" lon="7.919081">
        <ele>289.881173</ele>
        <time>2021-11-08T22:48:41.000Z</time>
      </trkpt>
      <trkpt lat="47.546821" lon="7.916867">
        <ele>289.138359</ele>
        <time>2021-11-08T22:49:01.668Z</time>
      </trkpt>
      <trkpt lat="47.547032" lon="7.916218">
        <ele>288.863368</ele>
        <time>2021-11-08T22:49:07.975Z</time>
      </trkpt>
      <trkpt lat="47.547091" lon="7.916039">
        <ele>288.787325</ele>
        <time>2021-11-08T22:49:09.749Z</time>
      </trkpt>
      <trkpt lat="47.547113" lon="7.915971">
        <ele>288.758539</ele>
        <time>2021-11-08T22:49:10.339Z</time>
      </trkpt>
      <trkpt lat="47.547423" lon="7.915080">
        <ele>288.753970</ele>
        <time>2021-11-08T22:49:19.826Z</time>
      </trkpt>
      <trkpt lat="47.547994" lon="7.913433">
        <ele>288.906855</ele>
        <time>2021-11-08T22:49:39.531Z</time>
      </trkpt>
      <trkpt lat="47.548027" lon="7.913334">
        <ele>288.980939</ele>
        <time>2021-11-08T22:49:40.890Z</time>
      </trkpt>
      <trkpt lat="47.548412" lon="7.912168">
        <ele>289.851873</ele>
        <time>2021-11-08T22:49:57.293Z</time>
      </trkpt>
      <trkpt lat="47.549012" lon="7.910340">
        <ele>291.363907</ele>
        <time>2021-11-08T22:50:24.281Z</time>
      </trkpt>
      <trkpt lat="47.549102" lon="7.910058">
        <ele>291.632554</ele>
        <time>2021-11-08T22:50:28.405Z</time>
      </trkpt>
      <trkpt lat="47.549195" lon="7.909756">
        <ele>291.918434</ele>
        <time>2021-11-08T22:50:32.704Z</time>
      </trkpt>
      <trkpt lat="47.549275" lon="7.909492">
        <ele>292.167660</ele>
        <time>2021-11-08T22:50:36.461Z</time>
      </trkpt>
      <trkpt lat="47.549520" lon="7.908678">
        <ele>292.935235</ele>
        <time>2021-11-08T22:50:47.994Z</time>
      </trkpt>
      <trkpt lat="47.549539" lon="7.908625">
        <ele>292.986918</ele>
        <time>2021-11-08T22:50:48.737Z</time>
      </trkpt>
      <trkpt lat="47.550497" lon="7.905558">
        <ele>298.610205</ele>
        <time>2021-11-08T22:51:43.590Z</time>
      </trkpt>
      <trkpt lat="47.550283" lon="7.905413">
        <ele>299.426555</ele>
        <time>2021-11-08T22:51:51.756Z</time>
      </trkpt>
      <trkpt lat="47.550067" lon="7.905245">
        <ele>300.272869</ele>
        <time>2021-11-08T22:52:00.442Z</time>
      </trkpt>
      <trkpt lat="47.549867" lon="7.905155">
        <ele>300.997997</ele>
        <time>2021-11-08T22:52:08.071Z</time>
      </trkpt>
      <trkpt lat="47.549868" lon="7.905010">
        <ele>301.337532</ele>
        <time>2021-11-08T22:52:11.476Z</time>
      </trkpt>
      <trkpt lat="47.550025" lon="7.904774">
        <ele>302.113426</ele>
        <time>2021-11-08T22:52:19.627Z</time>
      </trkpt>
      <trkpt lat="47.550302" lon="7.904164">
        <ele>303.874800</ele>
        <time>2021-11-08T22:52:37.926Z</time>
      </trkpt>
      <trkpt lat="47.550498" lon="7.903445">
        <ele>305.801038</ele>
        <time>2021-11-08T22:52:57.498Z</time>
      </trkpt>
      <trkpt lat="47.550688" lon="7.902451">
        <ele>308.367329</ele>
        <time>2021-11-08T22:53:20.047Z</time>
      </trkpt>
      <trkpt lat="47.550757" lon="7.901591">
        <ele>310.621494</ele>
        <time>2021-11-08T22:53:39.843Z</time>
      </trkpt>
      <trkpt lat="47.550769" lon="7.901362">
        <ele>311.273663</ele>
        <time>2021-11-08T22:53:45.751Z</time>
      </trkpt>
      <trkpt lat="47.550801" lon="7.900244">
        <ele>314.450915</ele>
        <time>2021-11-08T22:54:10.148Z</time>
      </trkpt>
      <trkpt lat="47.550819" lon="7.898109">
        <ele>319.735289</ele>
        <time>2021-11-08T22:54:57.188Z</time>
      </trkpt>
      <trkpt lat="47.550648" lon="7.896481">
        <ele>323.137581</ele>
        <time>2021-11-08T22:55:24.843Z</time>
      </trkpt>
      <trkpt lat="47.550639" lon="7.896345">
        <ele>323.250839</ele>
        <time>2021-11-08T22:55:27.219Z</time>
      </trkpt>
      <trkpt lat="47.550660" lon="7.896255">
        <ele>323.329764</ele>
        <time>2021-11-08T22:55:28.019Z</time>
      </trkpt>
      <trkpt lat="47.550838" lon="7.895509">
        <ele>323.985554</ele>
        <time>2021-11-08T22:55:38.187Z</time>
      </trkpt>
      <trkpt lat="47.550878" lon="7.895158">
        <ele>324.280582</ele>
        <time>2021-11-08T22:55:42.250Z</time>
      </trkpt>
      <trkpt lat="47.550908" lon="7.894308">
        <ele>324.986029</ele>
        <time>2021-11-08T22:55:52.722Z</time>
      </trkpt>
      <trkpt lat="47.550892" lon="7.893176">
        <ele>327.084951</ele>
        <time>2021-11-08T22:56:07.439Z</time>
      </trkpt>
      <trkpt lat="47.550904" lon="7.891725">
        <ele>330.423011</ele>
        <time>2021-11-08T22:56:37.201Z</time>
      </trkpt>
      <trkpt lat="47.550915" lon="7.890600">
        <ele>334.297093</ele>
        <time>2021-11-08T22:57:06.042Z</time>
      </trkpt>
      <trkpt lat="47.550833" lon="7.889069">
        <ele>340.651549</ele>
        <time>2021-11-08T22:57:48.675Z</time>
      </trkpt>
      <trkpt lat="47.550831" lon="7.888611">
        <ele>342.541344</ele>
        <time>2021-11-08T22:58:01.245Z</time>
      </trkpt>
      <trkpt lat="47.550789" lon="7.887816">
        <ele>345.696187</ele>
        <time>2021-11-08T22:58:21.763Z</time>
      </trkpt>
      <trkpt lat="47.550758" lon="7.887295">
        <ele>347.765392</ele>
        <time>2021-11-08T22:58:35.588Z</time>
      </trkpt>
      <trkpt lat="47.550677" lon="7.886476">
        <ele>351.040173</ele>
        <time>2021-11-08T22:58:56.978Z</time>
      </trkpt>
      <trkpt lat="47.550580" lon="7.885972">
        <ele>353.083534</ele>
        <time>2021-11-08T22:59:09.857Z</time>
      </trkpt>
      <trkpt lat="47.550548" lon="7.885799">
        <ele>353.644312</ele>
        <time>2021-11-08T22:59:14.306Z</time>
      </trkpt>
      <trkpt lat="47.550391" lon="7.885109">
        <ele>355.920684</ele>
        <time>2021-11-08T22:59:31.869Z</time>
      </trkpt>
      <trkpt lat="47.550332" lon="7.884727">
        <ele>357.145772</ele>
        <time>2021-11-08T22:59:40.613Z</time>
      </trkpt>
      <trkpt lat="47.550234" lon="7.883221">
        <ele>361.740514</ele>
        <time>2021-11-08T23:00:13.530Z</time>
      </trkpt>
      <trkpt lat="47.549927" lon="7.881490">
        <ele>366.018856</ele>
        <time>2021-11-08T23:00:45.793Z</time>
      </trkpt>
      <trkpt lat="47.549726" lon="7.880786">
        <ele>367.880773</ele>
        <time>2021-11-08T23:01:01.927Z</time>
      </trkpt>
      <trkpt lat="47.549327" lon="7.879547">
        <ele>371.813874</ele>
        <time>2021-11-08T23:01:31.832Z</time>
      </trkpt>
      <trkpt lat="47.549318" lon="7.879398">
        <ele>372.242470</ele>
        <time>2021-11-08T23:01:34.940Z</time>
      </trkpt>
      <trkpt lat="47.549140" lon="7.879391">
        <ele>372.998305</ele>
        <time>2021-11-08T23:01:41.670Z</time>
      </trkpt>
      <trkpt lat="47.549128" lon="7.879387">
        <ele>373.050515</ele>
        <time>2021-11-08T23:01:42.355Z</time>
      </trkpt>
      <trkpt lat="47.548718" lon="7.879258">
        <ele>374.829683</ele>
        <time>2021-11-08T23:01:55.568Z</time>
      </trkpt>
      <trkpt lat="47.548422" lon="7.878959">
        <ele>375.745015</ele>
        <time>2021-11-08T23:02:06.218Z</time>
      </trkpt>
      <trkpt lat="47.548234" lon="7.878638">
        <ele>376.256619</ele>
        <time>2021-11-08T23:02:14.421Z</time>
      </trkpt>
      <trkpt lat="47.547992" lon="7.877974">
        <ele>377.165018</ele>
        <time>2021-11-08T23:02:27.685Z</time>
      </trkpt>
      <trkpt lat="47.547574" lon="7.876801">
        <ele>378.102543</ele>
        <time>2021-11-08T23:02:41.223Z</time>
      </trkpt>
      <trkpt lat="47.547126" lon="7.875801">
        <ele>375.700346</ele>
        <time>2021-11-08T23:02:50.006Z</time>
      </trkpt>
      <trkpt lat="47.546309" lon="7.874154">
        <ele>369.907485</ele>
        <time>2021-11-08T23:03:03.194Z</time>
      </trkpt>
      <trkpt lat="47.546135" lon="7.873859">
        <ele>368.274111</ele>
        <time>2021-11-08T23:03:05.576Z</time>
      </trkpt>
      <trkpt lat="47.546077" lon="7.873763">
        <ele>367.736941</ele>
        <time>2021-11-08T23:03:06.387Z</time>
      </trkpt>
      <trkpt lat="47.545934" lon="7.873549">
        <ele>366.481438</ele>
        <time>2021-11-08T23:03:08.192Z</time>
      </trkpt>
      <trkpt lat="47.545746" lon="7.873302">
        <ele>364.929329</ele>
        <time>2021-11-08T23:03:10.480Z</time>
      </trkpt>
      <trkpt lat="47.545515" lon="7.873015">
        <ele>363.067134</ele>
        <time>2021-11-08T23:03:13.179Z</time>
      </trkpt>
      <trkpt lat="47.545478" lon="7.872968">
        <ele>362.766082</ele>
        <time>2021-11-08T23:03:13.621Z</time>
      </trkpt>
      <trkpt lat="47.545375" lon="7.872836">
        <ele>362.070914</ele>
        <time>2021-11-08T23:03:14.814Z</time>
      </trkpt>
      <trkpt lat="47.545131" lon="7.872664">
        <ele>362.070914</ele>
        <time>2021-11-08T23:03:17.273Z</time>
      </trkpt>
      <trkpt lat="47.544883" lon="7.872555">
        <ele>362.070914</ele>
        <time>2021-11-08T23:03:19.595Z</time>
      </trkpt>
      <trkpt lat="47.544390" lon="7.872423">
        <ele>362.070914</ele>
        <time>2021-11-08T23:03:24.136Z</time>
      </trkpt>
      <trkpt lat="47.543332" lon="7.872237">
        <ele>362.070914</ele>
        <time>2021-11-08T23:03:34.387Z</time>
      </trkpt>
      <trkpt lat="47.543312" lon="7.872216">
        <ele>362.070914</ele>
        <time>2021-11-08T23:03:34.631Z</time>
      </trkpt>
    </trkseg>
  </trk>
</gpx>